Warning: Javascript must be enabled to use all the features on this page!


Page Loading - Please Wait...

Click to hideNews Bulletins
Click to hide state-specific text

Welcome to the NWIS-Web for the Arizona Water Science Center


The majority of USGS Gaging Stations are funded though a cooperative program between the USGS other interested agencies.
Follow this link for information on the Cooperative Water Program with the USGS.

Arizona Water Science Center Home Page
Colorado Basin River Forecast Center (CBRFC) - provided by the National Weather Service, AHPS. CBRFC on a esri powered interactive map.
Threatened and Endangered USGS Gaging Stations in Arizona

USGS 09471400 BABOCOMARI RIVER NEAR TOMBSTONE, AZ.

PROVISIONAL DATA SUBJECT TO REVISION

Click to hidestation-specific text
Station operated in cooperation with Cochise County, the Bureau of Land Management, and the U.S. Army at Fort Huachuca.

HIGH DATA RATE (Site data are transmitted & updated hourly)
rainfall Arrow
This station managed by the Tucson Field Office; USGS, AZ-WSC.

Available Parameters Available Period
All 3 Available Parameters for this site
  
00060 Discharge 2007-10-01  2016-07-27
00065 Gage height 2007-10-01  2016-07-27
00045 Precipitation 2016-03-29  2016-07-27

Graph
Graph w/ stats
Graph w/o stats
Graph w/ (up to 3) parms
Table
Tab-separated
Days  (31)
 

  -- or --
Begin date
 

End date
 

Summary of all available data for this site
Instantaneous-data availability statement






Date / Time




Dis-
charge,
ft3/s,




Gage
height,
feet,



Precip-
itation
total,
inches,
06/26/2016 00:00 MST0.00P  0.37P  0.00P  
06/26/2016 00:15 MST0.00P  0.37P  0.00P  
06/26/2016 00:30 MST0.00P  0.37P  0.00P  
06/26/2016 00:45 MST0.04P  0.39P  0.00P  
06/26/2016 01:00 MST0.03P  0.38P  0.00P  
06/26/2016 01:15 MST0.03P  0.38P  0.00P  
06/26/2016 01:30 MST0.00P  0.37P  0.00P  
06/26/2016 01:45 MST0.03P  0.38P  0.00P  
06/26/2016 02:00 MST0.03P  0.38P  0.00P  
06/26/2016 02:15 MST0.00P  0.37P  0.00P  
06/26/2016 02:30 MST0.03P  0.38P  0.00P  
06/26/2016 02:45 MST0.00P  0.37P  0.00P  
06/26/2016 03:00 MST0.03P  0.38P  0.00P  
06/26/2016 03:15 MST0.03P  0.38P  0.00P  
06/26/2016 03:30 MST0.03P  0.38P  0.00P  
06/26/2016 03:45 MST0.03P  0.38P  0.00P  
06/26/2016 04:00 MST0.04P  0.39P  0.00P  
06/26/2016 04:15 MST0.04P  0.39P  0.00P  
06/26/2016 04:30 MST0.04P  0.40P  0.00P  
06/26/2016 04:45 MST0.03P  0.38P  0.00P  
06/26/2016 05:00 MST0.04P  0.39P  0.00P  
06/26/2016 05:15 MST0.04P  0.39P  0.00P  
06/26/2016 05:30 MST0.03P  0.38P  0.00P  
06/26/2016 05:45 MST0.04P  0.40P  0.00P  
06/26/2016 06:00 MST0.04P  0.39P  0.00P  
06/26/2016 06:15 MST0.03P  0.38P  0.00P  
06/26/2016 06:30 MST0.03P  0.38P  0.00P  
06/26/2016 06:45 MST0.04P  0.39P  0.00P  
06/26/2016 07:00 MST0.04P  0.39P  0.00P  
06/26/2016 07:15 MST0.04P  0.39P  0.00P  
06/26/2016 07:30 MST0.04P  0.39P  0.00P  
06/26/2016 07:45 MST0.04P  0.39P  0.00P  
06/26/2016 08:00 MST0.04P  0.39P  0.00P  
06/26/2016 08:15 MST0.03P  0.38P  0.00P  
06/26/2016 08:30 MST0.04P  0.39P  0.00P  
06/26/2016 08:45 MST0.04P  0.39P  0.00P  
06/26/2016 09:00 MST0.04P  0.39P  0.00P  
06/26/2016 09:15 MST0.03P  0.38P  0.00P  
06/26/2016 09:30 MST0.03P  0.38P  0.00P  
06/26/2016 09:45 MST0.04P  0.39P  0.00P  
06/26/2016 10:00 MST0.00P  0.37P  0.00P  
06/26/2016 10:15 MST0.00P  0.37P  0.00P  
06/26/2016 10:30 MST0.03P  0.38P  0.00P  
06/26/2016 10:45 MST0.03P  0.38P  0.00P  
06/26/2016 11:00 MST0.04P  0.39P  0.00P  
06/26/2016 11:15 MST0.00P  0.37P  0.00P  
06/26/2016 11:30 MST0.03P  0.38P  0.00P  
06/26/2016 11:45 MST0.04P  0.41P  0.00P  
06/26/2016 12:00 MST0.04P  0.40P  0.00P  
06/26/2016 12:15 MST0.04P  0.40P  0.00P  
06/26/2016 12:30 MST0.04P  0.41P  0.00P  
06/26/2016 12:45 MST0.04P  0.40P  0.00P  
06/26/2016 13:00 MST0.04P  0.39P  0.00P  
06/26/2016 13:15 MST0.04P  0.40P  0.00P  
06/26/2016 13:30 MST0.03P  0.38P  0.00P  
06/26/2016 13:45 MST0.04P  0.39P  0.00P  
06/26/2016 14:00 MST0.03P  0.38P  0.00P  
06/26/2016 14:15 MST0.03P  0.38P  0.00P  
06/26/2016 14:30 MST0.04P  0.40P  0.00P  
06/26/2016 14:45 MST0.00P  0.36P  0.00P  
06/26/2016 15:00 MST0.00P  0.36P  0.00P  
06/26/2016 15:15 MST0.03P  0.38P  0.00P  
06/26/2016 15:30 MST0.00P  0.37P  0.00P  
06/26/2016 15:45 MST0.00P  0.34P  0.00P  
06/26/2016 16:00 MST0.00P  0.35P  0.00P  
06/26/2016 16:15 MST0.00P  0.37P  0.00P  
06/26/2016 16:30 MST0.00P  0.33P  0.00P  
06/26/2016 16:45 MST0.00P  0.33P  0.00P  
06/26/2016 17:00 MST0.00P  0.35P  0.00P  
06/26/2016 17:15 MST0.00P  0.34P  0.00P  
06/26/2016 17:30 MST0.00P  0.33P  0.00P  
06/26/2016 17:45 MST0.00P  0.35P  0.00P  
06/26/2016 18:00 MST0.00P  0.32P  0.00P  
06/26/2016 18:15 MST0.00P  0.37P  0.00P  
06/26/2016 18:30 MST0.00P  0.34P  0.00P  
06/26/2016 18:45 MST0.00P  0.34P  0.00P  
06/26/2016 19:00 MST0.00P  0.34P  0.00P  
06/26/2016 19:15 MST0.00P  0.35P  0.00P  
06/26/2016 19:30 MST0.00P  0.33P  0.00P  
06/26/2016 19:45 MST0.00P  0.34P  0.00P  
06/26/2016 20:00 MST0.00P  0.33P  0.00P  
06/26/2016 20:15 MST0.00P  0.33P  0.00P  
06/26/2016 20:30 MST0.00P  0.31P  0.00P  
06/26/2016 20:45 MST0.00P  0.33P  0.00P  
06/26/2016 21:00 MST0.00P  0.33P  0.00P  
06/26/2016 21:15 MST0.00P  0.33P  0.00P  
06/26/2016 21:30 MST0.00P  0.30P  0.00P  
06/26/2016 21:45 MST0.00P  0.32P  0.00P  
06/26/2016 22:00 MST0.00P  0.34P  0.00P  
06/26/2016 22:15 MST0.00P  0.35P  0.00P  
06/26/2016 22:30 MST0.00P  0.34P  0.00P  
06/26/2016 22:45 MST0.00P  0.32P  0.00P  
06/26/2016 23:00 MST0.00P  0.35P  0.00P  
06/26/2016 23:15 MST0.00P  0.33P  0.00P  
06/26/2016 23:30 MST0.00P  0.35P  0.00P  
06/26/2016 23:45 MST0.00P  0.36P  0.00P  
06/27/2016 00:00 MST0.00P  0.34P  0.00P  
06/27/2016 00:15 MST0.00P  0.35P  0.00P  
06/27/2016 00:30 MST0.00P  0.35P  0.00P  
06/27/2016 00:45 MST0.00P  0.34P  0.00P  
06/27/2016 01:00 MST0.00P  0.36P  0.00P  
06/27/2016 01:15 MST0.00P  0.35P  0.00P  
06/27/2016 01:30 MST0.00P  0.35P  0.00P  
06/27/2016 01:45 MST0.00P  0.36P  0.00P  
06/27/2016 02:00 MST0.00P  0.36P  0.00P  
06/27/2016 02:15 MST0.00P  0.37P  0.00P  
06/27/2016 02:30 MST0.00P  0.35P  0.00P  
06/27/2016 02:45 MST0.00P  0.37P  0.00P  
06/27/2016 03:00 MST0.00P  0.35P  0.00P  
06/27/2016 03:15 MST0.00P  0.36P  0.00P  
06/27/2016 03:30 MST0.00P  0.35P  0.00P  
06/27/2016 03:45 MST0.00P  0.36P  0.00P  
06/27/2016 04:00 MST0.00P  0.36P  0.00P  
06/27/2016 04:15 MST0.03P  0.38P  0.00P  
06/27/2016 04:30 MST0.00P  0.36P  0.00P  
06/27/2016 04:45 MST0.00P  0.34P  0.00P  
06/27/2016 05:00 MST0.00P  0.37P  0.00P  
06/27/2016 05:15 MST0.00P  0.35P  0.00P  
06/27/2016 05:30 MST0.00P  0.36P  0.00P  
06/27/2016 05:45 MST0.00P  0.36P  0.00P  
06/27/2016 06:00 MST0.03P  0.38P  0.00P  
06/27/2016 06:15 MST0.00P  0.36P  0.00P  
06/27/2016 06:30 MST0.00P  0.35P  0.00P  
06/27/2016 06:45 MST0.00P  0.37P  0.00P  
06/27/2016 07:00 MST0.00P  0.36P  0.00P  
06/27/2016 07:15 MST0.00P  0.36P  0.00P  
06/27/2016 07:30 MST0.04P  0.39P  0.00P  
06/27/2016 07:45 MST0.04P  0.39P  0.00P  
06/27/2016 08:00 MST0.04P  0.39P  0.00P  
06/27/2016 08:15 MST0.00P  0.37P  0.00P  
06/27/2016 08:30 MST0.00P  0.37P  0.00P  
06/27/2016 08:45 MST0.04P  0.40P  0.00P  
06/27/2016 09:00 MST0.03P  0.38P  0.00P  
06/27/2016 09:15 MST0.04P  0.40P  0.00P  
06/27/2016 09:30 MST0.00P  0.37P  0.00P  
06/27/2016 09:45 MST0.03P  0.38P  0.00P  
06/27/2016 10:00 MST0.04P  0.39P  0.00P  
06/27/2016 10:15 MST0.00P  0.37P  0.00P  
06/27/2016 10:30 MST0.03P  0.38P  0.00P  
06/27/2016 10:45 MST0.00P  0.36P  0.00P  
06/27/2016 11:00 MST0.00P  0.37P  0.00P  
06/27/2016 11:15 MST0.00P  0.35P  0.00P  
06/27/2016 11:30 MST0.00P  0.35P  0.00P  
06/27/2016 11:45 MST0.00P  0.32P  0.00P  
06/27/2016 12:00 MST0.00P  0.32P  0.00P  
06/27/2016 12:15 MST0.00P  0.32P  0.00P  
06/27/2016 12:30 MST0.00P  0.33P  0.00P  
06/27/2016 12:45 MST0.00P  0.30P  0.00P  
06/27/2016 13:00 MST0.00P  0.33P  0.00P  
06/27/2016 13:15 MST0.00P  0.29P  0.00P  
06/27/2016 13:30 MST0.00P  0.30P  0.00P  
06/27/2016 13:45 MST0.00P  0.31P  0.00P  
06/27/2016 14:00 MST0.00P  0.29P  0.00P  
06/27/2016 14:15 MST0.00P  0.33P  0.00P  
06/27/2016 14:30 MST0.00P  0.30P  0.00P  
06/27/2016 14:45 MST0.00P  0.31P  0.00P  
06/27/2016 15:00 MST0.00P  0.28P  0.00P  
06/27/2016 15:15 MST0.00P  0.29P  0.00P  
06/27/2016 15:30 MST0.00P  0.29P  0.00P  
06/27/2016 15:45 MST0.00P  0.29P  0.00P  
06/27/2016 16:00 MST0.00P  0.28P  0.00P  
06/27/2016 16:15 MST0.00P  0.29P  0.00P  
06/27/2016 16:30 MST0.00P  0.29P  0.00P  
06/27/2016 16:45 MST0.00P  0.29P  0.00P  
06/27/2016 17:00 MST0.00P  0.27P  0.00P  
06/27/2016 17:15 MST0.00P  0.28P  0.00P  
06/27/2016 17:30 MST0.00P  0.28P  0.00P  
06/27/2016 17:45 MST0.00P  0.28P  0.00P  
06/27/2016 18:00 MST0.00P  0.28P  0.00P  
06/27/2016 18:15 MST0.00P  0.28P  0.00P  
06/27/2016 18:30 MST0.00P  0.28P  0.00P  
06/27/2016 18:45 MST0.00P  0.25P  0.00P  
06/27/2016 19:00 MST0.00P  0.28P  0.00P  
06/27/2016 19:15 MST0.00P  0.28P  0.00P  
06/27/2016 19:30 MST0.00P  0.27P  0.00P  
06/27/2016 19:45 MST0.00P  0.28P  0.00P  
06/27/2016 20:00 MST0.00P  0.28P  0.00P  
06/27/2016 20:15 MST0.00P  0.28P  0.00P  
06/27/2016 20:30 MST0.00P  0.27P  0.00P  
06/27/2016 20:45 MST0.00P  0.28P  0.00P  
06/27/2016 21:00 MST0.00P  0.27P  0.00P  
06/27/2016 21:15 MST0.00P  0.26P  0.00P  
06/27/2016 21:30 MST0.00P  0.26P  0.00P  
06/27/2016 21:45 MST0.00P  0.27P  0.00P  
06/27/2016 22:00 MST0.00P  0.28P  0.00P  
06/27/2016 22:15 MST0.00P  0.27P  0.00P  
06/27/2016 22:30 MST0.00P  0.27P  0.00P  
06/27/2016 22:45 MST0.00P  0.27P  0.00P  
06/27/2016 23:00 MST0.00P  0.28P  0.00P  
06/27/2016 23:15 MST0.00P  0.27P  0.00P  
06/27/2016 23:30 MST0.00P  0.27P  0.00P  
06/27/2016 23:45 MST0.00P  0.27P  0.00P  
06/28/2016 00:00 MST0.00P  0.26P  0.00P  
06/28/2016 00:15 MST0.00P  0.26P  0.00P  
06/28/2016 00:30 MST0.00P  0.27P  0.00P  
06/28/2016 00:45 MST0.00P  0.28P  0.00P  
06/28/2016 01:00 MST0.00P  0.25P  0.00P  
06/28/2016 01:15 MST0.00P  0.28P  0.00P  
06/28/2016 01:30 MST0.00P  0.27P  0.00P  
06/28/2016 01:45 MST0.00P  0.27P  0.00P  
06/28/2016 02:00 MST0.00P  0.27P  0.00P  
06/28/2016 02:15 MST0.00P  0.29P  0.00P  
06/28/2016 02:30 MST0.00P  0.27P  0.00P  
06/28/2016 02:45 MST0.00P  0.29P  0.00P  
06/28/2016 03:00 MST0.00P  0.28P  0.00P  
06/28/2016 03:15 MST0.00P  0.29P  0.00P  
06/28/2016 03:30 MST0.00P  0.30P  0.00P  
06/28/2016 03:45 MST0.00P  0.28P  0.00P  
06/28/2016 04:00 MST0.00P  0.28P  0.00P  
06/28/2016 04:15 MST0.00P  0.30P  0.00P  
06/28/2016 04:30 MST0.00P  0.29P  0.00P  
06/28/2016 04:45 MST0.00P  0.29P  0.00P  
06/28/2016 05:00 MST0.00P  0.29P  0.00P  
06/28/2016 05:15 MST0.00P  0.29P  0.00P  
06/28/2016 05:30 MST0.00P  0.31P  0.00P  
06/28/2016 05:45 MST0.00P  0.28P  0.00P  
06/28/2016 06:00 MST0.00P  0.28P  0.00P  
06/28/2016 06:15 MST0.00P  0.31P  0.00P  
06/28/2016 06:30 MST0.00P  0.32P  0.00P  
06/28/2016 06:45 MST0.00P  0.31P  0.00P  
06/28/2016 07:00 MST0.00P  0.31P  0.00P  
06/28/2016 07:15 MST0.00P  0.31P  0.00P  
06/28/2016 07:30 MST0.00P  0.31P  0.00P  
06/28/2016 07:45 MST0.00P  0.33P  0.00P  
06/28/2016 08:00 MST0.00P  0.30P  0.00P  
06/28/2016 08:15 MST0.00P  0.33P  0.00P  
06/28/2016 08:30 MST0.00P  0.31P  0.00P  
06/28/2016 08:45 MST0.00P  0.30P  0.00P  
06/28/2016 09:00 MST0.00P  0.29P  0.00P  
06/28/2016 09:15 MST0.00P  0.28P  0.00P  
06/28/2016 09:30 MST0.00P  0.28P  0.00P  
06/28/2016 09:45 MST0.00P  0.26P  0.00P  
06/28/2016 10:00 MST0.00P  0.27P  0.00P  
06/28/2016 10:15 MST0.00P  0.26P  0.00P  
06/28/2016 10:30 MST0.00P  0.26P  0.00P  
06/28/2016 10:45 MST0.00P  0.26P  0.00P  
06/28/2016 11:00 MST0.00P  0.26P  0.00P  
06/28/2016 11:15 MST0.00P  0.25P  0.00P  
06/28/2016 11:30 MST0.00P  0.25P  0.00P  
06/28/2016 11:45 MST0.00P  0.26P  0.00P  
06/28/2016 12:00 MST0.00P  0.26P  0.00P  
06/28/2016 12:15 MST0.00P  0.27P  0.00P  
06/28/2016 12:30 MST0.00P  0.26P  0.00P  
06/28/2016 12:45 MST0.00P  0.25P  0.01P  
06/28/2016 13:00 MST0.00P  0.27P  0.00P  
06/28/2016 13:15 MST0.00P  0.24P  0.00P  
06/28/2016 13:30 MST0.00P  0.24P  0.00P  
06/28/2016 13:45 MST0.00P  0.25P  0.00P  
06/28/2016 14:00 MST0.00P  0.24P  0.00P  
06/28/2016 14:15 MST0.00P  0.25P  0.00P  
06/28/2016 14:30 MST0.00P  0.25P  0.00P  
06/28/2016 14:45 MST0.00P  0.25P  0.00P  
06/28/2016 15:00 MST0.00P  0.25P  0.00P  
06/28/2016 15:15 MST0.00P  0.25P  0.00P  
06/28/2016 15:30 MST0.00P  0.25P  0.00P  
06/28/2016 15:45 MST0.00P  0.25P  0.00P  
06/28/2016 16:00 MST0.00P  0.23P  0.00P  
06/28/2016 16:15 MST0.00P  0.24P  0.00P  
06/28/2016 16:30 MST0.00P  0.23P  0.00P  
06/28/2016 16:45 MST0.00P  0.24P  0.00P  
06/28/2016 17:00 MST0.00P  0.23P  0.00P  
06/28/2016 17:15 MST0.00P  0.23P  0.00P  
06/28/2016 17:30 MST0.00P  0.24P  0.00P  
06/28/2016 17:45 MST0.00P  0.24P  0.00P  
06/28/2016 18:00 MST0.00P  0.23P  0.00P  
06/28/2016 18:15 MST0.00P  0.23P  0.00P  
06/28/2016 18:30 MST0.00P  0.22P  0.00P  
06/28/2016 18:45 MST0.00P  0.23P  0.00P  
06/28/2016 19:00 MST0.00P  0.25P  0.00P  
06/28/2016 19:15 MST0.00P  0.21P  0.00P  
06/28/2016 19:30 MST0.00P  0.24P  0.00P  
06/28/2016 19:45 MST0.00P  0.23P  0.00P  
06/28/2016 20:00 MST0.00P  0.24P  0.00P  
06/28/2016 20:15 MST0.00P  0.23P  0.00P  
06/28/2016 20:30 MST0.00P  0.25P  0.00P  
06/28/2016 20:45 MST0.00P  0.23P  0.00P  
06/28/2016 21:00 MST0.00P  0.23P  0.00P  
06/28/2016 21:15 MST0.00P  0.25P  0.00P  
06/28/2016 21:30 MST0.00P  0.23P  0.00P  
06/28/2016 21:45 MST0.00P  0.25P  0.00P  
06/28/2016 22:00 MST0.00P  0.24P  0.00P  
06/28/2016 22:15 MST0.00P  0.24P  0.00P  
06/28/2016 22:30 MST0.00P  0.24P  0.00P  
06/28/2016 22:45 MST0.00P  0.24P  0.00P  
06/28/2016 23:00 MST0.00P  0.24P  0.00P  
06/28/2016 23:15 MST0.00P  0.24P  0.00P  
06/28/2016 23:30 MST0.00P  0.25P  0.00P  
06/28/2016 23:45 MST0.00P  0.24P  0.00P  
06/29/2016 00:00 MST0.00P  0.26P  0.00P  
06/29/2016 00:15 MST0.00P  0.26P  0.00P  
06/29/2016 00:30 MST0.00P  0.25P  0.00P  
06/29/2016 00:45 MST0.00P  0.24P  0.00P  
06/29/2016 01:00 MST0.00P  0.24P  0.00P  
06/29/2016 01:15 MST0.00P  0.25P  0.00P  
06/29/2016 01:30 MST0.00P  0.24P  0.00P  
06/29/2016 01:45 MST0.00P  0.26P  0.00P  
06/29/2016 02:00 MST0.00P  0.24P  0.00P  
06/29/2016 02:15 MST0.00P  0.25P  0.00P  
06/29/2016 02:30 MST0.00P  0.25P  0.00P  
06/29/2016 02:45 MST0.00P  0.27P  0.05P  
06/29/2016 03:00 MST0.00P  0.27P  0.01P  
06/29/2016 03:15 MST0.00P  0.28P  0.03P  
06/29/2016 03:30 MST0.00P  0.29P  0.00P  
06/29/2016 03:45 MST0.00P  0.30P  0.02P  
06/29/2016 04:00 MST0.00P  0.29P  0.00P  
06/29/2016 04:15 MST0.00P  0.29P  0.00P  
06/29/2016 04:30 MST0.00P  0.30P  0.00P  
06/29/2016 04:45 MST0.00P  0.30P  0.00P  
06/29/2016 05:00 MST0.00P  0.29P  0.00P  
06/29/2016 05:15 MST0.00P  0.28P  0.00P  
06/29/2016 05:30 MST0.00P  0.29P  0.00P  
06/29/2016 05:45 MST0.00P  0.29P  0.00P  
06/29/2016 06:00 MST0.00P  0.30P  0.00P  
06/29/2016 06:15 MST0.00P  0.29P  0.00P  
06/29/2016 06:30 MST0.00P  0.30P  0.00P  
06/29/2016 06:45 MST0.00P  0.31P  0.00P  
06/29/2016 07:00 MST0.00P  0.31P  0.00P  
06/29/2016 07:15 MST0.00P  0.31P  0.00P  
06/29/2016 07:30 MST0.00P  0.31P  0.00P  
06/29/2016 07:45 MST0.00P  0.28P  0.00P  
06/29/2016 08:00 MST0.00P  0.30P  0.00P  
06/29/2016 08:15 MST0.00P  0.28P  0.00P  
06/29/2016 08:30 MST0.00P  0.30P  0.00P  
06/29/2016 08:45 MST0.00P  0.30P  0.00P  
06/29/2016 09:00 MST0.00P  0.30P  0.00P  
06/29/2016 09:15 MST0.00P  0.29P  0.00P  
06/29/2016 09:30 MST0.00P  0.29P  0.00P  
06/29/2016 09:45 MST0.00P  0.29P  0.00P  
06/29/2016 10:00 MST0.00P  0.30P  0.00P  
06/29/2016 10:15 MST0.00P  0.30P  0.00P  
06/29/2016 10:30 MST0.00P  0.29P  0.00P  
06/29/2016 10:45 MST0.00P  0.29P  0.00P  
06/29/2016 11:00 MST0.00P  0.29P  0.00P  
06/29/2016 11:15 MST0.00P  0.28P  0.00P  
06/29/2016 11:30 MST0.00P  0.28P  0.00P  
06/29/2016 11:45 MST0.00P  0.28P  0.00P  
06/29/2016 12:00 MST0.00P  0.27P  0.00P  
06/29/2016 12:15 MST0.00P  0.28P  0.00P  
06/29/2016 12:30 MST0.00P  0.26P  0.00P  
06/29/2016 12:45 MST0.00P  0.28P  0.00P  
06/29/2016 13:00 MST0.00P  0.27P  0.00P  
06/29/2016 13:15 MST0.00P  0.27P  0.00P  
06/29/2016 13:30 MST0.00P  0.25P  0.00P  
06/29/2016 13:45 MST0.00P  0.27P  0.00P  
06/29/2016 14:00 MST0.00P  0.24P  0.00P  
06/29/2016 14:15 MST0.00P  0.26P  0.00P  
06/29/2016 14:30 MST0.00P  0.25P  0.00P  
06/29/2016 14:45 MST0.00P  0.24P  0.00P  
06/29/2016 15:00 MST0.00P  0.25P  0.00P  
06/29/2016 15:15 MST0.00P  0.23P  0.00P  
06/29/2016 15:30 MST0.00P  0.23P  0.00P  
06/29/2016 15:45 MST0.00P  0.22P  0.00P  
06/29/2016 16:00 MST0.00P  0.26P  0.00P  
06/29/2016 16:15 MST0.00P  0.25P  0.00P  
06/29/2016 16:30 MST0.00P  0.25P  0.00P  
06/29/2016 16:45 MST0.00P  0.24P  0.00P  
06/29/2016 17:00 MST0.00P  0.24P  0.00P  
06/29/2016 17:15 MST0.00P  0.23P  0.00P  
06/29/2016 17:30 MST0.00P  0.23P  0.00P  
06/29/2016 17:45 MST0.00P  0.23P  0.00P  
06/29/2016 18:00 MST0.00P  0.22P  0.00P  
06/29/2016 18:15 MST0.00P  0.22P  0.00P  
06/29/2016 18:30 MST0.00P  0.23P  0.00P  
06/29/2016 18:45 MST0.00P  0.24P  0.00P  
06/29/2016 19:00 MST0.00P  0.24P  0.00P  
06/29/2016 19:15 MST0.00P  0.23P  0.00P  
06/29/2016 19:30 MST0.00P  0.23P  0.00P  
06/29/2016 19:45 MST0.00P  0.23P  0.00P  
06/29/2016 20:00 MST0.00P  0.23P  0.00P  
06/29/2016 20:15 MST0.00P  0.24P  0.00P  
06/29/2016 20:30 MST0.00P  0.24P  0.00P  
06/29/2016 20:45 MST0.00P  0.22P  0.00P  
06/29/2016 21:00 MST0.00P  0.24P  0.00P  
06/29/2016 21:15 MST0.00P  0.25P  0.00P  
06/29/2016 21:30 MST0.00P  0.24P  0.00P  
06/29/2016 21:45 MST0.00P  0.22P  0.00P  
06/29/2016 22:00 MST0.00P  0.22P  0.00P  
06/29/2016 22:15 MST0.00P  0.22P  0.00P  
06/29/2016 22:30 MST0.00P  0.22P  0.00P  
06/29/2016 22:45 MST0.00P  0.23P  0.00P  
06/29/2016 23:00 MST0.00P  0.22P  0.00P  
06/29/2016 23:15 MST0.00P  0.22P  0.00P  
06/29/2016 23:30 MST0.00P  0.23P  0.00P  
06/29/2016 23:45 MST0.00P  0.23P  0.00P  
06/30/2016 00:00 MST0.00P  0.23P  0.00P  
06/30/2016 00:15 MST0.00P  0.23P  0.00P  
06/30/2016 00:30 MST0.00P  0.23P  0.00P  
06/30/2016 00:45 MST0.00P  0.23P  0.00P  
06/30/2016 01:00 MST0.00P  0.24P  0.00P  
06/30/2016 01:15 MST0.00P  0.26P  0.00P  
06/30/2016 01:30 MST0.00P  0.25P  0.00P  
06/30/2016 01:45 MST0.00P  0.27P  0.00P  
06/30/2016 02:00 MST0.00P  0.24P  0.00P  
06/30/2016 02:15 MST0.00P  0.25P  0.00P  
06/30/2016 02:30 MST0.00P  0.27P  0.00P  
06/30/2016 02:45 MST0.00P  0.24P  0.00P  
06/30/2016 03:00 MST0.00P  0.24P  0.00P  
06/30/2016 03:15 MST0.00P  0.27P  0.00P  
06/30/2016 03:30 MST0.00P  0.25P  0.00P  
06/30/2016 03:45 MST0.00P  0.25P  0.00P  
06/30/2016 04:00 MST0.00P  0.25P  0.00P  
06/30/2016 04:15 MST0.00P  0.25P  0.00P  
06/30/2016 04:30 MST0.00P  0.28P  0.00P  
06/30/2016 04:45 MST0.00P  0.28P  0.00P  
06/30/2016 05:00 MST0.00P  0.29P  0.00P  
06/30/2016 05:15 MST0.00P  0.27P  0.00P  
06/30/2016 05:30 MST0.00P  0.28P  0.00P  
06/30/2016 05:45 MST0.00P  0.28P  0.00P  
06/30/2016 06:00 MST0.00P  0.28P  0.00P  
06/30/2016 06:15 MST0.00P  0.29P  0.00P  
06/30/2016 06:30 MST0.00P  0.29P  0.00P  
06/30/2016 06:45 MST0.00P  0.29P  0.00P  
06/30/2016 07:00 MST0.00P  0.28P  0.00P  
06/30/2016 07:15 MST0.00P  0.29P  0.00P  
06/30/2016 07:30 MST0.00P  0.29P  0.00P  
06/30/2016 07:45 MST0.00P  0.29P  0.00P  
06/30/2016 08:00 MST0.00P  0.30P  0.00P  
06/30/2016 08:15 MST0.00P  0.30P  0.00P  
06/30/2016 08:30 MST0.00P  0.30P  0.00P  
06/30/2016 08:45 MST0.00P  0.29P  0.01P  
06/30/2016 09:00 MST0.00P  0.29P  0.00P  
06/30/2016 09:15 MST0.00P  0.29P  0.00P  
06/30/2016 09:30 MST0.00P  0.30P  0.00P  
06/30/2016 09:45 MST0.00P  0.29P  0.02P  
06/30/2016 10:00 MST0.00P  0.31P  0.01P  
06/30/2016 10:15 MST0.00P  0.31P  0.00P  
06/30/2016 10:30 MST0.00P  0.31P  0.01P  
06/30/2016 10:45 MST0.00P  0.32P  0.00P  
06/30/2016 11:00 MST0.00P  0.31P  0.00P  
06/30/2016 11:15 MST0.00P  0.33P  0.01P  
06/30/2016 11:30 MST0.00P  0.31P  0.00P  
06/30/2016 11:45 MST0.00P  0.32P  0.00P  
06/30/2016 12:00 MST0.00P  0.32P  0.00P  
06/30/2016 12:15 MST0.00P  0.32P  0.00P  
06/30/2016 12:30 MST0.00P  0.31P  0.00P  
06/30/2016 12:45 MST0.00P  0.33P  0.00P  
06/30/2016 13:00 MST0.00P  0.32P  0.00P  
06/30/2016 13:15 MST0.00P  0.31P  0.00P  
06/30/2016 13:30 MST0.00P  0.32P  0.00P  
06/30/2016 13:45 MST0.00P  0.31P  0.00P  
06/30/2016 14:00 MST0.00P  0.32P  0.00P  
06/30/2016 14:15 MST0.00P  0.30P  0.00P  
06/30/2016 14:30 MST0.00P  0.29P  0.00P  
06/30/2016 14:45 MST0.00P  0.31P  0.00P  
06/30/2016 15:00 MST0.00P  0.31P  0.00P  
06/30/2016 15:15 MST0.00P  0.29P  0.00P  
06/30/2016 15:30 MST0.00P  0.29P  0.00P  
06/30/2016 15:45 MST0.00P  0.29P  0.00P  
06/30/2016 16:00 MST0.00P  0.30P  0.00P  
06/30/2016 16:15 MST0.00P  0.29P  0.00P  
06/30/2016 16:30 MST0.00P  0.28P  0.00P  
06/30/2016 16:45 MST0.00P  0.28P  0.00P  
06/30/2016 17:00 MST0.00P  0.28P  0.00P  
06/30/2016 17:15 MST0.00P  0.29P  0.00P  
06/30/2016 17:30 MST0.00P  0.28P  0.00P  
06/30/2016 17:45 MST0.00P  0.28P  0.00P  
06/30/2016 18:00 MST0.00P  0.28P  0.00P  
06/30/2016 18:15 MST0.00P  0.30P  0.03P  
06/30/2016 18:30 MST0.00P  0.30P  0.03P  
06/30/2016 18:45 MST0.00P  0.35P  0.06P  
06/30/2016 19:00 MST0.00P  0.34P  0.07P  
06/30/2016 19:15 MST0.00P  0.35P  0.02P  
06/30/2016 19:30 MST0.00P  0.37P  0.02P  
06/30/2016 19:45 MST0.03P  0.38P  0.04P  
06/30/2016 20:00 MST0.03P  0.38P  0.03P  
06/30/2016 20:15 MST0.03P  0.38P  0.02P  
06/30/2016 20:30 MST0.04P  0.39P  0.02P  
06/30/2016 20:45 MST0.03P  0.38P  0.03P  
06/30/2016 21:00 MST0.04P  0.39P  0.02P  
06/30/2016 21:15 MST0.00P  0.37P  0.01P  
06/30/2016 21:30 MST0.04P  0.39P  0.00P  
06/30/2016 21:45 MST0.03P  0.38P  0.00P  
06/30/2016 22:00 MST0.00P  0.36P  0.00P  
06/30/2016 22:15 MST0.03P  0.38P  0.00P  
06/30/2016 22:30 MST0.03P  0.38P  0.00P  
06/30/2016 22:45 MST0.04P  0.40P  0.00P  
06/30/2016 23:00 MST0.04P  0.40P  0.00P  
06/30/2016 23:15 MST0.03P  0.38P  0.00P  
06/30/2016 23:30 MST0.04P  0.40P  0.00P  
06/30/2016 23:45 MST0.04P  0.40P  0.00P  
07/01/2016 00:00 MST0.04P  0.40P  0.00P  
07/01/2016 00:15 MST0.00P  0.37P  0.00P  
07/01/2016 00:30 MST0.04P  0.41P  0.00P  
07/01/2016 00:45 MST0.04P  0.40P  0.00P  
07/01/2016 01:00 MST0.03P  0.38P  0.00P  
07/01/2016 01:15 MST0.03P  0.38P  0.00P  
07/01/2016 01:30 MST0.00P  0.36P  0.00P  
07/01/2016 01:45 MST0.00P  0.37P  0.00P  
07/01/2016 02:00 MST0.00P  0.36P  0.00P  
07/01/2016 02:15 MST0.00P  0.37P  0.00P  
07/01/2016 02:30 MST0.00P  0.36P  0.00P  
07/01/2016 02:45 MST0.00P  0.37P  0.00P  
07/01/2016 03:00 MST0.03P  0.38P  0.00P  
07/01/2016 03:15 MST0.03P  0.38P  0.00P  
07/01/2016 03:30 MST0.03P  0.38P  0.00P  
07/01/2016 03:45 MST0.00P  0.37P  0.00P  
07/01/2016 04:00 MST0.03P  0.38P  0.00P  
07/01/2016 04:15 MST0.00P  0.37P  0.00P  
07/01/2016 04:30 MST0.00P  0.37P  0.00P  
07/01/2016 04:45 MST0.00P  0.37P  0.00P  
07/01/2016 05:00 MST0.00P  0.36P  0.00P  
07/01/2016 05:15 MST0.00P  0.35P  0.00P  
07/01/2016 05:30 MST0.00P  0.36P  0.00P  
07/01/2016 05:45 MST0.00P  0.37P  0.00P  
07/01/2016 06:00 MST0.03P  0.38P  0.00P  
07/01/2016 06:15 MST0.00P  0.37P  0.00P  
07/01/2016 06:30 MST0.03P  0.38P  0.00P  
07/01/2016 06:45 MST0.00P  0.37P  0.00P  
07/01/2016 07:00 MST0.03P  0.38P  0.00P  
07/01/2016 07:15 MST0.00P  0.37P  0.00P  
07/01/2016 07:30 MST0.00P  0.37P  0.00P  
07/01/2016 07:45 MST0.03P  0.38P  0.00P  
07/01/2016 08:00 MST0.00P  0.36P  0.00P  
07/01/2016 08:15 MST0.03P  0.38P  0.00P  
07/01/2016 08:30 MST0.00P  0.36P  0.00P  
07/01/2016 08:45 MST0.03P  0.38P  0.00P  
07/01/2016 09:00 MST0.03P  0.38P  0.00P  
07/01/2016 09:15 MST0.04P  0.39P  0.00P  
07/01/2016 09:30 MST0.03P  0.38P  0.00P  
07/01/2016 09:45 MST0.03P  0.38P  0.00P  
07/01/2016 10:00 MST0.04P  0.39P  0.00P  
07/01/2016 10:15 MST0.04P  0.39P  0.00P  
07/01/2016 10:30 MST0.03P  0.38P  0.00P  
07/01/2016 10:45 MST0.04P  0.40P  0.00P  
07/01/2016 11:00 MST0.00P  0.37P  0.00P  
07/01/2016 11:15 MST0.03P  0.38P  0.00P  
07/01/2016 11:30 MST0.03P  0.38P  0.00P  
07/01/2016 11:45 MST0.04P  0.40P  0.00P  
07/01/2016 12:00 MST0.04P  0.39P  0.02P  
07/01/2016 12:15 MST0.04P  0.39P  0.02P  
07/01/2016 12:30 MST0.04P  0.39P  0.00P  
07/01/2016 12:45 MST0.04P  0.39P  0.00P  
07/01/2016 13:00 MST0.04P  0.40P  0.00P  
07/01/2016 13:15 MST0.03P  0.38P  0.00P  
07/01/2016 13:30 MST0.04P  0.40P  0.00P  
07/01/2016 13:45 MST0.04P  0.39P  0.00P  
07/01/2016 14:00 MST0.03P  0.38P  0.00P  
07/01/2016 14:15 MST0.04P  0.40P  0.00P  
07/01/2016 14:30 MST0.03P  0.38P  0.00P  
07/01/2016 14:45 MST0.04P  0.39P  0.00P  
07/01/2016 15:00 MST0.04P  0.39P  0.00P  
07/01/2016 15:15 MST0.03P  0.38P  0.00P  
07/01/2016 15:30 MST0.04P  0.39P  0.00P  
07/01/2016 15:45 MST0.03P  0.38P  0.00P  
07/01/2016 16:00 MST0.03P  0.38P  0.00P  
07/01/2016 16:15 MST0.00P  0.37P  0.00P  
07/01/2016 16:30 MST0.00P  0.36P  0.00P  
07/01/2016 16:45 MST0.00P  0.37P  0.00P  
07/01/2016 17:00 MST0.03P  0.38P  0.00P  
07/01/2016 17:15 MST0.04P  0.39P  0.00P  
07/01/2016 17:30 MST0.04P  0.39P  0.00P  
07/01/2016 17:45 MST0.00P  0.36P  0.00P  
07/01/2016 18:00 MST0.00P  0.36P  0.00P  
07/01/2016 18:15 MST0.04P  0.39P  0.00P  
07/01/2016 18:30 MST0.03P  0.38P  0.00P  
07/01/2016 18:45 MST0.04P  0.39P  0.00P  
07/01/2016 19:00 MST0.00P  0.37P  0.00P  
07/01/2016 19:15 MST0.00P  0.36P  0.00P  
07/01/2016 19:30 MST0.04P  0.39P  0.00P  
07/01/2016 19:45 MST0.03P  0.38P  0.00P  
07/01/2016 20:00 MST0.00P  0.36P  0.00P  
07/01/2016 20:15 MST0.03P  0.38P  0.00P  
07/01/2016 20:30 MST0.04P  0.39P  0.00P  
07/01/2016 20:45 MST0.03P  0.38P  0.00P  
07/01/2016 21:00 MST0.03P  0.38P  0.00P  
07/01/2016 21:15 MST0.00P  0.37P  0.00P  
07/01/2016 21:30 MST0.04P  0.39P  0.00P  
07/01/2016 21:45 MST0.00P  0.37P  0.00P  
07/01/2016 22:00 MST0.00P  0.36P  0.00P  
07/01/2016 22:15 MST0.00P  0.37P  0.00P  
07/01/2016 22:30 MST0.03P  0.38P  0.00P  
07/01/2016 22:45 MST0.03P  0.38P  0.00P  
07/01/2016 23:00 MST0.03P  0.38P  0.00P  
07/01/2016 23:15 MST0.03P  0.38P  0.00P  
07/01/2016 23:30 MST0.00P  0.37P  0.00P  
07/01/2016 23:45 MST0.04P  0.39P  0.00P  
07/02/2016 00:00 MST0.03P  0.38P  0.00P  
07/02/2016 00:15 MST0.03P  0.38P  0.00P  
07/02/2016 00:30 MST0.00P  0.37P  0.00P  
07/02/2016 00:45 MST0.03P  0.38P  0.00P  
07/02/2016 01:00 MST0.03P  0.38P  0.00P  
07/02/2016 01:15 MST0.00P  0.37P  0.00P  
07/02/2016 01:30 MST0.04P  0.39P  0.00P  
07/02/2016 01:45 MST0.03P  0.38P  0.00P  
07/02/2016 02:00 MST0.04P  0.40P  0.00P  
07/02/2016 02:15 MST0.03P  0.38P  0.00P  
07/02/2016 02:30 MST0.03P  0.38P  0.00P  
07/02/2016 02:45 MST0.03P  0.38P  0.00P  
07/02/2016 03:00 MST0.03P  0.38P  0.00P  
07/02/2016 03:15 MST0.03P  0.38P  0.00P  
07/02/2016 03:30 MST0.03P  0.38P  0.00P  
07/02/2016 03:45 MST0.04P  0.39P  0.00P  
07/02/2016 04:00 MST0.04P  0.39P  0.00P  
07/02/2016 04:15 MST0.04P  0.39P  0.00P  
07/02/2016 04:30 MST0.04P  0.39P  0.00P  
07/02/2016 04:45 MST0.04P  0.40P  0.00P  
07/02/2016 05:00 MST0.04P  0.39P  0.00P  
07/02/2016 05:15 MST0.00P  0.37P  0.00P  
07/02/2016 05:30 MST0.00P  0.37P  0.00P  
07/02/2016 05:45 MST0.00P  0.37P  0.00P  
07/02/2016 06:00 MST0.03P  0.38P  0.00P  
07/02/2016 06:15 MST0.03P  0.38P  0.00P  
07/02/2016 06:30 MST0.00P  0.36P  0.00P  
07/02/2016 06:45 MST0.00P  0.37P  0.00P  
07/02/2016 07:00 MST0.04P  0.39P  0.00P  
07/02/2016 07:15 MST0.03P  0.38P  0.00P  
07/02/2016 07:30 MST0.03P  0.38P  0.00P  
07/02/2016 07:45 MST0.04P  0.39P  0.00P  
07/02/2016 08:00 MST0.03P  0.38P  0.00P  
07/02/2016 08:15 MST0.03P  0.38P  0.00P  
07/02/2016 08:30 MST0.04P  0.39P  0.00P  
07/02/2016 08:45 MST0.00P  0.37P  0.00P  
07/02/2016 09:00 MST0.03P  0.38P  0.00P  
07/02/2016 09:15 MST0.04P  0.39P  0.00P  
07/02/2016 09:30 MST0.04P  0.40P  0.00P  
07/02/2016 09:45 MST0.03P  0.38P  0.00P  
07/02/2016 10:00 MST0.04P  0.39P  0.00P  
07/02/2016 10:15 MST0.03P  0.38P  0.00P  
07/02/2016 10:30 MST0.00P  0.37P  0.00P  
07/02/2016 10:45 MST0.00P  0.37P  0.00P  
07/02/2016 11:00 MST0.04P  0.39P  0.00P  
07/02/2016 11:15 MST0.04P  0.39P  0.00P  
07/02/2016 11:30 MST0.04P  0.39P  0.00P  
07/02/2016 11:45 MST0.00P  0.36P  0.00P  
07/02/2016 12:00 MST0.03P  0.38P  0.00P  
07/02/2016 12:15 MST0.00P  0.37P  0.00P  
07/02/2016 12:30 MST0.00P  0.37P  0.00P  
07/02/2016 12:45 MST0.00P  0.36P  0.00P  
07/02/2016 13:00 MST0.03P  0.38P  0.00P  
07/02/2016 13:15 MST0.00P  0.35P  0.00P  
07/02/2016 13:30 MST0.00P  0.36P  0.00P  
07/02/2016 13:45 MST0.00P  0.35P  0.00P  
07/02/2016 14:00 MST0.00P  0.34P  0.00P  
07/02/2016 14:15 MST0.00P  0.34P  0.00P  
07/02/2016 14:30 MST0.00P  0.34P  0.00P  
07/02/2016 14:45 MST0.03P  0.38P  0.00P  
07/02/2016 15:00 MST0.00P  0.34P  0.00P  
07/02/2016 15:15 MST0.00P  0.31P  0.00P  
07/02/2016 15:30 MST0.00P  0.31P  0.00P  
07/02/2016 15:45 MST0.00P  0.33P  0.00P  
07/02/2016 16:00 MST0.00P  0.32P  0.00P  
07/02/2016 16:15 MST0.00P  0.32P  0.00P  
07/02/2016 16:30 MST0.00P  0.32P  0.00P  
07/02/2016 16:45 MST0.00P  0.31P  0.00P  
07/02/2016 17:00 MST0.00P  0.30P  0.00P  
07/02/2016 17:15 MST0.00P  0.30P  0.00P  
07/02/2016 17:30 MST0.00P  0.34P  0.08P  
07/02/2016 17:45 MST0.00P  0.35P  0.00P  
07/02/2016 18:00 MST0.00P  0.36P  0.00P  
07/02/2016 18:15 MST0.00P  0.34P  0.00P  
07/02/2016 18:30 MST0.00P  0.33P  0.00P  
07/02/2016 18:45 MST0.00P  0.35P  0.00P  
07/02/2016 19:00 MST0.00P  0.35P  0.00P  
07/02/2016 19:15 MST0.00P  0.35P  0.00P  
07/02/2016 19:30 MST0.00P  0.34P  0.00P  
07/02/2016 19:45 MST0.00P  0.34P  0.00P  
07/02/2016 20:00 MST0.00P  0.33P  0.00P  
07/02/2016 20:15 MST0.00P  0.35P  0.00P  
07/02/2016 20:30 MST0.00P  0.34P  0.00P  
07/02/2016 20:45 MST0.00P  0.35P  0.00P  
07/02/2016 21:00 MST0.00P  0.34P  0.00P  
07/02/2016 21:15 MST0.00P  0.33P  0.00P  
07/02/2016 21:30 MST0.00P  0.36P  0.00P  
07/02/2016 21:45 MST0.03P  0.38P  0.00P  
07/02/2016 22:00 MST0.04P  0.39P  0.00P  
07/02/2016 22:15 MST0.03P  0.38P  0.00P  
07/02/2016 22:30 MST0.03P  0.38P  0.00P  
07/02/2016 22:45 MST0.04P  0.39P  0.00P  
07/02/2016 23:00 MST0.00P  0.36P  0.00P  
07/02/2016 23:15 MST0.00P  0.37P  0.00P  
07/02/2016 23:30 MST0.00P  0.35P  0.00P  
07/02/2016 23:45 MST0.00P  0.34P  0.00P  
07/03/2016 00:00 MST0.00P  0.37P  0.00P  
07/03/2016 00:15 MST0.03P  0.38P  0.00P  
07/03/2016 00:30 MST0.00P  0.36P  0.00P  
07/03/2016 00:45 MST0.00P  0.37P  0.00P  
07/03/2016 01:00 MST0.00P  0.37P  0.00P  
07/03/2016 01:15 MST0.00P  0.37P  0.00P  
07/03/2016 01:30 MST0.03P  0.38P  0.00P  
07/03/2016 01:45 MST0.00P  0.37P  0.00P  
07/03/2016 02:00 MST0.00P  0.37P  0.00P  
07/03/2016 02:15 MST0.00P  0.37P  0.00P  
07/03/2016 02:30 MST0.00P  0.37P  0.00P  
07/03/2016 02:45 MST0.00P  0.36P  0.00P  
07/03/2016 03:00 MST0.00P  0.35P  0.00P  
07/03/2016 03:15 MST0.03P  0.38P  0.00P  
07/03/2016 03:30 MST0.00P  0.36P  0.00P  
07/03/2016 03:45 MST0.00P  0.36P  0.00P  
07/03/2016 04:00 MST0.00P  0.36P  0.00P  
07/03/2016 04:15 MST0.00P  0.37P  0.00P  
07/03/2016 04:30 MST0.00P  0.35P  0.00P  
07/03/2016 04:45 MST0.00P  0.36P  0.00P  
07/03/2016 05:00 MST0.00P  0.37P  0.00P  
07/03/2016 05:15 MST0.00P  0.35P  0.00P  
07/03/2016 05:30 MST0.00P  0.35P  0.00P  
07/03/2016 05:45 MST0.00P  0.36P  0.00P  
07/03/2016 06:00 MST0.00P  0.34P  0.00P  
07/03/2016 06:15 MST0.00P  0.36P  0.00P  
07/03/2016 06:30 MST0.00P  0.35P  0.00P  
07/03/2016 06:45 MST0.00P  0.35P  0.00P  
07/03/2016 07:00 MST0.00P  0.34P  0.00P  
07/03/2016 07:15 MST0.00P  0.36P  0.00P  
07/03/2016 07:30 MST0.00P  0.37P  0.00P  
07/03/2016 07:45 MST0.00P  0.35P  0.00P  
07/03/2016 08:00 MST0.00P  0.36P  0.00P  
07/03/2016 08:15 MST0.00P  0.34P  0.00P  
07/03/2016 08:30 MST0.00P  0.35P  0.00P  
07/03/2016 08:45 MST0.00P  0.35P  0.00P  
07/03/2016 09:00 MST0.00P  0.36P  0.00P  
07/03/2016 09:15 MST0.00P  0.35P  0.00P  
07/03/2016 09:30 MST0.00P  0.36P  0.00P  
07/03/2016 09:45 MST0.00P  0.37P  0.00P  
07/03/2016 10:00 MST0.00P  0.36P  0.00P  
07/03/2016 10:15 MST0.00P  0.36P  0.00P  
07/03/2016 10:30 MST0.00P  0.37P  0.00P  
07/03/2016 10:45 MST0.00P  0.34P  0.00P  
07/03/2016 11:00 MST0.00P  0.35P  0.00P  
07/03/2016 11:15 MST0.00P  0.35P  0.00P  
07/03/2016 11:30 MST0.00P  0.35P  0.00P  
07/03/2016 11:45 MST0.00P  0.34P  0.00P  
07/03/2016 12:00 MST0.00P  0.34P  0.00P  
07/03/2016 12:15 MST0.00P  0.34P  0.00P  
07/03/2016 12:30 MST0.00P  0.33P  0.00P  
07/03/2016 12:45 MST0.00P  0.35P  0.00P  
07/03/2016 13:00 MST0.00P  0.33P  0.00P  
07/03/2016 13:15 MST0.00P  0.32P  0.00P  
07/03/2016 13:30 MST0.00P  0.32P  0.00P  
07/03/2016 13:45 MST0.00P  0.31P  0.00P  
07/03/2016 14:00 MST0.00P  0.31P  0.00P  
07/03/2016 14:15 MST0.00P  0.30P  0.00P  
07/03/2016 14:30 MST0.00P  0.31P  0.00P  
07/03/2016 14:45 MST0.00P  0.30P  0.00P  
07/03/2016 15:00 MST0.00P  0.29P  0.00P  
07/03/2016 15:15 MST0.00P  0.30P  0.00P  
07/03/2016 15:30 MST0.00P  0.28P  0.00P  
07/03/2016 15:45 MST0.00P  0.29P  0.00P  
07/03/2016 16:00 MST0.00P  0.28P  0.00P  
07/03/2016 16:15 MST0.00P  0.28P  0.00P  
07/03/2016 16:30 MST0.00P  0.29P  0.00P  
07/03/2016 16:45 MST0.00P  0.29P  0.00P  
07/03/2016 17:00 MST0.00P  0.28P  0.00P  
07/03/2016 17:15 MST0.00P  0.28P  0.00P  
07/03/2016 17:30 MST0.00P  0.27P  0.00P  
07/03/2016 17:45 MST0.00P  0.29P  0.00P  
07/03/2016 18:00 MST0.00P  0.29P  0.00P  
07/03/2016 18:15 MST0.00P  0.29P  0.00P  
07/03/2016 18:30 MST0.00P  0.30P  0.00P  
07/03/2016 18:45 MST0.00P  0.28P  0.00P  
07/03/2016 19:00 MST0.00P  0.28P  0.00P  
07/03/2016 19:15 MST0.00P  0.30P  0.00P  
07/03/2016 19:30 MST0.00P  0.30P  0.00P  
07/03/2016 19:45 MST0.00P  0.29P  0.00P  
07/03/2016 20:00 MST0.00P  0.30P  0.00P  
07/03/2016 20:15 MST0.00P  0.32P  0.00P  
07/03/2016 20:30 MST0.00P  0.31P  0.00P  
07/03/2016 20:45 MST0.00P  0.33P  0.00P  
07/03/2016 21:00 MST0.00P  0.31P  0.00P  
07/03/2016 21:15 MST0.00P  0.32P  0.00P  
07/03/2016 21:30 MST0.00P  0.33P  0.00P  
07/03/2016 21:45 MST0.00P  0.34P  0.00P  
07/03/2016 22:00 MST0.00P  0.35P  0.00P  
07/03/2016 22:15 MST0.00P  0.35P  0.00P  
07/03/2016 22:30 MST0.00P  0.35P  0.00P  
07/03/2016 22:45 MST0.00P  0.36P  0.00P  
07/03/2016 23:00 MST0.00P  0.37P  0.00P  
07/03/2016 23:15 MST0.00P  0.37P  0.00P  
07/03/2016 23:30 MST0.00P  0.37P  0.00P  
07/03/2016 23:45 MST0.00P  0.37P  0.00P  
07/04/2016 00:00 MST0.00P  0.37P  0.00P  
07/04/2016 00:15 MST0.00P  0.36P  0.00P  
07/04/2016 00:30 MST0.00P  0.37P  0.00P  
07/04/2016 00:45 MST0.03P  0.38P  0.00P  
07/04/2016 01:00 MST0.04P  0.39P  0.00P  
07/04/2016 01:15 MST0.03P  0.38P  0.00P  
07/04/2016 01:30 MST0.03P  0.38P  0.00P  
07/04/2016 01:45 MST0.03P  0.38P  0.00P  
07/04/2016 02:00 MST0.00P  0.36P  0.00P  
07/04/2016 02:15 MST0.03P  0.38P  0.00P  
07/04/2016 02:30 MST0.04P  0.39P  0.00P  
07/04/2016 02:45 MST0.04P  0.39P  0.00P  
07/04/2016 03:00 MST0.03P  0.38P  0.00P  
07/04/2016 03:15 MST0.04P  0.39P  0.00P  
07/04/2016 03:30 MST0.03P  0.38P  0.00P  
07/04/2016 03:45 MST0.03P  0.38P  0.00P  
07/04/2016 04:00 MST0.04P  0.39P  0.00P  
07/04/2016 04:15 MST0.00P  0.37P  0.00P  
07/04/2016 04:30 MST0.04P  0.39P  0.00P  
07/04/2016 04:45 MST0.03P  0.38P  0.00P  
07/04/2016 05:00 MST0.03P  0.38P  0.00P  
07/04/2016 05:15 MST0.00P  0.37P  0.00P  
07/04/2016 05:30 MST0.00P  0.37P  0.00P  
07/04/2016 05:45 MST0.00P  0.36P  0.00P  
07/04/2016 06:00 MST0.00P  0.37P  0.00P  
07/04/2016 06:15 MST0.00P  0.37P  0.00P  
07/04/2016 06:30 MST0.00P  0.37P  0.00P  
07/04/2016 06:45 MST0.00P  0.37P  0.00P  
07/04/2016 07:00 MST0.00P  0.36P  0.00P  
07/04/2016 07:15 MST0.00P  0.37P  0.00P  
07/04/2016 07:30 MST0.03P  0.38P  0.00P  
07/04/2016 07:45 MST0.04P  0.39P  0.00P  
07/04/2016 08:00 MST0.00P  0.37P  0.00P  
07/04/2016 08:15 MST0.00P  0.37P  0.00P  
07/04/2016 08:30 MST0.03P  0.38P  0.00P  
07/04/2016 08:45 MST0.03P  0.38P  0.00P  
07/04/2016 09:00 MST0.03P  0.38P  0.00P  
07/04/2016 09:15 MST0.00P  0.37P  0.00P  
07/04/2016 09:30 MST0.04P  0.40P  0.00P  
07/04/2016 09:45 MST0.04P  0.40P  0.00P  
07/04/2016 10:00 MST0.04P  0.39P  0.00P  
07/04/2016 10:15 MST0.04P  0.39P  0.00P  
07/04/2016 10:30 MST0.04P  0.39P  0.00P  
07/04/2016 10:45 MST0.04P  0.39P  0.00P  
07/04/2016 11:00 MST0.04P  0.39P  0.00P  
07/04/2016 11:15 MST0.00P  0.37P  0.00P  
07/04/2016 11:30 MST0.03P  0.38P  0.00P  
07/04/2016 11:45 MST0.04P  0.39P  0.00P  
07/04/2016 12:00 MST0.04P  0.39P  0.00P  
07/04/2016 12:15 MST0.00P  0.37P  0.00P  
07/04/2016 12:30 MST0.03P  0.38P  0.00P  
07/04/2016 12:45 MST0.00P  0.37P  0.00P  
07/04/2016 13:00 MST0.03P  0.38P  0.00P  
07/04/2016 13:15 MST0.03P  0.38P  0.00P  
07/04/2016 13:30 MST0.03P  0.38P  0.00P  
07/04/2016 13:45 MST0.03P  0.38P  0.00P  
07/04/2016 14:00 MST0.04P  0.39P  0.00P  
07/04/2016 14:15 MST0.04P  0.39P  0.00P  
07/04/2016 14:30 MST0.04P  0.39P  0.00P  
07/04/2016 14:45 MST0.00P  0.36P  0.00P  
07/04/2016 15:00 MST0.04P  0.39P  0.00P  
07/04/2016 15:15 MST0.04P  0.39P  0.00P  
07/04/2016 15:30 MST0.04P  0.39P  0.00P  
07/04/2016 15:45 MST0.03P  0.38P  0.00P  
07/04/2016 16:00 MST0.04P  0.39P  0.00P  
07/04/2016 16:15 MST0.03P  0.38P  0.00P  
07/04/2016 16:30 MST0.03P  0.38P  0.00P  
07/04/2016 16:45 MST0.03P  0.38P  0.00P  
07/04/2016 17:00 MST0.03P  0.38P  0.00P  
07/04/2016 17:15 MST0.03P  0.38P  0.00P  
07/04/2016 17:30 MST0.04P  0.39P  0.00P  
07/04/2016 17:45 MST0.03P  0.38P  0.00P  
07/04/2016 18:00 MST0.03P  0.38P  0.00P  
07/04/2016 18:15 MST0.00P  0.37P  0.00P  
07/04/2016 18:30 MST0.00P  0.37P  0.00P  
07/04/2016 18:45 MST0.03P  0.38P  0.00P  
07/04/2016 19:00 MST0.00P  0.37P  0.00P  
07/04/2016 19:15 MST0.03P  0.38P  0.00P  
07/04/2016 19:30 MST0.03P  0.38P  0.00P  
07/04/2016 19:45 MST0.00P  0.37P  0.00P  
07/04/2016 20:00 MST0.00P  0.36P  0.00P  
07/04/2016 20:15 MST0.03P  0.38P  0.00P  
07/04/2016 20:30 MST0.00P  0.37P  0.00P  
07/04/2016 20:45 MST0.03P  0.38P  0.00P  
07/04/2016 21:00 MST0.00P  0.36P  0.00P  
07/04/2016 21:15 MST0.03P  0.38P  0.00P  
07/04/2016 21:30 MST0.03P  0.38P  0.00P  
07/04/2016 21:45 MST0.03P  0.38P  0.00P  
07/04/2016 22:00 MST0.03P  0.38P  0.00P  
07/04/2016 22:15 MST0.00P  0.37P  0.00P  
07/04/2016 22:30 MST0.00P  0.37P  0.00P  
07/04/2016 22:45 MST0.04P  0.39P  0.00P  
07/04/2016 23:00 MST0.04P  0.40P  0.00P  
07/04/2016 23:15 MST0.04P  0.41P  0.00P  
07/04/2016 23:30 MST0.00P  0.37P  0.00P  
07/04/2016 23:45 MST0.00P  0.37P  0.00P  
07/05/2016 00:00 MST0.00P  0.37P  0.00P  
07/05/2016 00:15 MST0.04P  0.40P  0.00P  
07/05/2016 00:30 MST0.04P  0.39P  0.00P  
07/05/2016 00:45 MST0.00P  0.37P  0.00P  
07/05/2016 01:00 MST0.00P  0.37P  0.00P  
07/05/2016 01:15 MST0.03P  0.38P  0.00P  
07/05/2016 01:30 MST0.04P  0.39P  0.00P  
07/05/2016 01:45 MST0.03P  0.38P  0.00P  
07/05/2016 02:00 MST0.04P  0.39P  0.00P  
07/05/2016 02:15 MST0.03P  0.38P  0.00P  
07/05/2016 02:30 MST0.03P  0.38P  0.00P  
07/05/2016 02:45 MST0.03P  0.38P  0.00P  
07/05/2016 03:00 MST0.00P  0.37P  0.00P  
07/05/2016 03:15 MST0.00P  0.36P  0.00P  
07/05/2016 03:30 MST0.00P  0.37P  0.00P  
07/05/2016 03:45 MST0.04P  0.39P  0.00P  
07/05/2016 04:00 MST0.03P  0.38P  0.00P  
07/05/2016 04:15 MST0.04P  0.39P  0.00P  
07/05/2016 04:30 MST0.04P  0.39P  0.00P  
07/05/2016 04:45 MST0.03P  0.38P  0.00P  
07/05/2016 05:00 MST0.03P  0.38P  0.00P  
07/05/2016 05:15 MST0.03P  0.38P  0.00P  
07/05/2016 05:30 MST0.03P  0.38P  0.00P  
07/05/2016 05:45 MST0.00P  0.37P  0.00P  
07/05/2016 06:00 MST0.00P  0.37P  0.00P  
07/05/2016 06:15 MST0.04P  0.39P  0.00P  
07/05/2016 06:30 MST0.04P  0.39P  0.00P  
07/05/2016 06:45 MST0.03P  0.38P  0.00P  
07/05/2016 07:00 MST0.04P  0.39P  0.00P  
07/05/2016 07:15 MST0.03P  0.38P  0.00P  
07/05/2016 07:30 MST0.04P  0.39P  0.00P  
07/05/2016 07:45 MST0.03P  0.38P  0.00P  
07/05/2016 08:00 MST0.04P  0.39P  0.00P  
07/05/2016 08:15 MST0.03P  0.38P  0.00P  
07/05/2016 08:30 MST0.03P  0.38P  0.00P  
07/05/2016 08:45 MST0.04P  0.39P  0.00P  
07/05/2016 09:00 MST0.04P  0.39P  0.00P  
07/05/2016 09:15 MST0.00P  0.37P  0.00P  
07/05/2016 09:30 MST0.03P  0.38P  0.00P  
07/05/2016 09:45 MST0.04P  0.39P  0.00P  
07/05/2016 10:00 MST0.04P  0.39P  0.00P  
07/05/2016 10:15 MST0.04P  0.39P  0.00P  
07/05/2016 10:30 MST0.03P  0.38P  0.00P  
07/05/2016 10:45 MST0.04P  0.39P  0.00P  
07/05/2016 11:00 MST0.04P  0.39P  0.00P  
07/05/2016 11:15 MST0.04P  0.39P  0.00P  
07/05/2016 11:30 MST0.04P  0.39P  0.00P  
07/05/2016 11:45 MST0.04P  0.39P  0.00P  
07/05/2016 12:00 MST0.04P  0.39P  0.00P  
07/05/2016 12:15 MST0.04P  0.39P  0.00P  
07/05/2016 12:30 MST0.04P  0.39P  0.00P  
07/05/2016 12:45 MST0.04P  0.39P  0.00P  
07/05/2016 13:00 MST0.04P  0.39P  0.00P  
07/05/2016 13:15 MST0.04P  0.39P  0.00P  
07/05/2016 13:30 MST0.04P  0.39P  0.00P  
07/05/2016 13:45 MST0.04P  0.39P  0.00P  
07/05/2016 14:00 MST0.04P  0.39P  0.00P  
07/05/2016 14:15 MST0.04P  0.39P  0.00P  
07/05/2016 14:30 MST0.04P  0.40P  0.00P  
07/05/2016 14:45 MST0.04P  0.39P  0.00P  
07/05/2016 15:00 MST0.04P  0.40P  0.00P  
07/05/2016 15:15 MST0.04P  0.40P  0.00P  
07/05/2016 15:30 MST0.04P  0.39P  0.00P  
07/05/2016 15:45 MST0.04P  0.39P  0.00P  
07/05/2016 16:00 MST0.04P  0.39P  0.00P  
07/05/2016 16:15 MST0.03P  0.38P  0.00P  
07/05/2016 16:30 MST0.04P  0.39P  0.00P  
07/05/2016 16:45 MST0.04P  0.39P  0.00P  
07/05/2016 17:00 MST0.04P  0.39P  0.00P  
07/05/2016 17:15 MST0.04P  0.39P  0.00P  
07/05/2016 17:30 MST0.04P  0.39P  0.00P  
07/05/2016 17:45 MST0.04P  0.39P  0.00P  
07/05/2016 18:00 MST0.04P  0.39P  0.00P  
07/05/2016 18:15 MST0.04P  0.40P  0.00P  
07/05/2016 18:30 MST0.04P  0.39P  0.00P  
07/05/2016 18:45 MST0.04P  0.39P  0.00P  
07/05/2016 19:00 MST0.04P  0.40P  0.00P  
07/05/2016 19:15 MST0.04P  0.39P  0.00P  
07/05/2016 19:30 MST0.04P  0.39P  0.00P  
07/05/2016 19:45 MST0.04P  0.39P  0.00P  
07/05/2016 20:00 MST0.04P  0.40P  0.00P  
07/05/2016 20:15 MST0.03P  0.38P  0.00P  
07/05/2016 20:30 MST0.04P  0.40P  0.00P  
07/05/2016 20:45 MST0.04P  0.40P  0.00P  
07/05/2016 21:00 MST0.03P  0.38P  0.00P  
07/05/2016 21:15 MST0.04P  0.39P  0.00P  
07/05/2016 21:30 MST0.04P  0.39P  0.00P  
07/05/2016 21:45 MST0.03P  0.38P  0.00P  
07/05/2016 22:00 MST0.04P  0.40P  0.00P  
07/05/2016 22:15 MST0.04P  0.40P  0.00P  
07/05/2016 22:30 MST0.04P  0.39P  0.00P  
07/05/2016 22:45 MST0.04P  0.40P  0.00P  
07/05/2016 23:00 MST0.04P  0.39P  0.00P  
07/05/2016 23:15 MST0.04P  0.39P  0.00P  
07/05/2016 23:30 MST0.04P  0.39P  0.00P  
07/05/2016 23:45 MST0.04P  0.39P  0.00P  
07/06/2016 00:00 MST0.04P  0.39P  0.00P  
07/06/2016 00:15 MST0.04P  0.39P  0.00P  
07/06/2016 00:30 MST0.04P  0.39P  0.00P  
07/06/2016 00:45 MST0.04P  0.39P  0.00P  
07/06/2016 01:00 MST0.04P  0.40P  0.00P  
07/06/2016 01:15 MST0.04P  0.39P  0.00P  
07/06/2016 01:30 MST0.04P  0.39P  0.00P  
07/06/2016 01:45 MST0.04P  0.39P  0.00P  
07/06/2016 02:00 MST0.04P  0.40P  0.00P  
07/06/2016 02:15 MST0.04P  0.40P  0.00P  
07/06/2016 02:30 MST0.04P  0.39P  0.00P  
07/06/2016 02:45 MST0.04P  0.40P  0.00P  
07/06/2016 03:00 MST0.04P  0.39P  0.00P  
07/06/2016 03:15 MST0.04P  0.39P  0.00P  
07/06/2016 03:30 MST0.04P  0.40P  0.00P  
07/06/2016 03:45 MST0.03P  0.38P  0.00P  
07/06/2016 04:00 MST0.04P  0.39P  0.00P  
07/06/2016 04:15 MST0.04P  0.39P  0.00P  
07/06/2016 04:30 MST0.04P  0.39P  0.00P  
07/06/2016 04:45 MST0.04P  0.39P  0.00P  
07/06/2016 05:00 MST0.04P  0.40P  0.00P  
07/06/2016 05:15 MST0.03P  0.38P  0.00P  
07/06/2016 05:30 MST0.04P  0.39P  0.00P  
07/06/2016 05:45 MST0.04P  0.39P  0.00P  
07/06/2016 06:00 MST0.04P  0.39P  0.00P  
07/06/2016 06:15 MST0.04P  0.39P  0.00P  
07/06/2016 06:30 MST0.04P  0.40P  0.00P  
07/06/2016 06:45 MST0.04P  0.39P  0.00P  
07/06/2016 07:00 MST0.03P  0.38P  0.00P  
07/06/2016 07:15 MST0.04P  0.40P  0.00P  
07/06/2016 07:30 MST0.04P  0.39P  0.00P  
07/06/2016 07:45 MST0.04P  0.39P  0.00P  
07/06/2016 08:00 MST0.04P  0.39P  0.00P  
07/06/2016 08:15 MST0.04P  0.39P  0.00P  
07/06/2016 08:30 MST0.04P  0.39P  0.00P  
07/06/2016 08:45 MST0.04P  0.39P  0.00P  
07/06/2016 09:00 MST0.03P  0.38P  0.00P  
07/06/2016 09:15 MST0.04P  0.39P  0.00P  
07/06/2016 09:30 MST0.04P  0.39P  0.00P  
07/06/2016 09:45 MST0.04P  0.39P  0.00P  
07/06/2016 10:00 MST0.03P  0.38P  0.00P  
07/06/2016 10:15 MST0.04P  0.39P  0.00P  
07/06/2016 10:30 MST0.04P  0.39P  0.00P  
07/06/2016 10:45 MST0.04P  0.39P  0.00P  
07/06/2016 11:00 MST0.04P  0.39P  0.00P  
07/06/2016 11:15 MST0.04P  0.39P  0.00P  
07/06/2016 11:30 MST0.04P  0.39P  0.00P  
07/06/2016 11:45 MST0.04P  0.39P  0.00P  
07/06/2016 12:00 MST0.04P  0.39P  0.00P  
07/06/2016 12:15 MST0.04P  0.40P  0.00P  
07/06/2016 12:30 MST0.00P  0.37P  0.00P  
07/06/2016 12:45 MST0.04P  0.39P  0.00P  
07/06/2016 13:00 MST0.03P  0.38P  0.00P  
07/06/2016 13:15 MST0.04P  0.39P  0.00P  
07/06/2016 13:30 MST0.03P  0.38P  0.00P  
07/06/2016 13:45 MST0.04P  0.39P  0.00P  
07/06/2016 14:00 MST0.04P  0.40P  0.00P  
07/06/2016 14:15 MST0.04P  0.39P  0.00P  
07/06/2016 14:30 MST0.04P  0.39P  0.00P  
07/06/2016 14:45 MST0.04P  0.39P  0.00P  
07/06/2016 15:00 MST0.04P  0.39P  0.00P  
07/06/2016 15:15 MST0.04P  0.39P  0.00P  
07/06/2016 15:30 MST0.04P  0.39P  0.00P  
07/06/2016 15:45 MST0.04P  0.40P  0.00P  
07/06/2016 16:00 MST0.04P  0.39P  0.00P  
07/06/2016 16:15 MST0.04P  0.39P  0.00P  
07/06/2016 16:30 MST0.04P  0.39P  0.00P  
07/06/2016 16:45 MST0.04P  0.39P  0.00P  
07/06/2016 17:00 MST0.04P  0.39P  0.00P  
07/06/2016 17:15 MST0.04P  0.39P  0.00P  
07/06/2016 17:30 MST0.04P  0.42P  0.00P  
07/06/2016 17:45 MST0.04P  0.40P  0.00P  
07/06/2016 18:00 MST0.04P  0.41P  0.00P  
07/06/2016 18:15 MST0.04P  0.41P  0.00P  
07/06/2016 18:30 MST0.04P  0.41P  0.00P  
07/06/2016 18:45 MST0.04P  0.42P  0.00P  
07/06/2016 19:00 MST0.04P  0.41P  0.00P  
07/06/2016 19:15 MST0.04P  0.41P  0.00P  
07/06/2016 19:30 MST0.04P  0.41P  0.00P  
07/06/2016 19:45 MST0.04P  0.41P  0.00P  
07/06/2016 20:00 MST0.04P  0.41P  0.00P  
07/06/2016 20:15 MST0.04P  0.41P  0.00P  
07/06/2016 20:30 MST0.04P  0.41P  0.00P  
07/06/2016 20:45 MST0.04P  0.41P  0.00P  
07/06/2016 21:00 MST0.04P  0.41P  0.00P  
07/06/2016 21:15 MST0.04P  0.41P  0.00P  
07/06/2016 21:30 MST0.04P  0.40P  0.00P  
07/06/2016 21:45 MST0.04P  0.41P  0.00P  
07/06/2016 22:00 MST0.04P  0.41P  0.00P  
07/06/2016 22:15 MST0.04P  0.41P  0.00P  
07/06/2016 22:30 MST0.04P  0.41P  0.00P  
07/06/2016 22:45 MST0.04P  0.41P  0.00P  
07/06/2016 23:00 MST0.04P  0.40P  0.00P  
07/06/2016 23:15 MST0.04P  0.41P  0.00P  
07/06/2016 23:30 MST0.04P  0.41P  0.00P  
07/06/2016 23:45 MST0.04P  0.41P  0.00P  
07/07/2016 00:00 MST0.04P  0.41P  0.00P  
07/07/2016 00:15 MST0.04P  0.40P  0.00P  
07/07/2016 00:30 MST0.04P  0.39P  0.00P  
07/07/2016 00:45 MST0.04P  0.41P  0.00P  
07/07/2016 01:00 MST0.04P  0.41P  0.00P  
07/07/2016 01:15 MST0.04P  0.41P  0.00P  
07/07/2016 01:30 MST0.04P  0.41P  0.00P  
07/07/2016 01:45 MST0.04P  0.41P  0.00P  
07/07/2016 02:00 MST0.04P  0.41P  0.00P  
07/07/2016 02:15 MST0.04P  0.41P  0.00P  
07/07/2016 02:30 MST0.04P  0.42P  0.00P  
07/07/2016 02:45 MST0.04P  0.42P  0.00P  
07/07/2016 03:00 MST0.04P  0.42P  0.00P  
07/07/2016 03:15 MST0.04P  0.41P  0.00P  
07/07/2016 03:30 MST0.04P  0.41P  0.00P  
07/07/2016 03:45 MST0.04P  0.41P  0.00P  
07/07/2016 04:00 MST0.04P  0.42P  0.00P  
07/07/2016 04:15 MST0.04P  0.40P  0.00P  
07/07/2016 04:30 MST0.04P  0.41P  0.00P  
07/07/2016 04:45 MST0.04P  0.41P  0.00P  
07/07/2016 05:00 MST0.04P  0.40P  0.00P  
07/07/2016 05:15 MST0.04P  0.39P  0.00P  
07/07/2016 05:30 MST0.03P  0.38P  0.00P  
07/07/2016 05:45 MST0.03P  0.38P  0.00P  
07/07/2016 06:00 MST0.04P  0.40P  0.00P  
07/07/2016 06:15 MST0.04P  0.41P  0.00P  
07/07/2016 06:30 MST0.04P  0.40P  0.00P  
07/07/2016 06:45 MST0.04P  0.39P  0.00P  
07/07/2016 07:00 MST0.04P  0.40P  0.00P  
07/07/2016 07:15 MST0.04P  0.41P  0.00P  
07/07/2016 07:30 MST0.04P  0.41P  0.00P  
07/07/2016 07:45 MST0.04P  0.41P  0.00P  
07/07/2016 08:00 MST0.04P  0.42P  0.00P  
07/07/2016 08:15 MST0.04P  0.41P  0.00P  
07/07/2016 08:30 MST0.04P  0.42P  0.00P  
07/07/2016 08:45 MST0.04P  0.42P  0.00P  
07/07/2016 09:00 MST0.04P  0.41P  0.00P  
07/07/2016 09:15 MST0.04P  0.42P  0.00P  
07/07/2016 09:30 MST0.04P  0.39P  0.00P  
07/07/2016 09:45 MST0.04P  0.41P  0.00P  
07/07/2016 10:00 MST0.04P  0.41P  0.00P  
07/07/2016 10:15 MST0.04P  0.41P  0.00P  
07/07/2016 10:30 MST0.04P  0.41P  0.00P  
07/07/2016 10:45 MST0.04P  0.41P  0.00P  
07/07/2016 11:00 MST0.04P  0.41P  0.00P  
07/07/2016 11:15 MST0.04P  0.41P  0.00P  
07/07/2016 11:30 MST0.04P  0.41P  0.00P  
07/07/2016 11:45 MST0.04P  0.41P  0.00P  
07/07/2016 12:00 MST0.04P  0.41P  0.00P  
07/07/2016 12:15 MST0.00P  0.37P  0.02P  
07/07/2016 12:30 MST0.03P  0.38P  0.00P  
07/07/2016 12:45 MST0.04P  0.39P  0.01P  
07/07/2016 13:00 MST0.04P  0.39P  0.00P  
07/07/2016 13:15 MST0.03P  0.38P  0.03P  
07/07/2016 13:30 MST0.03P  0.38P  0.01P  
07/07/2016 13:45 MST0.03P  0.38P  0.00P  
07/07/2016 14:00 MST0.00P  0.37P  0.00P  
07/07/2016 14:15 MST0.04P  0.39P  0.00P  
07/07/2016 14:30 MST0.03P  0.38P  0.00P  
07/07/2016 14:45 MST0.04P  0.39P  0.00P  
07/07/2016 15:00 MST0.04P  0.40P  0.00P  
07/07/2016 15:15 MST0.04P  0.40P  0.00P  
07/07/2016 15:30 MST0.04P  0.40P  0.00P  
07/07/2016 15:45 MST0.04P  0.40P  0.00P  
07/07/2016 16:00 MST0.04P  0.40P  0.00P  
07/07/2016 16:15 MST0.04P  0.40P  0.00P  
07/07/2016 16:30 MST0.04P  0.40P  0.00P  
07/07/2016 16:45 MST0.04P  0.40P  0.00P  
07/07/2016 17:00 MST0.04P  0.40P  0.00P  
07/07/2016 17:15 MST0.04P  0.40P  0.00P  
07/07/2016 17:30 MST0.04P  0.40P  0.00P  
07/07/2016 17:45 MST0.04P  0.40P  0.00P  
07/07/2016 18:00 MST0.04P  0.39P  0.00P  
07/07/2016 18:15 MST0.04P  0.40P  0.00P  
07/07/2016 18:30 MST0.04P  0.39P  0.00P  
07/07/2016 18:45 MST0.04P  0.40P  0.00P  
07/07/2016 19:00 MST0.04P  0.39P  0.00P  
07/07/2016 19:15 MST0.04P  0.40P  0.00P  
07/07/2016 19:30 MST0.04P  0.39P  0.00P  
07/07/2016 19:45 MST0.04P  0.39P  0.00P  
07/07/2016 20:00 MST0.04P  0.39P  0.00P  
07/07/2016 20:15 MST0.00P  0.36P  0.00P  
07/07/2016 20:30 MST0.03P  0.38P  0.00P  
07/07/2016 20:45 MST0.03P  0.38P  0.00P  
07/07/2016 21:00 MST0.03P  0.38P  0.00P  
07/07/2016 21:15 MST0.03P  0.38P  0.00P  
07/07/2016 21:30 MST0.00P  0.37P  0.00P  
07/07/2016 21:45 MST0.03P  0.38P  0.00P  
07/07/2016 22:00 MST0.00P  0.37P  0.00P  
07/07/2016 22:15 MST0.00P  0.37P  0.00P  
07/07/2016 22:30 MST0.00P  0.36P  0.00P  
07/07/2016 22:45 MST0.00P  0.37P  0.00P  
07/07/2016 23:00 MST0.00P  0.36P  0.00P  
07/07/2016 23:15 MST0.00P  0.36P  0.00P  
07/07/2016 23:30 MST0.00P  0.37P  0.00P  
07/07/2016 23:45 MST0.00P  0.37P  0.00P  
07/08/2016 00:00 MST0.00P  0.36P  0.00P  
07/08/2016 00:15 MST0.00P  0.37P  0.00P  
07/08/2016 00:30 MST0.03P  0.38P  0.00P  
07/08/2016 00:45 MST0.03P  0.38P  0.00P  
07/08/2016 01:00 MST0.03P  0.38P  0.00P  
07/08/2016 01:15 MST0.04P  0.40P  0.00P  
07/08/2016 01:30 MST0.00P  0.37P  0.00P  
07/08/2016 01:45 MST0.00P  0.37P  0.00P  
07/08/2016 02:00 MST0.00P  0.37P  0.00P  
07/08/2016 02:15 MST0.00P  0.37P  0.00P  
07/08/2016 02:30 MST0.04P  0.41P  0.00P  
07/08/2016 02:45 MST0.03P  0.38P  0.00P  
07/08/2016 03:00 MST0.03P  0.38P  0.00P  
07/08/2016 03:15 MST0.03P  0.38P  0.00P  
07/08/2016 03:30 MST0.03P  0.38P  0.00P  
07/08/2016 03:45 MST0.03P  0.38P  0.00P  
07/08/2016 04:00 MST0.04P  0.39P  0.00P  
07/08/2016 04:15 MST0.03P  0.38P  0.00P  
07/08/2016 04:30 MST0.03P  0.38P  0.00P  
07/08/2016 04:45 MST0.03P  0.38P  0.00P  
07/08/2016 05:00 MST0.04P  0.39P  0.00P  
07/08/2016 05:15 MST0.00P  0.37P  0.00P  
07/08/2016 05:30 MST0.00P  0.37P  0.00P  
07/08/2016 05:45 MST0.00P  0.37P  0.00P  
07/08/2016 06:00 MST0.00P  0.35P  0.00P  
07/08/2016 06:15 MST0.03P  0.38P  0.00P  
07/08/2016 06:30 MST0.00P  0.37P  0.00P  
07/08/2016 06:45 MST0.03P  0.38P  0.00P  
07/08/2016 07:00 MST0.00P  0.37P  0.00P  
07/08/2016 07:15 MST0.00P  0.37P  0.00P  
07/08/2016 07:30 MST0.00P  0.37P  0.00P  
07/08/2016 07:45 MST0.00P  0.36P  0.00P  
07/08/2016 08:00 MST0.00P  0.37P  0.00P  
07/08/2016 08:15 MST0.00P  0.37P  0.00P  
07/08/2016 08:30 MST0.00P  0.37P  0.00P  
07/08/2016 08:45 MST0.03P  0.38P  0.00P  
07/08/2016 09:00 MST0.03P  0.38P  0.00P  
07/08/2016 09:15 MST0.00P  0.37P  0.00P  
07/08/2016 09:30 MST0.00P  0.37P  0.00P  
07/08/2016 09:45 MST0.00P  0.37P  0.00P  
07/08/2016 10:00 MST0.04P  0.39P  0.00P  
07/08/2016 10:15 MST0.03P  0.38P  0.00P  
07/08/2016 10:30 MST0.04P  0.39P  0.00P  
07/08/2016 10:45 MST0.04P  0.39P  0.00P  
07/08/2016 11:00 MST0.04P  0.40P  0.00P  
07/08/2016 11:15 MST0.04P  0.40P  0.00P  
07/08/2016 11:30 MST0.03P  0.38P  0.00P  
07/08/2016 11:45 MST0.04P  0.40P  0.00P  
07/08/2016 12:00 MST0.03P  0.38P  0.00P  
07/08/2016 12:15 MST0.00P  0.37P  0.00P  
07/08/2016 12:30 MST0.04P  0.39P  0.00P  
07/08/2016 12:45 MST0.00P  0.37P  0.00P  
07/08/2016 13:00 MST0.03P  0.38P  0.00P  
07/08/2016 13:15 MST0.04P  0.39P  0.00P  
07/08/2016 13:30 MST0.03P  0.38P  0.00P  
07/08/2016 13:45 MST0.00P  0.37P  0.00P  
07/08/2016 14:00 MST0.00P  0.37P  0.01P  
07/08/2016 14:15 MST0.03P  0.38P  0.00P  
07/08/2016 14:30 MST0.04P  0.39P  0.00P  
07/08/2016 14:45 MST0.03P  0.38P  0.00P  
07/08/2016 15:00 MST0.04P  0.39P  0.00P  
07/08/2016 15:15 MST0.03P  0.38P  0.00P  
07/08/2016 15:30 MST0.03P  0.38P  0.00P  
07/08/2016 15:45 MST0.00P  0.37P  0.00P  
07/08/2016 16:00 MST0.03P  0.38P  0.00P  
07/08/2016 16:15 MST0.03P  0.38P  0.00P  
07/08/2016 16:30 MST0.00P  0.37P  0.00P  
07/08/2016 16:45 MST0.03P  0.38P  0.00P  
07/08/2016 17:00 MST0.00P  0.37P  0.00P  
07/08/2016 17:15 MST0.00P  0.37P  0.00P  
07/08/2016 17:30 MST0.00P  0.36P  0.00P  
07/08/2016 17:45 MST0.03P  0.38P  0.00P  
07/08/2016 18:00 MST0.00P  0.37P  0.00P  
07/08/2016 18:15 MST0.00P  0.36P  0.00P  
07/08/2016 18:30 MST0.00P  0.37P  0.00P  
07/08/2016 18:45 MST0.00P  0.37P  0.00P  
07/08/2016 19:00 MST0.04P  0.39P  0.00P  
07/08/2016 19:15 MST0.00P  0.37P  0.00P  
07/08/2016 19:30 MST0.00P  0.37P  0.00P  
07/08/2016 19:45 MST0.04P  0.39P  0.00P  
07/08/2016 20:00 MST0.04P  0.39P  0.00P  
07/08/2016 20:15 MST0.00P  0.37P  0.00P  
07/08/2016 20:30 MST0.03P  0.38P  0.00P  
07/08/2016 20:45 MST0.00P  0.37P  0.00P  
07/08/2016 21:00 MST0.04P  0.39P  0.00P  
07/08/2016 21:15 MST0.03P  0.38P  0.00P  
07/08/2016 21:30 MST0.00P  0.37P  0.00P  
07/08/2016 21:45 MST0.03P  0.38P  0.00P  
07/08/2016 22:00 MST0.03P  0.38P  0.00P  
07/08/2016 22:15 MST0.03P  0.38P  0.00P  
07/08/2016 22:30 MST0.04P  0.39P  0.00P  
07/08/2016 22:45 MST0.03P  0.38P  0.00P  
07/08/2016 23:00 MST0.03P  0.38P  0.00P  
07/08/2016 23:15 MST0.00P  0.37P  0.00P  
07/08/2016 23:30 MST0.03P  0.38P  0.00P  
07/08/2016 23:45 MST0.04P  0.39P  0.00P  
07/09/2016 00:00 MST0.03P  0.38P  0.00P  
07/09/2016 00:15 MST0.04P  0.39P  0.00P  
07/09/2016 00:30 MST0.03P  0.38P  0.00P  
07/09/2016 00:45 MST0.03P  0.38P  0.00P  
07/09/2016 01:00 MST0.03P  0.38P  0.00P  
07/09/2016 01:15 MST0.00P  0.37P  0.00P  
07/09/2016 01:30 MST0.03P  0.38P  0.00P  
07/09/2016 01:45 MST0.00P  0.36P  0.00P  
07/09/2016 02:00 MST0.00P  0.37P  0.00P  
07/09/2016 02:15 MST0.00P  0.37P  0.00P  
07/09/2016 02:30 MST0.03P  0.38P  0.00P  
07/09/2016 02:45 MST0.00P  0.37P  0.00P  
07/09/2016 03:00 MST0.00P  0.37P  0.00P  
07/09/2016 03:15 MST0.00P  0.37P  0.00P  
07/09/2016 03:30 MST0.00P  0.37P  0.00P  
07/09/2016 03:45 MST0.00P  0.36P  0.00P  
07/09/2016 04:00 MST0.00P  0.37P  0.00P  
07/09/2016 04:15 MST0.00P  0.36P  0.00P  
07/09/2016 04:30 MST0.00P  0.37P  0.00P  
07/09/2016 04:45 MST0.00P  0.37P  0.00P  
07/09/2016 05:00 MST0.00P  0.37P  0.00P  
07/09/2016 05:15 MST0.00P  0.37P  0.00P  
07/09/2016 05:30 MST0.00P  0.37P  0.00P  
07/09/2016 05:45 MST0.00P  0.36P  0.00P  
07/09/2016 06:00 MST0.00P  0.37P  0.00P  
07/09/2016 06:15 MST0.00P  0.37P  0.00P  
07/09/2016 06:30 MST0.00P  0.37P  0.00P  
07/09/2016 06:45 MST0.00P  0.37P  0.00P  
07/09/2016 07:00 MST0.00P  0.37P  0.00P  
07/09/2016 07:15 MST0.00P  0.36P  0.00P  
07/09/2016 07:30 MST0.03P  0.38P  0.00P  
07/09/2016 07:45 MST0.03P  0.38P  0.00P  
07/09/2016 08:00 MST0.03P  0.38P  0.00P  
07/09/2016 08:15 MST0.00P  0.37P  0.00P  
07/09/2016 08:30 MST0.00P  0.37P  0.00P  
07/09/2016 08:45 MST0.03P  0.38P  0.00P  
07/09/2016 09:00 MST0.00P  0.36P  0.00P  
07/09/2016 09:15 MST0.00P  0.37P  0.00P  
07/09/2016 09:30 MST0.04P  0.39P  0.00P  
07/09/2016 09:45 MST0.00P  0.37P  0.00P  
07/09/2016 10:00 MST0.00P  0.36P  0.00P  
07/09/2016 10:15 MST0.00P  0.37P  0.00P  
07/09/2016 10:30 MST0.00P  0.37P  0.00P  
07/09/2016 10:45 MST0.00P  0.36P  0.00P  
07/09/2016 11:00 MST0.00P  0.36P  0.00P  
07/09/2016 11:15 MST0.00P  0.37P  0.00P  
07/09/2016 11:30 MST0.00P  0.36P  0.00P  
07/09/2016 11:45 MST0.00P  0.36P  0.00P  
07/09/2016 12:00 MST0.00P  0.37P  0.00P  
07/09/2016 12:15 MST0.00P  0.37P  0.00P  
07/09/2016 12:30 MST0.00P  0.37P  0.00P  
07/09/2016 12:45 MST0.00P  0.36P  0.00P  
07/09/2016 13:00 MST0.00P  0.36P  0.00P  
07/09/2016 13:15 MST0.00P  0.36P  0.00P  
07/09/2016 13:30 MST0.00P  0.35P  0.00P  
07/09/2016 13:45 MST0.00P  0.37P  0.00P  
07/09/2016 14:00 MST0.00P  0.37P  0.00P  
07/09/2016 14:15 MST0.00P  0.37P  0.00P  
07/09/2016 14:30 MST0.00P  0.36P  0.00P  
07/09/2016 14:45 MST0.00P  0.37P  0.00P  
07/09/2016 15:00 MST0.00P  0.37P  0.00P  
07/09/2016 15:15 MST0.00P  0.36P  0.00P  
07/09/2016 15:30 MST0.00P  0.36P  0.00P  
07/09/2016 15:45 MST0.00P  0.37P  0.00P  
07/09/2016 16:00 MST0.00P  0.37P  0.00P  
07/09/2016 16:15 MST0.00P  0.36P  0.00P  
07/09/2016 16:30 MST0.03P  0.38P  0.00P  
07/09/2016 16:45 MST0.00P  0.37P  0.00P  
07/09/2016 17:00 MST0.03P  0.38P  0.00P  
07/09/2016 17:15 MST0.04P  0.39P  0.00P  
07/09/2016 17:30 MST0.03P  0.38P  0.00P  
07/09/2016 17:45 MST0.04P  0.39P  0.00P  
07/09/2016 18:00 MST0.00P  0.37P  0.00P  
07/09/2016 18:15 MST0.03P  0.38P  0.00P  
07/09/2016 18:30 MST0.03P  0.38P  0.00P  
07/09/2016 18:45 MST0.03P  0.38P  0.00P  
07/09/2016 19:00 MST0.00P  0.37P  0.00P  
07/09/2016 19:15 MST0.00P  0.37P  0.00P  
07/09/2016 19:30 MST0.03P  0.38P  0.00P  
07/09/2016 19:45 MST0.03P  0.38P  0.00P  
07/09/2016 20:00 MST0.00P  0.37P  0.00P  
07/09/2016 20:15 MST0.03P  0.38P  0.00P  
07/09/2016 20:30 MST0.04P  0.39P  0.00P  
07/09/2016 20:45 MST0.00P  0.37P  0.00P  
07/09/2016 21:00 MST0.00P  0.37P  0.00P  
07/09/2016 21:15 MST0.03P  0.38P  0.00P  
07/09/2016 21:30 MST0.03P  0.38P  0.00P  
07/09/2016 21:45 MST0.00P  0.37P  0.00P  
07/09/2016 22:00 MST0.03P  0.38P  0.00P  
07/09/2016 22:15 MST0.00P  0.37P  0.00P  
07/09/2016 22:30 MST0.04P  0.39P  0.00P  
07/09/2016 22:45 MST0.04P  0.39P  0.00P  
07/09/2016 23:00 MST0.04P  0.39P  0.00P  
07/09/2016 23:15 MST0.04P  0.39P  0.00P  
07/09/2016 23:30 MST0.03P  0.38P  0.00P  
07/09/2016 23:45 MST0.04P  0.39P  0.00P  
07/10/2016 00:00 MST0.03P  0.38P  0.00P  
07/10/2016 00:15 MST0.04P  0.39P  0.00P  
07/10/2016 00:30 MST0.03P  0.38P  0.00P  
07/10/2016 00:45 MST0.04P  0.39P  0.00P  
07/10/2016 01:00 MST0.03P  0.38P  0.00P  
07/10/2016 01:15 MST0.03P  0.38P  0.00P  
07/10/2016 01:30 MST0.00P  0.37P  0.00P  
07/10/2016 01:45 MST0.00P  0.37P  0.00P  
07/10/2016 02:00 MST0.03P  0.38P  0.00P  
07/10/2016 02:15 MST0.04P  0.39P  0.00P  
07/10/2016 02:30 MST0.03P  0.38P  0.00P  
07/10/2016 02:45 MST0.00P  0.37P  0.00P  
07/10/2016 03:00 MST0.03P  0.38P  0.00P  
07/10/2016 03:15 MST0.00P  0.37P  0.00P  
07/10/2016 03:30 MST0.03P  0.38P  0.00P  
07/10/2016 03:45 MST0.03P  0.38P  0.00P  
07/10/2016 04:00 MST0.03P  0.38P  0.00P  
07/10/2016 04:15 MST0.00P  0.37P  0.00P  
07/10/2016 04:30 MST0.03P  0.38P  0.00P  
07/10/2016 04:45 MST0.03P  0.38P  0.00P  
07/10/2016 05:00 MST0.03P  0.38P  0.00P  
07/10/2016 05:15 MST0.00P  0.37P  0.00P  
07/10/2016 05:30 MST0.00P  0.37P  0.00P  
07/10/2016 05:45 MST0.03P  0.38P  0.00P  
07/10/2016 06:00 MST0.00P  0.37P  0.00P  
07/10/2016 06:15 MST0.00P  0.37P  0.00P  
07/10/2016 06:30 MST0.03P  0.38P  0.00P  
07/10/2016 06:45 MST0.00P  0.37P  0.00P  
07/10/2016 07:00 MST0.03P  0.38P  0.00P  
07/10/2016 07:15 MST0.03P  0.38P  0.00P  
07/10/2016 07:30 MST0.03P  0.38P  0.00P  
07/10/2016 07:45 MST0.00P  0.37P  0.00P  
07/10/2016 08:00 MST0.00P  0.37P  0.00P  
07/10/2016 08:15 MST0.03P  0.38P  0.00P  
07/10/2016 08:30 MST0.03P  0.38P  0.00P  
07/10/2016 08:45 MST0.03P  0.38P  0.00P  
07/10/2016 09:00 MST0.04P  0.39P  0.00P  
07/10/2016 09:15 MST0.03P  0.38P  0.00P  
07/10/2016 09:30 MST0.03P  0.38P  0.00P  
07/10/2016 09:45 MST0.03P  0.38P  0.00P  
07/10/2016 10:00 MST0.00P  0.37P  0.00P  
07/10/2016 10:15 MST0.00P  0.37P  0.00P  
07/10/2016 10:30 MST0.00P  0.37P  0.00P  
07/10/2016 10:45 MST0.03P  0.38P  0.00P  
07/10/2016 11:00 MST0.03P  0.38P  0.00P  
07/10/2016 11:15 MST0.00P  0.37P  0.00P  
07/10/2016 11:30 MST0.00P  0.36P  0.00P  
07/10/2016 11:45 MST0.00P  0.37P  0.00P  
07/10/2016 12:00 MST0.00P  0.36P  0.00P  
07/10/2016 12:15 MST0.00P  0.37P  0.00P  
07/10/2016 12:30 MST0.00P  0.37P  0.00P  
07/10/2016 12:45 MST0.00P  0.37P  0.00P  
07/10/2016 13:00 MST0.00P  0.37P  0.00P  
07/10/2016 13:15 MST0.00P  0.37P  0.00P  
07/10/2016 13:30 MST0.00P  0.37P  0.00P  
07/10/2016 13:45 MST0.03P  0.38P  0.00P  
07/10/2016 14:00 MST0.00P  0.37P  0.00P  
07/10/2016 14:15 MST0.00P  0.36P  0.00P  
07/10/2016 14:30 MST0.00P  0.37P  0.00P  
07/10/2016 14:45 MST0.03P  0.38P  0.00P  
07/10/2016 15:00 MST0.00P  0.37P  0.00P  
07/10/2016 15:15 MST0.00P  0.37P  0.00P  
07/10/2016 15:30 MST0.00P  0.37P  0.00P  
07/10/2016 15:45 MST0.00P  0.37P  0.00P  
07/10/2016 16:00 MST0.00P  0.36P  0.00P  
07/10/2016 16:15 MST0.00P  0.37P  0.00P  
07/10/2016 16:30 MST0.00P  0.36P  0.00P  
07/10/2016 16:45 MST0.00P  0.35P  0.00P  
07/10/2016 17:00 MST0.00P  0.37P  0.00P  
07/10/2016 17:15 MST0.00P  0.36P  0.00P  
07/10/2016 17:30 MST0.00P  0.36P  0.00P  
07/10/2016 17:45 MST0.00P  0.36P  0.00P  
07/10/2016 18:00 MST0.00P  0.36P  0.00P  
07/10/2016 18:15 MST0.00P  0.36P  0.00P  
07/10/2016 18:30 MST0.04P  0.39P  0.00P  
07/10/2016 18:45 MST0.00P  0.37P  0.00P  
07/10/2016 19:00 MST0.00P  0.36P  0.00P  
07/10/2016 19:15 MST0.00P  0.37P  0.00P  
07/10/2016 19:30 MST0.00P  0.36P  0.00P  
07/10/2016 19:45 MST0.00P  0.35P  0.00P  
07/10/2016 20:00 MST0.00P  0.36P  0.00P  
07/10/2016 20:15 MST0.00P  0.37P  0.00P  
07/10/2016 20:30 MST0.03P  0.38P  0.00P  
07/10/2016 20:45 MST0.00P  0.37P  0.00P  
07/10/2016 21:00 MST0.03P  0.38P  0.00P  
07/10/2016 21:15 MST0.03P  0.38P  0.00P  
07/10/2016 21:30 MST0.00P  0.37P  0.00P  
07/10/2016 21:45 MST0.00P  0.36P  0.00P  
07/10/2016 22:00 MST0.00P  0.37P  0.00P  
07/10/2016 22:15 MST0.00P  0.37P  0.00P  
07/10/2016 22:30 MST0.00P  0.37P  0.00P  
07/10/2016 22:45 MST0.00P  0.37P  0.00P  
07/10/2016 23:00 MST0.00P  0.37P  0.00P  
07/10/2016 23:15 MST0.03P  0.38P  0.00P  
07/10/2016 23:30 MST0.00P  0.36P  0.00P  
07/10/2016 23:45 MST0.03P  0.38P  0.00P  
07/11/2016 00:00 MST0.00P  0.37P  0.00P  
07/11/2016 00:15 MST0.00P  0.37P  0.00P  
07/11/2016 00:30 MST0.00P  0.37P  0.00P  
07/11/2016 00:45 MST0.04P  0.39P  0.00P  
07/11/2016 01:00 MST0.00P  0.37P  0.00P  
07/11/2016 01:15 MST0.00P  0.37P  0.00P  
07/11/2016 01:30 MST0.00P  0.36P  0.00P  
07/11/2016 01:45 MST0.04P  0.40P  0.00P  
07/11/2016 02:00 MST0.00P  0.37P  0.00P  
07/11/2016 02:15 MST0.03P  0.38P  0.00P  
07/11/2016 02:30 MST0.04P  0.39P  0.00P  
07/11/2016 02:45 MST0.04P  0.39P  0.00P  
07/11/2016 03:00 MST0.00P  0.37P  0.00P  
07/11/2016 03:15 MST0.03P  0.38P  0.00P  
07/11/2016 03:30 MST0.00P  0.37P  0.00P  
07/11/2016 03:45 MST0.03P  0.38P  0.00P  
07/11/2016 04:00 MST0.00P  0.37P  0.00P  
07/11/2016 04:15 MST0.00P  0.37P  0.00P  
07/11/2016 04:30 MST0.03P  0.38P  0.00P  
07/11/2016 04:45 MST0.00P  0.37P  0.00P  
07/11/2016 05:00 MST0.00P  0.37P  0.00P  
07/11/2016 05:15 MST0.03P  0.38P  0.00P  
07/11/2016 05:30 MST0.00P  0.37P  0.00P  
07/11/2016 05:45 MST0.00P  0.37P  0.00P  
07/11/2016 06:00 MST0.03P  0.38P  0.00P  
07/11/2016 06:15 MST0.00P  0.37P  0.00P  
07/11/2016 06:30 MST0.00P  0.37P  0.00P  
07/11/2016 06:45 MST0.00P  0.37P  0.00P  
07/11/2016 07:00 MST0.03P  0.38P  0.00P  
07/11/2016 07:15 MST0.00P  0.36P  0.00P  
07/11/2016 07:30 MST0.00P  0.37P  0.00P  
07/11/2016 07:45 MST0.00P  0.37P  0.00P  
07/11/2016 08:00 MST0.00P  0.37P  0.00P  
07/11/2016 08:15 MST0.00P  0.37P  0.00P  
07/11/2016 08:30 MST0.00P  0.37P  0.00P  
07/11/2016 08:45 MST0.03P  0.38P  0.00P  
07/11/2016 09:00 MST0.00P  0.37P  0.00P  
07/11/2016 09:15 MST0.00P  0.37P  0.00P  
07/11/2016 09:30 MST0.00P  0.37P  0.00P  
07/11/2016 09:45 MST0.04P  0.40P  0.00P  
07/11/2016 10:00 MST0.03P  0.38P  0.00P  
07/11/2016 10:15 MST0.03P  0.38P  0.00P  
07/11/2016 10:30 MST0.00P  0.37P  0.00P  
07/11/2016 10:45 MST0.03P  0.38P  0.00P  
07/11/2016 11:00 MST0.03P  0.38P  0.00P  
07/11/2016 11:15 MST0.03P  0.38P  0.00P  
07/11/2016 11:30 MST0.00P  0.37P  0.00P  
07/11/2016 11:45 MST0.03P  0.38P  0.00P  
07/11/2016 12:00 MST0.03P  0.38P  0.00P  
07/11/2016 12:15 MST0.00P  0.37P  0.00P  
07/11/2016 12:30 MST0.00P  0.36P  0.00P  
07/11/2016 12:45 MST0.00P  0.37P  0.00P  
07/11/2016 13:00 MST0.00P  0.35P  0.00P  
07/11/2016 13:15 MST0.00P  0.36P  0.00P  
07/11/2016 13:30 MST0.00P  0.36P  0.00P  
07/11/2016 13:45 MST0.00P  0.35P  0.00P  
07/11/2016 14:00 MST0.00P  0.36P  0.00P  
07/11/2016 14:15 MST0.00P  0.35P  0.00P  
07/11/2016 14:30 MST0.00P  0.35P  0.00P  
07/11/2016 14:45 MST0.00P  0.33P  0.00P  
07/11/2016 15:00 MST0.00P  0.34P  0.00P  
07/11/2016 15:15 MST0.00P  0.35P  0.00P  
07/11/2016 15:30 MST0.00P  0.34P  0.00P  
07/11/2016 15:45 MST0.00P  0.34P  0.00P  
07/11/2016 16:00 MST0.00P  0.32P  0.00P  
07/11/2016 16:15 MST0.00P  0.32P  0.00P  
07/11/2016 16:30 MST0.00P  0.32P  0.00P  
07/11/2016 16:45 MST0.00P  0.32P  0.00P  
07/11/2016 17:00 MST0.00P  0.33P  0.00P  
07/11/2016 17:15 MST0.00P  0.32P  0.00P  
07/11/2016 17:30 MST0.00P  0.33P  0.00P  
07/11/2016 17:45 MST0.00P  0.28P  0.00P  
07/11/2016 18:00 MST0.00P  0.32P  0.00P  
07/11/2016 18:15 MST0.00P  0.32P  0.00P  
07/11/2016 18:30 MST0.00P  0.29P  0.00P  
07/11/2016 18:45 MST0.00P  0.30P  0.00P  
07/11/2016 19:00 MST0.00P  0.29P  0.00P  
07/11/2016 19:15 MST0.00P  0.29P  0.00P  
07/11/2016 19:30 MST0.00P  0.32P  0.00P  
07/11/2016 19:45 MST0.00P  0.28P  0.00P  
07/11/2016 20:00 MST0.00P  0.28P  0.00P  
07/11/2016 20:15 MST0.00P  0.30P  0.00P  
07/11/2016 20:30 MST0.00P  0.30P  0.00P  
07/11/2016 20:45 MST0.00P  0.30P  0.00P  
07/11/2016 21:00 MST0.00P  0.30P  0.00P  
07/11/2016 21:15 MST0.00P  0.29P  0.00P  
07/11/2016 21:30 MST0.00P  0.28P  0.00P  
07/11/2016 21:45 MST0.00P  0.29P  0.00P  
07/11/2016 22:00 MST0.00P  0.31P  0.00P  
07/11/2016 22:15 MST0.00P  0.31P  0.00P  
07/11/2016 22:30 MST0.00P  0.32P  0.00P  
07/11/2016 22:45 MST0.00P  0.31P  0.00P  
07/11/2016 23:00 MST0.00P  0.31P  0.00P  
07/11/2016 23:15 MST0.00P  0.32P  0.00P  
07/11/2016 23:30 MST0.00P  0.32P  0.00P  
07/11/2016 23:45 MST0.00P  0.32P  0.00P  
07/12/2016 00:00 MST0.00P  0.31P  0.00P  
07/12/2016 00:15 MST0.00P  0.33P  0.00P  
07/12/2016 00:30 MST0.00P  0.31P  0.00P  
07/12/2016 00:45 MST0.00P  0.32P  0.00P  
07/12/2016 01:00 MST0.00P  0.32P  0.00P  
07/12/2016 01:15 MST0.00P  0.32P  0.00P  
07/12/2016 01:30 MST0.00P  0.32P  0.00P  
07/12/2016 01:45 MST0.00P  0.33P  0.00P  
07/12/2016 02:00 MST0.00P  0.32P  0.00P  
07/12/2016 02:15 MST0.00P  0.32P  0.00P  
07/12/2016 02:30 MST0.00P  0.31P  0.00P  
07/12/2016 02:45 MST0.00P  0.33P  0.00P  
07/12/2016 03:00 MST0.00P  0.33P  0.00P  
07/12/2016 03:15 MST0.00P  0.33P  0.00P  
07/12/2016 03:30 MST0.00P  0.33P  0.00P  
07/12/2016 03:45 MST0.00P  0.34P  0.00P  
07/12/2016 04:00 MST0.00P  0.33P  0.00P  
07/12/2016 04:15 MST0.00P  0.33P  0.00P  
07/12/2016 04:30 MST0.00P  0.33P  0.00P  
07/12/2016 04:45 MST0.00P  0.34P  0.00P  
07/12/2016 05:00 MST0.00P  0.34P  0.00P  
07/12/2016 05:15 MST0.00P  0.34P  0.00P  
07/12/2016 05:30 MST0.00P  0.36P  0.00P  
07/12/2016 05:45 MST0.00P  0.35P  0.00P  
07/12/2016 06:00 MST0.00P  0.35P  0.00P  
07/12/2016 06:15 MST0.00P  0.35P  0.00P  
07/12/2016 06:30 MST0.00P  0.34P  0.00P  
07/12/2016 06:45 MST0.00P  0.35P  0.00P  
07/12/2016 07:00 MST0.00P  0.35P  0.00P  
07/12/2016 07:15 MST0.00P  0.36P  0.00P  
07/12/2016 07:30 MST0.00P  0.35P  0.00P  
07/12/2016 07:45 MST0.00P  0.37P  0.00P  
07/12/2016 08:00 MST0.00P  0.36P  0.00P  
07/12/2016 08:15 MST0.00P  0.37P  0.00P  
07/12/2016 08:30 MST0.00P  0.37P  0.00P  
07/12/2016 08:45 MST0.00P  0.34P  0.00P  
07/12/2016 09:00 MST0.00P  0.36P  0.00P  
07/12/2016 09:15 MST0.00P  0.35P  0.00P  
07/12/2016 09:30 MST      0.00P  
07/12/2016 09:45 MST0.00P  0.32P  0.00P  
07/12/2016 10:00 MST0.00P  0.34P  0.00P  
07/12/2016 10:15 MST0.00P  0.34P  0.00P  
07/12/2016 10:30 MST0.00P  0.35P  0.00P  
07/12/2016 10:45 MST0.00P  0.34P  0.00P  
07/12/2016 11:00 MST0.00P  0.33P  0.00P  
07/12/2016 11:15 MST0.00P  0.33P  0.00P  
07/12/2016 11:30 MST0.00P  0.32P  0.00P  
07/12/2016 11:45 MST0.00P  0.31P  0.00P  
07/12/2016 12:00 MST0.00P  0.32P  0.00P  
07/12/2016 12:15 MST0.00P  0.31P  0.00P  
07/12/2016 12:30 MST0.00P  0.30P  0.00P  
07/12/2016 12:45 MST0.00P  0.30P  0.00P  
07/12/2016 13:00 MST0.00P  0.29P  0.00P  
07/12/2016 13:15 MST0.00P  0.29P  0.00P  
07/12/2016 13:30 MST0.00P  0.29P  0.00P  
07/12/2016 13:45 MST0.00P  0.29P  0.00P  
07/12/2016 14:00 MST0.00P  0.27P  0.00P  
07/12/2016 14:15 MST0.00P  0.27P  0.00P  
07/12/2016 14:30 MST0.00P  0.27P  0.00P  
07/12/2016 14:45 MST0.00P  0.27P  0.00P  
07/12/2016 15:00 MST0.00P  0.27P  0.00P  
07/12/2016 15:15 MST0.00P  0.26P  0.00P  
07/12/2016 15:30 MST0.00P  0.26P  0.00P  
07/12/2016 15:45 MST0.00P  0.25P  0.00P  
07/12/2016 16:00 MST0.00P  0.25P  0.00P  
07/12/2016 16:15 MST0.00P  0.25P  0.00P  
07/12/2016 16:30 MST0.00P  0.25P  0.00P  
07/12/2016 16:45 MST0.00P  0.25P  0.00P  
07/12/2016 17:00 MST0.00P  0.24P  0.00P  
07/12/2016 17:15 MST0.00P  0.23P  0.00P  
07/12/2016 17:30 MST0.00P  0.24P  0.00P  
07/12/2016 17:45 MST0.00P  0.24P  0.00P  
07/12/2016 18:00 MST0.00P  0.22P  0.00P  
07/12/2016 18:15 MST0.00P  0.24P  0.00P  
07/12/2016 18:30 MST0.00P  0.23P  0.00P  
07/12/2016 18:45 MST0.00P  0.23P  0.00P  
07/12/2016 19:00 MST0.00P  0.22P  0.00P  
07/12/2016 19:15 MST0.00P  0.22P  0.00P  
07/12/2016 19:30 MST0.00P  0.22P  0.00P  
07/12/2016 19:45 MST0.00P  0.23P  0.00P  
07/12/2016 20:00 MST0.00P  0.22P  0.00P  
07/12/2016 20:15 MST0.00P  0.22P  0.00P  
07/12/2016 20:30 MST0.00P  0.23P  0.00P  
07/12/2016 20:45 MST0.00P  0.22P  0.00P  
07/12/2016 21:00 MST0.00P  0.23P  0.00P  
07/12/2016 21:15 MST0.00P  0.23P  0.00P  
07/12/2016 21:30 MST0.00P  0.22P  0.00P  
07/12/2016 21:45 MST0.00P  0.23P  0.00P  
07/12/2016 22:00 MST0.00P  0.23P  0.00P  
07/12/2016 22:15 MST0.00P  0.24P  0.00P  
07/12/2016 22:30 MST0.00P  0.23P  0.00P  
07/12/2016 22:45 MST0.00P  0.22P  0.00P  
07/12/2016 23:00 MST0.00P  0.22P  0.00P  
07/12/2016 23:15 MST0.00P  0.22P  0.00P  
07/12/2016 23:30 MST0.00P  0.23P  0.00P  
07/12/2016 23:45 MST0.00P  0.24P  0.00P  
07/13/2016 00:00 MST0.00P  0.24P  0.00P  
07/13/2016 00:15 MST0.00P  0.24P  0.00P  
07/13/2016 00:30 MST0.00P  0.23P  0.00P  
07/13/2016 00:45 MST0.00P  0.23P  0.00P  
07/13/2016 01:00 MST0.00P  0.24P  0.00P  
07/13/2016 01:15 MST0.00P  0.24P  0.00P  
07/13/2016 01:30 MST0.00P  0.24P  0.00P  
07/13/2016 01:45 MST0.00P  0.24P  0.00P  
07/13/2016 02:00 MST0.00P  0.24P  0.00P  
07/13/2016 02:15 MST0.00P  0.25P  0.00P  
07/13/2016 02:30 MST0.00P  0.24P  0.00P  
07/13/2016 02:45 MST0.00P  0.26P  0.00P  
07/13/2016 03:00 MST0.00P  0.25P  0.00P  
07/13/2016 03:15 MST0.00P  0.26P  0.00P  
07/13/2016 03:30 MST0.00P  0.26P  0.00P  
07/13/2016 03:45 MST0.00P  0.25P  0.00P  
07/13/2016 04:00 MST0.00P  0.25P  0.00P  
07/13/2016 04:15 MST0.00P  0.25P  0.00P  
07/13/2016 04:30 MST0.00P  0.27P  0.00P  
07/13/2016 04:45 MST0.00P  0.26P  0.00P  
07/13/2016 05:00 MST0.00P  0.26P  0.00P  
07/13/2016 05:15 MST0.00P  0.26P  0.00P  
07/13/2016 05:30 MST0.00P  0.27P  0.00P  
07/13/2016 05:45 MST0.00P  0.26P  0.00P  
07/13/2016 06:00 MST0.00P  0.26P  0.00P  
07/13/2016 06:15 MST0.00P  0.27P  0.00P  
07/13/2016 06:30 MST0.00P  0.27P  0.00P  
07/13/2016 06:45 MST0.00P  0.26P  0.00P  
07/13/2016 07:00 MST0.00P  0.28P  0.00P  
07/13/2016 07:15 MST0.00P  0.27P  0.00P  
07/13/2016 07:30 MST0.00P  0.27P  0.00P  
07/13/2016 07:45 MST0.00P  0.27P  0.00P  
07/13/2016 08:00 MST0.00P  0.29P  0.00P  
07/13/2016 08:15 MST0.00P  0.27P  0.00P  
07/13/2016 08:30 MST0.00P  0.27P  0.00P  
07/13/2016 08:45 MST0.00P  0.26P  0.00P  
07/13/2016 09:00 MST0.00P  0.27P  0.00P  
07/13/2016 09:15 MST0.00P  0.26P  0.00P  
07/13/2016 09:30 MST0.00P  0.26P  0.00P  
07/13/2016 09:45 MST0.00P  0.26P  0.00P  
07/13/2016 10:00 MST0.00P  0.25P  0.00P  
07/13/2016 10:15 MST0.00P  0.25P  0.00P  
07/13/2016 10:30 MST0.00P  0.24P  0.00P  
07/13/2016 10:45 MST0.00P  0.24P  0.00P  
07/13/2016 11:00 MST0.00P  0.23P  0.00P  
07/13/2016 11:15 MST0.00P  0.23P  0.00P  
07/13/2016 11:30 MST0.00P  0.22P  0.00P  
07/13/2016 11:45 MST0.00P  0.22P  0.00P  
07/13/2016 12:00 MST0.00P  0.21P  0.00P  
07/13/2016 12:15 MST0.00P  0.21P  0.00P  
07/13/2016 12:30 MST0.00P  0.21P  0.00P  
07/13/2016 12:45 MST0.00P  0.20P  0.00P  
07/13/2016 13:00 MST0.00P  0.20P  0.00P  
07/13/2016 13:15 MST0.00P  0.20P  0.00P  
07/13/2016 13:30 MST0.00P  0.20P  0.00P  
07/13/2016 13:45 MST0.00P  0.19P  0.00P  
07/13/2016 14:00 MST0.00P  0.19P  0.00P  
07/13/2016 14:15 MST0.00P  0.19P  0.00P  
07/13/2016 14:30 MST0.00P  0.19P  0.00P  
07/13/2016 14:45 MST0.00P  0.19P  0.00P  
07/13/2016 15:00 MST0.00P  0.19P  0.00P  
07/13/2016 15:15 MST0.00P  0.19P  0.00P  
07/13/2016 15:30 MST0.00P  0.19P  0.00P  
07/13/2016 15:45 MST0.00P  0.19P  0.00P  
07/13/2016 16:00 MST0.00P  0.19P  0.00P  
07/13/2016 16:15 MST0.00P  0.19P  0.00P  
07/13/2016 16:30 MST0.00P  0.19P  0.00P  
07/13/2016 16:45 MST0.00P  0.19P  0.00P  
07/13/2016 17:00 MST0.00P  0.19P  0.00P  
07/13/2016 17:15 MST0.00P  0.19P  0.00P  
07/13/2016 17:30 MST0.00P  0.19P  0.00P  
07/13/2016 17:45 MST0.00P  0.19P  0.00P  
07/13/2016 18:00 MST0.00P  0.19P  0.00P  
07/13/2016 18:15 MST0.00P  0.19P  0.00P  
07/13/2016 18:30 MST0.00P  0.19P  0.00P  
07/13/2016 18:45 MST0.00P  0.19P  0.00P  
07/13/2016 19:00 MST0.00P  0.19P  0.00P  
07/13/2016 19:15 MST0.00P  0.19P  0.00P  
07/13/2016 19:30 MST0.00P  0.19P  0.00P  
07/13/2016 19:45 MST0.00P  0.19P  0.00P  
07/13/2016 20:00 MST0.00P  0.19P  0.00P  
07/13/2016 20:15 MST0.00P  0.19P  0.00P  
07/13/2016 20:30 MST0.00P  0.19P  0.00P  
07/13/2016 20:45 MST0.00P  0.19P  0.00P  
07/13/2016 21:00 MST0.00P  0.19P  0.00P  
07/13/2016 21:15 MST0.00P  0.19P  0.00P  
07/13/2016 21:30 MST0.00P  0.19P  0.00P  
07/13/2016 21:45 MST0.00P  0.19P  0.00P  
07/13/2016 22:00 MST0.00P  0.19P  0.00P  
07/13/2016 22:15 MST0.00P  0.19P  0.00P  
07/13/2016 22:30 MST0.00P  0.19P  0.00P  
07/13/2016 22:45 MST0.00P  0.19P  0.00P  
07/13/2016 23:00 MST0.00P  0.19P  0.00P  
07/13/2016 23:15 MST0.00P  0.19P  0.00P  
07/13/2016 23:30 MST0.00P  0.19P  0.00P  
07/13/2016 23:45 MST0.00P  0.19P  0.00P  
07/14/2016 00:00 MST0.00P  0.19P  0.00P  
07/14/2016 00:15 MST0.00P  0.19P  0.00P  
07/14/2016 00:30 MST0.00P  0.19P  0.00P  
07/14/2016 00:45 MST0.00P  0.19P  0.00P  
07/14/2016 01:00 MST0.00P  0.19P  0.00P  
07/14/2016 01:15 MST0.00P  0.19P  0.00P  
07/14/2016 01:30 MST0.00P  0.19P  0.00P  
07/14/2016 01:45 MST0.00P  0.19P  0.00P  
07/14/2016 02:00 MST0.00P  0.19P  0.00P  
07/14/2016 02:15 MST0.00P  0.19P  0.00P  
07/14/2016 02:30 MST0.00P  0.19P  0.00P  
07/14/2016 02:45 MST0.00P  0.19P  0.00P  
07/14/2016 03:00 MST0.00P  0.19P  0.00P  
07/14/2016 03:15 MST0.00P  0.19P  0.00P  
07/14/2016 03:30 MST0.00P  0.19P  0.00P  
07/14/2016 03:45 MST0.00P  0.19P  0.00P  
07/14/2016 04:00 MST0.00P  0.19P  0.00P  
07/14/2016 04:15 MST0.00P  0.19P  0.00P  
07/14/2016 04:30 MST0.00P  0.19P  0.00P  
07/14/2016 04:45 MST0.00P  0.19P  0.00P  
07/14/2016 05:00 MST0.00P  0.19P  0.00P  
07/14/2016 05:15 MST0.00P  0.19P  0.00P  
07/14/2016 05:30 MST0.00P  0.19P  0.00P  
07/14/2016 05:45 MST0.00P  0.19P  0.00P  
07/14/2016 06:00 MST0.00P  0.19P  0.00P  
07/14/2016 06:15 MST0.00P  0.19P  0.00P  
07/14/2016 06:30 MST0.00P  0.19P  0.00P  
07/14/2016 06:45 MST0.00P  0.19P  0.00P  
07/14/2016 07:00 MST0.00P  0.19P  0.00P  
07/14/2016 07:15 MST0.00P  0.19P  0.00P  
07/14/2016 07:30 MST0.00P  0.19P  0.00P  
07/14/2016 07:45 MST0.00P  0.19P  0.00P  
07/14/2016 08:00 MST0.00P  0.19P  0.00P  
07/14/2016 08:15 MST0.00P  0.19P  0.00P  
07/14/2016 08:30 MST0.00P  0.19P  0.00P  
07/14/2016 08:45 MST0.00P  0.19P  0.00P  
07/14/2016 09:00 MST0.00P  0.19P  0.00P  
07/14/2016 09:15 MST0.00P  0.19P  0.00P  
07/14/2016 09:30 MST0.00P  0.19P  0.00P  
07/14/2016 09:45 MST0.00P  0.19P  0.00P  
07/14/2016 10:00 MST0.00P  0.19P  0.00P  
07/14/2016 10:15 MST0.00P  0.19P  0.00P  
07/14/2016 10:30 MST0.00P  0.19P  0.00P  
07/14/2016 10:45 MST0.00P  0.19P  0.00P  
07/14/2016 11:00 MST0.00P  0.19P  0.00P  
07/14/2016 11:15 MST0.00P  0.19P  0.00P  
07/14/2016 11:30 MST0.00P  0.19P  0.00P  
07/14/2016 11:45 MST0.00P  0.19P  0.00P  
07/14/2016 12:00 MST0.00P  0.19P  0.00P  
07/14/2016 12:15 MST0.00P  0.19P  0.00P  
07/14/2016 12:30 MST0.00P  0.19P  0.00P  
07/14/2016 12:45 MST0.00P  0.19P  0.00P  
07/14/2016 13:00 MST0.00P  0.19P  0.00P  
07/14/2016 13:15 MST0.00P  0.19P  0.00P  
07/14/2016 13:30 MST0.00P  0.19P  0.00P  
07/14/2016 13:45 MST0.00P  0.19P  0.00P  
07/14/2016 14:00 MST0.00P  0.19P  0.00P  
07/14/2016 14:15 MST0.00P  0.19P  0.00P  
07/14/2016 14:30 MST0.00P  0.19P  0.00P  
07/14/2016 14:45 MST0.00P  0.19P  0.00P  
07/14/2016 15:00 MST0.00P  0.19P  0.00P  
07/14/2016 15:15 MST0.00P  0.19P  0.00P  
07/14/2016 15:30 MST0.00P  0.19P  0.00P  
07/14/2016 15:45 MST0.00P  0.19P  0.00P  
07/14/2016 16:00 MST0.00P  0.19P  0.00P  
07/14/2016 16:15 MST0.00P  0.19P  0.00P  
07/14/2016 16:30 MST0.00P  0.19P  0.00P  
07/14/2016 16:45 MST0.00P  0.19P  0.00P  
07/14/2016 17:00 MST0.00P  0.19P  0.00P  
07/14/2016 17:15 MST0.00P  0.19P  0.00P  
07/14/2016 17:30 MST0.00P  0.19P  0.00P  
07/14/2016 17:45 MST0.00P  0.19P  0.00P  
07/14/2016 18:00 MST0.00P  0.19P  0.00P  
07/14/2016 18:15 MST0.00P  0.19P  0.00P  
07/14/2016 18:30 MST0.00P  0.19P  0.00P  
07/14/2016 18:45 MST0.00P  0.19P  0.00P  
07/14/2016 19:00 MST0.00P  0.19P  0.00P  
07/14/2016 19:15 MST0.00P  0.19P  0.00P  
07/14/2016 19:30 MST0.00P  0.19P  0.00P  
07/14/2016 19:45 MST0.00P  0.19P  0.00P  
07/14/2016 20:00 MST0.00P  0.19P  0.00P  
07/14/2016 20:15 MST0.00P  0.19P  0.00P  
07/14/2016 20:30 MST0.00P  0.19P  0.00P  
07/14/2016 20:45 MST0.00P  0.19P  0.00P  
07/14/2016 21:00 MST0.00P  0.19P  0.00P  
07/14/2016 21:15 MST0.00P  0.19P  0.00P  
07/14/2016 21:30 MST0.00P  0.19P  0.00P  
07/14/2016 21:45 MST0.00P  0.19P  0.00P  
07/14/2016 22:00 MST0.00P  0.19P  0.00P  
07/14/2016 22:15 MST0.00P  0.19P  0.00P  
07/14/2016 22:30 MST0.00P  0.19P  0.00P  
07/14/2016 22:45 MST0.00P  0.19P  0.00P  
07/14/2016 23:00 MST0.00P  0.19P  0.00P  
07/14/2016 23:15 MST0.00P  0.19P  0.00P  
07/14/2016 23:30 MST0.00P  0.19P  0.00P  
07/14/2016 23:45 MST0.00P  0.19P  0.00P  
07/15/2016 00:00 MST0.00P  0.19P  0.00P  
07/15/2016 00:15 MST0.00P  0.19P  0.00P  
07/15/2016 00:30 MST0.00P  0.19P  0.00P  
07/15/2016 00:45 MST0.00P  0.19P  0.00P  
07/15/2016 01:00 MST0.00P  0.19P  0.00P  
07/15/2016 01:15 MST0.00P  0.19P  0.00P  
07/15/2016 01:30 MST0.00P  0.19P  0.00P  
07/15/2016 01:45 MST0.00P  0.19P  0.00P  
07/15/2016 02:00 MST0.00P  0.19P  0.00P  
07/15/2016 02:15 MST0.00P  0.19P  0.00P  
07/15/2016 02:30 MST0.00P  0.19P  0.00P  
07/15/2016 02:45 MST0.00P  0.19P  0.00P  
07/15/2016 03:00 MST0.00P  0.19P  0.00P  
07/15/2016 03:15 MST0.00P  0.19P  0.00P  
07/15/2016 03:30 MST0.00P  0.19P  0.00P  
07/15/2016 03:45 MST0.00P  0.19P  0.00P  
07/15/2016 04:00 MST0.00P  0.19P  0.00P  
07/15/2016 04:15 MST0.00P  0.19P  0.00P  
07/15/2016 04:30 MST0.00P  0.19P  0.00P  
07/15/2016 04:45 MST0.00P  0.19P  0.00P  
07/15/2016 05:00 MST0.00P  0.19P  0.00P  
07/15/2016 05:15 MST0.00P  0.19P  0.00P  
07/15/2016 05:30 MST0.00P  0.19P  0.00P  
07/15/2016 05:45 MST0.00P  0.19P  0.00P  
07/15/2016 06:00 MST0.00P  0.19P  0.00P  
07/15/2016 06:15 MST0.00P  0.19P  0.00P  
07/15/2016 06:30 MST0.00P  0.19P  0.00P  
07/15/2016 06:45 MST0.00P  0.19P  0.00P  
07/15/2016 07:00 MST0.00P  0.19P  0.00P  
07/15/2016 07:15 MST0.00P  0.19P  0.00P  
07/15/2016 07:30 MST0.00P  0.19P  0.00P  
07/15/2016 07:45 MST0.00P  0.19P  0.00P  
07/15/2016 08:00 MST0.00P  0.19P  0.00P  
07/15/2016 08:15 MST0.00P  0.19P  0.00P  
07/15/2016 08:30 MST0.00P  0.19P  0.00P  
07/15/2016 08:45 MST0.00P  0.19P  0.00P  
07/15/2016 09:00 MST0.00P  0.19P  0.00P  
07/15/2016 09:15 MST0.00P  0.19P  0.00P  
07/15/2016 09:30 MST0.00P  0.19P  0.00P  
07/15/2016 09:45 MST0.00P  0.19P  0.00P  
07/15/2016 10:00 MST0.00P  0.19P  0.00P  
07/15/2016 10:15 MST0.00P  0.19P  0.00P  
07/15/2016 10:30 MST0.00P  0.19P  0.00P  
07/15/2016 10:45 MST0.00P  0.19P  0.00P  
07/15/2016 11:00 MST0.00P  0.19P  0.00P  
07/15/2016 11:15 MST0.00P  0.19P  0.00P  
07/15/2016 11:30 MST0.00P  0.19P  0.00P  
07/15/2016 11:45 MST0.00P  0.19P  0.00P  
07/15/2016 12:00 MST0.00P  0.19P  0.00P  
07/15/2016 12:15 MST0.00P  0.19P  0.00P  
07/15/2016 12:30 MST0.00P  0.19P  0.00P  
07/15/2016 12:45 MST0.00P  0.19P  0.00P  
07/15/2016 13:00 MST0.00P  0.19P  0.00P  
07/15/2016 13:15 MST0.00P  0.19P  0.00P  
07/15/2016 13:30 MST0.00P  0.19P  0.00P  
07/15/2016 13:45 MST0.00P  0.19P  0.00P  
07/15/2016 14:00 MST0.00P  0.19P  0.00P  
07/15/2016 14:15 MST0.00P  0.19P  0.00P  
07/15/2016 14:30 MST0.00P  0.19P  0.00P  
07/15/2016 14:45 MST0.00P  0.19P  0.00P  
07/15/2016 15:00 MST0.00P  0.19P  0.00P  
07/15/2016 15:15 MST0.00P  0.19P  0.00P  
07/15/2016 15:30 MST0.00P  0.19P  0.00P  
07/15/2016 15:45 MST0.00P  0.19P  0.00P  
07/15/2016 16:00 MST0.00P  0.19P  0.00P  
07/15/2016 16:15 MST0.00P  0.19P  0.00P  
07/15/2016 16:30 MST0.00P  0.19P  0.00P  
07/15/2016 16:45 MST0.00P  0.19P  0.00P  
07/15/2016 17:00 MST0.00P  0.19P  0.00P  
07/15/2016 17:15 MST0.00P  0.19P  0.00P  
07/15/2016 17:30 MST0.00P  0.19P  0.00P  
07/15/2016 17:45 MST0.00P  0.19P  0.00P  
07/15/2016 18:00 MST0.00P  0.19P  0.00P  
07/15/2016 18:15 MST0.00P  0.19P  0.00P  
07/15/2016 18:30 MST0.00P  0.19P  0.00P  
07/15/2016 18:45 MST0.00P  0.19P  0.00P  
07/15/2016 19:00 MST0.00P  0.19P  0.00P  
07/15/2016 19:15 MST0.00P  0.19P  0.00P  
07/15/2016 19:30 MST0.00P  0.19P  0.00P  
07/15/2016 19:45 MST0.00P  0.19P  0.00P  
07/15/2016 20:00 MST0.00P  0.19P  0.00P  
07/15/2016 20:15 MST0.00P  0.19P  0.00P  
07/15/2016 20:30 MST0.00P  0.19P  0.00P  
07/15/2016 20:45 MST0.00P  0.19P  0.00P  
07/15/2016 21:00 MST0.00P  0.19P  0.00P  
07/15/2016 21:15 MST0.00P  0.19P  0.00P  
07/15/2016 21:30 MST0.00P  0.19P  0.00P  
07/15/2016 21:45 MST0.00P  0.19P  0.00P  
07/15/2016 22:00 MST0.00P  0.19P  0.00P  
07/15/2016 22:15 MST0.00P  0.19P  0.00P  
07/15/2016 22:30 MST0.00P  0.19P  0.00P  
07/15/2016 22:45 MST0.00P  0.19P  0.00P  
07/15/2016 23:00 MST0.00P  0.19P  0.00P  
07/15/2016 23:15 MST0.00P  0.19P  0.00P  
07/15/2016 23:30 MST0.00P  0.19P  0.00P  
07/15/2016 23:45 MST0.00P  0.19P  0.00P  
07/16/2016 00:00 MST0.00P  0.19P  0.00P  
07/16/2016 00:15 MST0.00P  0.19P  0.00P  
07/16/2016 00:30 MST0.00P  0.19P  0.00P  
07/16/2016 00:45 MST0.00P  0.19P  0.00P  
07/16/2016 01:00 MST0.00P  0.19P  0.00P  
07/16/2016 01:15 MST0.00P  0.19P  0.00P  
07/16/2016 01:30 MST0.00P  0.19P  0.00P  
07/16/2016 01:45 MST0.00P  0.19P  0.00P  
07/16/2016 02:00 MST0.00P  0.19P  0.00P  
07/16/2016 02:15 MST0.00P  0.19P  0.00P  
07/16/2016 02:30 MST0.00P  0.19P  0.00P  
07/16/2016 02:45 MST0.00P  0.19P  0.00P  
07/16/2016 03:00 MST0.00P  0.19P  0.00P  
07/16/2016 03:15 MST0.00P  0.19P  0.00P  
07/16/2016 03:30 MST0.00P  0.19P  0.00P  
07/16/2016 03:45 MST0.00P  0.19P  0.00P  
07/16/2016 04:00 MST0.00P  0.19P  0.00P  
07/16/2016 04:15 MST0.00P  0.19P  0.00P  
07/16/2016 04:30 MST0.00P  0.19P  0.00P  
07/16/2016 04:45 MST0.00P  0.19P  0.00P  
07/16/2016 05:00 MST0.00P  0.19P  0.00P  
07/16/2016 05:15 MST0.00P  0.19P  0.00P  
07/16/2016 05:30 MST0.00P  0.19P  0.00P  
07/16/2016 05:45 MST0.00P  0.19P  0.00P  
07/16/2016 06:00 MST0.00P  0.19P  0.00P  
07/16/2016 06:15 MST0.00P  0.19P  0.00P  
07/16/2016 06:30 MST0.00P  0.19P  0.00P  
07/16/2016 06:45 MST0.00P  0.19P  0.00P  
07/16/2016 07:00 MST0.00P  0.19P  0.00P  
07/16/2016 07:15 MST0.00P  0.19P  0.00P  
07/16/2016 07:30 MST0.00P  0.19P  0.00P  
07/16/2016 07:45 MST0.00P  0.19P  0.00P  
07/16/2016 08:00 MST0.00P  0.19P  0.00P  
07/16/2016 08:15 MST0.00P  0.19P  0.00P  
07/16/2016 08:30 MST0.00P  0.19P  0.00P  
07/16/2016 08:45 MST0.00P  0.19P  0.00P  
07/16/2016 09:00 MST0.00P  0.19P  0.00P  
07/16/2016 09:15 MST0.00P  0.19P  0.00P  
07/16/2016 09:30 MST0.00P  0.19P  0.00P  
07/16/2016 09:45 MST0.00P  0.19P  0.00P  
07/16/2016 10:00 MST0.00P  0.19P  0.00P  
07/16/2016 10:15 MST0.00P  0.19P  0.00P  
07/16/2016 10:30 MST0.00P  0.19P  0.00P  
07/16/2016 10:45 MST0.00P  0.19P  0.00P  
07/16/2016 11:00 MST0.00P  0.19P  0.00P  
07/16/2016 11:15 MST0.00P  0.19P  0.00P  
07/16/2016 11:30 MST0.00P  0.19P  0.00P  
07/16/2016 11:45 MST0.00P  0.19P  0.00P  
07/16/2016 12:00 MST0.00P  0.19P  0.00P  
07/16/2016 12:15 MST0.00P  0.19P  0.00P  
07/16/2016 12:30 MST0.00P  0.19P  0.00P  
07/16/2016 12:45 MST0.00P  0.19P  0.00P  
07/16/2016 13:00 MST0.00P  0.19P  0.00P  
07/16/2016 13:15 MST0.00P  0.19P  0.00P  
07/16/2016 13:30 MST0.00P  0.19P  0.00P  
07/16/2016 13:45 MST0.00P  0.19P  0.00P  
07/16/2016 14:00 MST0.00P  0.19P  0.00P  
07/16/2016 14:15 MST0.00P  0.19P  0.00P  
07/16/2016 14:30 MST0.00P  0.19P  0.00P  
07/16/2016 14:45 MST0.00P  0.19P  0.00P  
07/16/2016 15:00 MST0.00P  0.19P  0.00P  
07/16/2016 15:15 MST0.00P  0.19P  0.00P  
07/16/2016 15:30 MST0.00P  0.19P  0.00P  
07/16/2016 15:45 MST0.00P  0.19P  0.00P  
07/16/2016 16:00 MST0.00P  0.19P  0.00P  
07/16/2016 16:15 MST0.00P  0.19P  0.00P  
07/16/2016 16:30 MST0.00P  0.19P  0.00P  
07/16/2016 16:45 MST0.00P  0.19P  0.00P  
07/16/2016 17:00 MST0.00P  0.19P  0.00P  
07/16/2016 17:15 MST0.00P  0.19P  0.00P  
07/16/2016 17:30 MST0.00P  0.19P  0.00P  
07/16/2016 17:45 MST0.00P  0.19P  0.00P  
07/16/2016 18:00 MST0.00P  0.19P  0.01P  
07/16/2016 18:15 MST0.00P  0.19P  0.06P  
07/16/2016 18:30 MST0.00P  0.19P  0.00P  
07/16/2016 18:45 MST0.00P  0.19P  0.06P  
07/16/2016 19:00 MST0.00P  0.19P  0.03P  
07/16/2016 19:15 MST0.00P  0.19P  0.01P  
07/16/2016 19:30 MST0.00P  0.19P  0.01P  
07/16/2016 19:45 MST0.00P  0.19P  0.01P  
07/16/2016 20:00 MST0.00P  0.19P  0.01P  
07/16/2016 20:15 MST0.00P  0.19P  0.01P  
07/16/2016 20:30 MST0.00P  0.19P  0.00P  
07/16/2016 20:45 MST0.00P  0.19P  0.01P  
07/16/2016 21:00 MST0.00P  0.19P  0.00P  
07/16/2016 21:15 MST0.00P  0.19P  0.01P  
07/16/2016 21:30 MST0.00P  0.19P  0.00P  
07/16/2016 21:45 MST0.00P  0.19P  0.00P  
07/16/2016 22:00 MST0.00P  0.19P  0.00P  
07/16/2016 22:15 MST0.00P  0.19P  0.00P  
07/16/2016 22:30 MST0.00P  0.19P  0.00P  
07/16/2016 22:45 MST0.00P  0.19P  0.00P  
07/16/2016 23:00 MST0.00P  0.19P  0.00P  
07/16/2016 23:15 MST0.00P  0.19P  0.00P  
07/16/2016 23:30 MST0.00P  0.19P  0.00P  
07/16/2016 23:45 MST0.00P  0.19P  0.00P  
07/17/2016 00:00 MST0.00P  0.19P  0.00P  
07/17/2016 00:15 MST0.00P  0.19P  0.00P  
07/17/2016 00:30 MST0.00P  0.19P  0.00P  
07/17/2016 00:45 MST0.00P  0.19P  0.00P  
07/17/2016 01:00 MST0.00P  0.19P  0.00P  
07/17/2016 01:15 MST0.00P  0.19P  0.00P  
07/17/2016 01:30 MST0.00P  0.19P  0.00P  
07/17/2016 01:45 MST0.00P  0.19P  0.00P  
07/17/2016 02:00 MST0.00P  0.19P  0.00P  
07/17/2016 02:15 MST0.00P  0.19P  0.00P  
07/17/2016 02:30 MST0.00P  0.19P  0.00P  
07/17/2016 02:45 MST0.00P  0.19P  0.00P  
07/17/2016 03:00 MST0.00P  0.19P  0.00P  
07/17/2016 03:15 MST0.00P  0.19P  0.00P  
07/17/2016 03:30 MST0.00P  0.19P  0.00P  
07/17/2016 03:45 MST0.00P  0.19P  0.00P  
07/17/2016 04:00 MST0.00P  0.19P  0.00P  
07/17/2016 04:15 MST0.00P  0.19P  0.00P  
07/17/2016 04:30 MST0.00P  0.19P  0.00P  
07/17/2016 04:45 MST0.00P  0.19P  0.00P  
07/17/2016 05:00 MST0.00P  0.19P  0.00P  
07/17/2016 05:15 MST0.00P  0.19P  0.00P  
07/17/2016 05:30 MST0.00P  0.19P  0.00P  
07/17/2016 05:45 MST0.00P  0.19P  0.00P  
07/17/2016 06:00 MST0.00P  0.19P  0.00P  
07/17/2016 06:15 MST0.00P  0.19P  0.00P  
07/17/2016 06:30 MST0.00P  0.19P  0.00P  
07/17/2016 06:45 MST0.00P  0.19P  0.00P  
07/17/2016 07:00 MST0.00P  0.19P  0.00P  
07/17/2016 07:15 MST0.00P  0.19P  0.00P  
07/17/2016 07:30 MST0.00P  0.19P  0.00P  
07/17/2016 07:45 MST0.00P  0.19P  0.00P  
07/17/2016 08:00 MST0.00P  0.19P  0.00P  
07/17/2016 08:15 MST0.00P  0.19P  0.00P  
07/17/2016 08:30 MST0.00P  0.19P  0.00P  
07/17/2016 08:45 MST0.00P  0.19P  0.00P  
07/17/2016 09:00 MST0.00P  0.19P  0.00P  
07/17/2016 09:15 MST0.00P  0.19P  0.00P  
07/17/2016 09:30 MST0.00P  0.19P  0.00P  
07/17/2016 09:45 MST0.00P  0.19P  0.00P  
07/17/2016 10:00 MST0.00P  0.19P  0.00P  
07/17/2016 10:15 MST0.00P  0.19P  0.00P  
07/17/2016 10:30 MST0.00P  0.19P  0.00P  
07/17/2016 10:45 MST0.00P  0.19P  0.00P  
07/17/2016 11:00 MST0.00P  0.19P  0.00P  
07/17/2016 11:15 MST0.00P  0.19P  0.00P  
07/17/2016 11:30 MST0.00P  0.19P  0.00P  
07/17/2016 11:45 MST0.00P  0.19P  0.00P  
07/17/2016 12:00 MST0.00P  0.19P  0.00P  
07/17/2016 12:15 MST0.00P  0.19P  0.00P  
07/17/2016 12:30 MST0.00P  0.19P  0.00P  
07/17/2016 12:45 MST0.00P  0.19P  0.00P  
07/17/2016 13:00 MST0.00P  0.19P  0.00P  
07/17/2016 13:15 MST0.00P  0.19P  0.00P  
07/17/2016 13:30 MST0.00P  0.19P  0.00P  
07/17/2016 13:45 MST0.00P  0.19P  0.00P  
07/17/2016 14:00 MST0.00P  0.19P  0.00P  
07/17/2016 14:15 MST0.00P  0.19P  0.00P  
07/17/2016 14:30 MST0.00P  0.19P  0.00P  
07/17/2016 14:45 MST0.00P  0.19P  0.00P  
07/17/2016 15:00 MST0.00P  0.19P  0.00P  
07/17/2016 15:15 MST0.00P  0.19P  0.00P  
07/17/2016 15:30 MST0.00P  0.19P  0.00P  
07/17/2016 15:45 MST0.00P  0.19P  0.00P  
07/17/2016 16:00 MST0.00P  0.19P  0.00P  
07/17/2016 16:15 MST0.00P  0.19P  0.00P  
07/17/2016 16:30 MST0.00P  0.19P  0.00P  
07/17/2016 16:45 MST0.00P  0.19P  0.00P  
07/17/2016 17:00 MST0.00P  0.19P  0.00P  
07/17/2016 17:15 MST0.00P  0.19P  0.00P  
07/17/2016 17:30 MST0.00P  0.19P  0.00P  
07/17/2016 17:45 MST0.00P  0.19P  0.00P  
07/17/2016 18:00 MST0.00P  0.19P  0.00P  
07/17/2016 18:15 MST0.00P  0.19P  0.00P  
07/17/2016 18:30 MST0.00P  0.19P  0.00P  
07/17/2016 18:45 MST0.00P  0.19P  0.00P  
07/17/2016 19:00 MST0.00P  0.19P  0.00P  
07/17/2016 19:15 MST0.00P  0.19P  0.00P  
07/17/2016 19:30 MST0.00P  0.19P  0.00P  
07/17/2016 19:45 MST0.00P  0.19P  0.00P  
07/17/2016 20:00 MST0.00P  0.19P  0.00P  
07/17/2016 20:15 MST0.00P  0.19P  0.00P  
07/17/2016 20:30 MST0.00P  0.19P  0.00P  
07/17/2016 20:45 MST0.00P  0.19P  0.00P  
07/17/2016 21:00 MST0.00P  0.19P  0.00P  
07/17/2016 21:15 MST0.00P  0.19P  0.00P  
07/17/2016 21:30 MST0.00P  0.19P  0.00P  
07/17/2016 21:45 MST0.00P  0.19P  0.00P  
07/17/2016 22:00 MST0.00P  0.19P  0.00P  
07/17/2016 22:15 MST0.00P  0.19P  0.00P  
07/17/2016 22:30 MST0.00P  0.19P  0.00P  
07/17/2016 22:45 MST0.00P  0.19P  0.00P  
07/17/2016 23:00 MST0.00P  0.19P  0.00P  
07/17/2016 23:15 MST0.00P  0.19P  0.05P  
07/17/2016 23:30 MST0.04P  0.40P  0.32P  
07/17/2016 23:45 MST0.03P  0.38P  0.21P  
07/18/2016 00:00 MST0.00P  0.36P  0.00P  
07/18/2016 00:15 MST37P  2.40P  0.01P  
07/18/2016 00:30 MST24P  2.14P  0.00P  
07/18/2016 00:45 MST11P  1.77P  0.01P  
07/18/2016 01:00 MST4.9P  1.48P  0.00P  
07/18/2016 01:15 MST2.2P  1.24P  0.01P  
07/18/2016 01:30 MST1.2P  1.08P  0.02P  
07/18/2016 01:45 MST0.68P  0.96P  0.01P  
07/18/2016 02:00 MST0.42P  0.87P  0.01P  
07/18/2016 02:15 MST0.34P  0.81P  0.02P  
07/18/2016 02:30 MST0.29P  0.77P  0.01P  
07/18/2016 02:45 MST0.24P  0.73P  0.00P  
07/18/2016 03:00 MST0.20P  0.70P  0.00P  
07/18/2016 03:15 MST0.29P  0.77P  0.00P  
07/18/2016 03:30 MST0.38P  0.84P  0.00P  
07/18/2016 03:45 MST0.38P  0.84P  0.00P  
07/18/2016 04:00 MST0.40P  0.85P  0.00P  
07/18/2016 04:15 MST0.82P  1.00P  0.00P  
07/18/2016 04:30 MST2.4P  1.27P  0.00P  
07/18/2016 04:45 MST4.0P  1.42P  0.00P  
07/18/2016 05:00 MST4.4P  1.44P  0.00P  
07/18/2016 05:15 MST3.9P  1.41P  0.00P  
07/18/2016 05:30 MST3.5P  1.38P  0.00P  
07/18/2016 05:45 MST3.2P  1.35P  0.00P  
07/18/2016 06:00 MST3.0P  1.32P  0.00P  
07/18/2016 06:15 MST2.7P  1.30P  0.00P  
07/18/2016 06:30 MST2.4P  1.27P  0.00P  
07/18/2016 06:45 MST2.2P  1.24P  0.00P  
07/18/2016 07:00 MST2.0P  1.21P  0.00P  
07/18/2016 07:15 MST1.7P  1.18P  0.00P  
07/18/2016 07:30 MST1.7P  1.17P  0.00P  
07/18/2016 07:45 MST1.5P  1.15P  0.00P  
07/18/2016 08:00 MST1.4P  1.13P  0.00P  
07/18/2016 08:15 MST1.3P  1.11P  0.00P  
07/18/2016 08:30 MST1.2P  1.08P  0.00P  
07/18/2016 08:45 MST1.0P  1.05P  0.00P  
07/18/2016 09:00 MST1.0P  1.05P  0.00P  
07/18/2016 09:15 MST0.93P  1.03P  0.00P  
07/18/2016 09:30 MST0.78P  0.99P  0.00P  
07/18/2016 09:45 MST0.75P  0.98P  0.00P  
07/18/2016 10:00 MST0.68P  0.96P  0.00P  
07/18/2016 10:15 MST0.65P  0.95P  0.00P  
07/18/2016 10:30 MST0.59P  0.94P  0.00P  
07/18/2016 10:45 MST0.54P  0.92P  0.00P  
07/18/2016 11:00 MST0.52P  0.91P  0.00P  
07/18/2016 11:15 MST0.49P  0.90P  0.00P  
07/18/2016 11:30 MST0.47P  0.89P  0.00P  
07/18/2016 11:45 MST0.44P  0.88P  0.00P  
07/18/2016 12:00 MST0.40P  0.86P  0.00P  
07/18/2016 12:15 MST0.40P  0.86P  0.00P  
07/18/2016 12:30 MST0.38P  0.84P  0.00P  
07/18/2016 12:45 MST0.38P  0.84P  0.00P  
07/18/2016 13:00 MST0.40P  0.85P  0.00P  
07/18/2016 13:15 MST0.38P  0.84P  0.00P  
07/18/2016 13:30 MST0.34P  0.82P  0.00P  
07/18/2016 13:45 MST0.34P  0.82P  0.00P  
07/18/2016 14:00 MST0.34P  0.81P  0.00P  
07/18/2016 14:15 MST0.32P  0.80P  0.00P  
07/18/2016 14:30 MST0.31P  0.79P  0.00P  
07/18/2016 14:45 MST0.29P  0.78P  0.00P  
07/18/2016 15:00 MST0.29P  0.78P  0.00P  
07/18/2016 15:15 MST0.29P  0.77P  0.00P  
07/18/2016 15:30 MST0.27P  0.76P  0.00P  
07/18/2016 15:45 MST0.26P  0.75P  0.00P  
07/18/2016 16:00 MST0.26P  0.75P  0.00P  
07/18/2016 16:15 MST0.24P  0.74P  0.00P  
07/18/2016 16:30 MST0.24P  0.73P  0.00P  
07/18/2016 16:45 MST0.23P  0.72P  0.00P  
07/18/2016 17:00 MST0.22P  0.71P  0.00P  
07/18/2016 17:15 MST0.22P  0.71P  0.00P  
07/18/2016 17:30 MST0.22P  0.71P  0.00P  
07/18/2016 17:45 MST0.19P  0.69P  0.00P  
07/18/2016 18:00 MST0.19P  0.69P  0.00P  
07/18/2016 18:15 MST0.19P  0.69P  0.00P  
07/18/2016 18:30 MST0.19P  0.69P  0.00P  
07/18/2016 18:45 MST0.19P  0.68P  0.00P  
07/18/2016 19:00 MST0.19P  0.68P  0.00P  
07/18/2016 19:15 MST0.18P  0.67P  0.00P  
07/18/2016 19:30 MST0.18P  0.67P  0.00P  
07/18/2016 19:45 MST0.17P  0.66P  0.00P  
07/18/2016 20:00 MST0.17P  0.66P  0.00P  
07/18/2016 20:15 MST0.17P  0.66P  0.00P  
07/18/2016 20:30 MST0.17P  0.66P  0.00P  
07/18/2016 20:45 MST0.16P  0.65P  0.00P  
07/18/2016 21:00 MST0.18P  0.67P  0.00P  
07/18/2016 21:15 MST0.16P  0.65P  0.00P  
07/18/2016 21:30 MST0.17P  0.66P  0.00P  
07/18/2016 21:45 MST0.16P  0.65P  0.00P  
07/18/2016 22:00 MST0.16P  0.65P  0.00P  
07/18/2016 22:15 MST0.16P  0.65P  0.00P  
07/18/2016 22:30 MST0.16P  0.64P  0.00P  
07/18/2016 22:45 MST0.16P  0.64P  0.00P  
07/18/2016 23:00 MST0.14P  0.62P  0.00P  
07/18/2016 23:15 MST0.15P  0.63P  0.00P  
07/18/2016 23:30 MST0.15P  0.63P  0.00P  
07/18/2016 23:45 MST0.15P  0.63P  0.00P  
07/19/2016 00:00 MST0.14P  0.62P  0.00P  
07/19/2016 00:15 MST0.14P  0.62P  0.00P  
07/19/2016 00:30 MST0.14P  0.62P  0.00P  
07/19/2016 00:45 MST0.14P  0.62P  0.00P  
07/19/2016 01:00 MST0.14P  0.62P  0.00P  
07/19/2016 01:15 MST0.14P  0.62P  0.00P  
07/19/2016 01:30 MST0.14P  0.62P  0.00P  
07/19/2016 01:45 MST0.14P  0.62P  0.00P  
07/19/2016 02:00 MST0.13P  0.61P  0.00P  
07/19/2016 02:15 MST0.13P  0.61P  0.00P  
07/19/2016 02:30 MST0.12P  0.59P  0.00P  
07/19/2016 02:45 MST0.13P  0.61P  0.00P  
07/19/2016 03:00 MST0.13P  0.61P  0.00P  
07/19/2016 03:15 MST0.13P  0.61P  0.00P  
07/19/2016 03:30 MST0.13P  0.61P  0.00P  
07/19/2016 03:45 MST0.13P  0.61P  0.00P  
07/19/2016 04:00 MST0.13P  0.61P  0.00P  
07/19/2016 04:15 MST0.13P  0.61P  0.00P  
07/19/2016 04:30 MST0.13P  0.61P  0.00P  
07/19/2016 04:45 MST0.14P  0.62P  0.00P  
07/19/2016 05:00 MST0.13P  0.61P  0.00P  
07/19/2016 05:15 MST0.13P  0.60P  0.00P  
07/19/2016 05:30 MST0.13P  0.60P  0.00P  
07/19/2016 05:45 MST0.13P  0.60P  0.00P  
07/19/2016 06:00 MST0.13P  0.61P  0.00P  
07/19/2016 06:15 MST0.13P  0.61P  0.00P  
07/19/2016 06:30 MST0.12P  0.59P  0.00P  
07/19/2016 06:45 MST0.13P  0.60P  0.00P  
07/19/2016 07:00 MST0.13P  0.60P  0.00P  
07/19/2016 07:15 MST0.13P  0.60P  0.00P  
07/19/2016 07:30 MST0.13P  0.60P  0.00P  
07/19/2016 07:45 MST0.13P  0.60P  0.00P  
07/19/2016 08:00 MST0.13P  0.61P  0.00P  
07/19/2016 08:15 MST0.13P  0.61P  0.00P  
07/19/2016 08:30 MST0.13P  0.60P  0.00P  
07/19/2016 08:45 MST0.13P  0.60P  0.00P  
07/19/2016 09:00 MST0.12P  0.59P  0.00P  
07/19/2016 09:15 MST0.12P  0.59P  0.00P  
07/19/2016 09:30 MST0.12P  0.59P  0.00P  
07/19/2016 09:45 MST0.10P  0.57P  0.00P  
07/19/2016 10:00 MST0.10P  0.57P  0.00P  
07/19/2016 10:15 MST0.10P  0.57P  0.00P  
07/19/2016 10:30 MST0.10P  0.57P  0.00P  
07/19/2016 10:45 MST0.10P  0.57P  0.00P  
07/19/2016 11:00 MST0.10P  0.56P  0.00P  
07/19/2016 11:15 MST0.10P  0.56P  0.00P  
07/19/2016 11:30 MST0.10P  0.56P  0.00P  
07/19/2016 11:45 MST0.10P  0.56P  0.00P  
07/19/2016 12:00 MST0.10P  0.56P  0.00P  
07/19/2016 12:15 MST0.10P  0.56P  0.00P  
07/19/2016 12:30 MST0.10P  0.56P  0.00P  
07/19/2016 12:45 MST0.10P  0.55P  0.00P  
07/19/2016 13:00 MST0.10P  0.56P  0.00P  
07/19/2016 13:15 MST0.10P  0.56P  0.00P  
07/19/2016 13:30 MST0.10P  0.56P  0.00P  
07/19/2016 13:45 MST0.10P  0.56P  0.00P  
07/19/2016 14:00 MST0.10P  0.56P  0.00P  
07/19/2016 14:15 MST0.10P  0.56P  0.00P  
07/19/2016 14:30 MST0.10P  0.56P  0.00P  
07/19/2016 14:45 MST0.10P  0.56P  0.00P  
07/19/2016 15:00 MST0.10P  0.56P  0.00P  
07/19/2016 15:15 MST0.10P  0.56P  0.00P  
07/19/2016 15:30 MST0.10P  0.56P  0.00P  
07/19/2016 15:45 MST0.10P  0.56P  0.00P  
07/19/2016 16:00 MST0.10P  0.55P  0.00P  
07/19/2016 16:15 MST0.10P  0.56P  0.00P  
07/19/2016 16:30 MST0.10P  0.56P  0.00P  
07/19/2016 16:45 MST0.10P  0.56P  0.00P  
07/19/2016 17:00 MST0.10P  0.56P  0.00P  
07/19/2016 17:15 MST0.10P  0.55P  0.00P  
07/19/2016 17:30 MST0.09P  0.54P  0.00P  
07/19/2016 17:45 MST0.10P  0.56P  0.00P  
07/19/2016 18:00 MST0.10P  0.56P  0.04P  
07/19/2016 18:15 MST0.10P  0.56P  0.03P  
07/19/2016 18:30 MST0.10P  0.56P  0.00P  
07/19/2016 18:45 MST0.10P  0.57P  0.01P  
07/19/2016 19:00 MST0.10P  0.56P  0.00P  
07/19/2016 19:15 MST0.10P  0.56P  0.01P  
07/19/2016 19:30 MST0.10P  0.56P  0.00P  
07/19/2016 19:45 MST0.10P  0.56P  0.00P  
07/19/2016 20:00 MST0.10P  0.56P  0.00P  
07/19/2016 20:15 MST0.10P  0.56P  0.00P  
07/19/2016 20:30 MST0.10P  0.56P  0.00P  
07/19/2016 20:45 MST0.10P  0.56P  0.00P  
07/19/2016 21:00 MST0.10P  0.56P  0.00P  
07/19/2016 21:15 MST0.10P  0.56P  0.00P  
07/19/2016 21:30 MST0.10P  0.56P  0.00P  
07/19/2016 21:45 MST0.10P  0.56P  0.00P  
07/19/2016 22:00 MST0.10P  0.55P  0.00P  
07/19/2016 22:15 MST0.10P  0.56P  0.00P  
07/19/2016 22:30 MST0.10P  0.56P  0.00P  
07/19/2016 22:45 MST0.10P  0.56P  0.00P  
07/19/2016 23:00 MST0.10P  0.56P  0.00P  
07/19/2016 23:15 MST0.10P  0.56P  0.00P  
07/19/2016 23:30 MST0.10P  0.57P  0.00P  
07/19/2016 23:45 MST0.10P  0.56P  0.00P  
07/20/2016 00:00 MST0.10P  0.56P  0.00P  
07/20/2016 00:15 MST0.10P  0.56P  0.00P  
07/20/2016 00:30 MST0.10P  0.56P  0.00P  
07/20/2016 00:45 MST0.10P  0.56P  0.00P  
07/20/2016 01:00 MST0.10P  0.57P  0.00P  
07/20/2016 01:15 MST0.10P  0.56P  0.00P  
07/20/2016 01:30 MST0.10P  0.57P  0.00P  
07/20/2016 01:45 MST0.10P  0.56P  0.00P  
07/20/2016 02:00 MST0.10P  0.56P  0.00P  
07/20/2016 02:15 MST0.10P  0.57P  0.00P  
07/20/2016 02:30 MST0.10P  0.56P  0.00P  
07/20/2016 02:45 MST0.10P  0.56P  0.00P  
07/20/2016 03:00 MST0.10P  0.56P  0.00P  
07/20/2016 03:15 MST0.10P  0.56P  0.00P  
07/20/2016 03:30 MST0.10P  0.56P  0.00P  
07/20/2016 03:45 MST0.10P  0.56P  0.00P  
07/20/2016 04:00 MST0.10P  0.56P  0.00P  
07/20/2016 04:15 MST0.10P  0.56P  0.00P  
07/20/2016 04:30 MST0.10P  0.55P  0.00P  
07/20/2016 04:45 MST0.10P  0.56P  0.00P  
07/20/2016 05:00 MST0.10P  0.56P  0.00P  
07/20/2016 05:15 MST0.10P  0.55P  0.00P  
07/20/2016 05:30 MST0.10P  0.56P  0.00P  
07/20/2016 05:45 MST0.10P  0.56P  0.00P  
07/20/2016 06:00 MST0.10P  0.56P  0.00P  
07/20/2016 06:15 MST0.10P  0.56P  0.00P  
07/20/2016 06:30 MST0.10P  0.56P  0.00P  
07/20/2016 06:45 MST0.10P  0.56P  0.00P  
07/20/2016 07:00 MST0.10P  0.56P  0.00P  
07/20/2016 07:15 MST0.10P  0.55P  0.00P  
07/20/2016 07:30 MST0.10P  0.55P  0.00P  
07/20/2016 07:45 MST0.10P  0.56P  0.00P  
07/20/2016 08:00 MST0.10P  0.56P  0.00P  
07/20/2016 08:15 MST0.08P  0.53P  0.00P  
07/20/2016 08:30 MST0.10P  0.56P  0.00P  
07/20/2016 08:45 MST0.10P  0.56P  0.00P  
07/20/2016 09:00 MST0.10P  0.56P  0.00P  
07/20/2016 09:15 MST0.10P  0.56P  0.00P  
07/20/2016 09:30 MST0.10P  0.56P  0.00P  
07/20/2016 09:45 MST0.10P  0.56P  0.00P  
07/20/2016 10:00 MST0.10P  0.56P  0.00P  
07/20/2016 10:15 MST0.10P  0.56P  0.00P  
07/20/2016 10:30 MST0.10P  0.56P  0.00P  
07/20/2016 10:45 MST0.10P  0.56P  0.00P  
07/20/2016 11:00 MST0.10P  0.56P  0.00P  
07/20/2016 11:15 MST0.10P  0.56P  0.00P  
07/20/2016 11:30 MST0.09P  0.54P  0.00P  
07/20/2016 11:45 MST0.10P  0.56P  0.00P  
07/20/2016 12:00 MST0.09P  0.54P  0.00P  
07/20/2016 12:15 MST0.08P  0.53P  0.00P  
07/20/2016 12:30 MST0.10P  0.56P  0.00P  
07/20/2016 12:45 MST0.10P  0.56P  0.00P  
07/20/2016 13:00 MST0.10P  0.56P  0.00P  
07/20/2016 13:15 MST0.10P  0.56P  0.00P  
07/20/2016 13:30 MST0.10P  0.56P  0.00P  
07/20/2016 13:45 MST0.10P  0.56P  0.00P  
07/20/2016 14:00 MST0.10P  0.56P  0.00P  
07/20/2016 14:15 MST0.10P  0.56P  0.00P  
07/20/2016 14:30 MST0.10P  0.57P  0.00P  
07/20/2016 14:45 MST0.10P  0.56P  0.00P  
07/20/2016 15:00 MST0.10P  0.56P  0.00P  
07/20/2016 15:15 MST0.10P  0.56P  0.00P  
07/20/2016 15:30 MST0.08P  0.51P  0.00P  
07/20/2016 15:45 MST0.10P  0.57P  0.00P  
07/20/2016 16:00 MST0.10P  0.57P  0.00P  
07/20/2016 16:15 MST0.10P  0.55P  0.00P  
07/20/2016 16:30 MST0.10P  0.56P  0.00P  
07/20/2016 16:45 MST0.08P  0.51P  0.00P  
07/20/2016 17:00 MST0.10P  0.57P  0.00P  
07/20/2016 17:15 MST0.10P  0.57P  0.00P  
07/20/2016 17:30 MST0.10P  0.55P  0.00P  
07/20/2016 17:45 MST0.10P  0.57P  0.00P  
07/20/2016 18:00 MST0.10P  0.56P  0.00P  
07/20/2016 18:15 MST0.10P  0.56P  0.00P  
07/20/2016 18:30 MST0.10P  0.56P  0.00P  
07/20/2016 18:45 MST0.10P  0.57P  0.00P  
07/20/2016 19:00 MST0.10P  0.56P  0.00P  
07/20/2016 19:15 MST0.10P  0.57P  0.00P  
07/20/2016 19:30 MST0.10P  0.57P  0.00P  
07/20/2016 19:45 MST0.10P  0.57P  0.01P  
07/20/2016 20:00 MST0.10P  0.56P  0.00P  
07/20/2016 20:15 MST0.10P  0.57P  0.00P  
07/20/2016 20:30 MST0.10P  0.56P  0.00P  
07/20/2016 20:45 MST0.10P  0.57P  0.00P  
07/20/2016 21:00 MST0.10P  0.57P  0.00P  
07/20/2016 21:15 MST0.08P  0.53P  0.00P  
07/20/2016 21:30 MST0.10P  0.56P  0.00P  
07/20/2016 21:45 MST0.10P  0.56P  0.00P  
07/20/2016 22:00 MST0.10P  0.57P  0.00P  
07/20/2016 22:15 MST0.10P  0.57P  0.00P  
07/20/2016 22:30 MST0.10P  0.57P  0.00P  
07/20/2016 22:45 MST0.10P  0.57P  0.00P  
07/20/2016 23:00 MST0.10P  0.57P  0.00P  
07/20/2016 23:15 MST0.09P  0.54P  0.00P  
07/20/2016 23:30 MST0.10P  0.57P  0.00P  
07/20/2016 23:45 MST0.10P  0.56P  0.00P  
07/21/2016 00:00 MST0.10P  0.57P  0.00P  
07/21/2016 00:15 MST0.10P  0.56P  0.00P  
07/21/2016 00:30 MST0.10P  0.55P  0.00P  
07/21/2016 00:45 MST0.10P  0.57P  0.00P  
07/21/2016 01:00 MST0.10P  0.57P  0.00P  
07/21/2016 01:15 MST0.10P  0.57P  0.00P  
07/21/2016 01:30 MST0.10P  0.57P  0.00P  
07/21/2016 01:45 MST0.10P  0.57P  0.00P  
07/21/2016 02:00 MST0.08P  0.51P  0.00P  
07/21/2016 02:15 MST0.10P  0.57P  0.00P  
07/21/2016 02:30 MST0.10P  0.56P  0.00P  
07/21/2016 02:45 MST0.10P  0.56P  0.00P  
07/21/2016 03:00 MST0.10P  0.57P  0.00P  
07/21/2016 03:15 MST0.10P  0.57P  0.00P  
07/21/2016 03:30 MST0.10P  0.57P  0.00P  
07/21/2016 03:45 MST0.10P  0.57P  0.00P  
07/21/2016 04:00 MST0.10P  0.57P  0.00P  
07/21/2016 04:15 MST0.10P  0.57P  0.00P  
07/21/2016 04:30 MST0.10P  0.57P  0.00P  
07/21/2016 04:45 MST0.10P  0.57P  0.00P  
07/21/2016 05:00 MST0.10P  0.57P  0.00P  
07/21/2016 05:15 MST0.10P  0.55P  0.00P  
07/21/2016 05:30 MST0.10P  0.56P  0.00P  
07/21/2016 05:45 MST0.10P  0.57P  0.00P  
07/21/2016 06:00 MST0.10P  0.57P  0.00P  
07/21/2016 06:15 MST0.10P  0.55P  0.00P  
07/21/2016 06:30 MST0.10P  0.55P  0.00P  
07/21/2016 06:45 MST0.09P  0.54P  0.00P  
07/21/2016 07:00 MST0.09P  0.54P  0.00P  
07/21/2016 07:15 MST0.10P  0.55P  0.00P  
07/21/2016 07:30 MST0.10P  0.55P  0.00P  
07/21/2016 07:45 MST0.10P  0.55P  0.00P  
07/21/2016 08:00 MST0.10P  0.56P  0.00P  
07/21/2016 08:15 MST0.10P  0.56P  0.00P  
07/21/2016 08:30 MST0.10P  0.57P  0.00P  
07/21/2016 08:45 MST0.10P  0.56P  0.00P  
07/21/2016 09:00 MST0.10P  0.57P  0.00P  
07/21/2016 09:15 MST0.10P  0.57P  0.00P  
07/21/2016 09:30 MST0.10P  0.56P  0.00P  
07/21/2016 09:45 MST0.09P  0.54P  0.00P  
07/21/2016 10:00 MST0.08P  0.51P  0.00P  
07/21/2016 10:15 MST0.10P  0.56P  0.00P  
07/21/2016 10:30 MST0.10P  0.55P  0.00P  
07/21/2016 10:45 MST0.10P  0.56P  0.00P  
07/21/2016 11:00 MST0.10P  0.56P  0.00P  
07/21/2016 11:15 MST0.10P  0.56P  0.00P  
07/21/2016 11:30 MST0.10P  0.56P  0.00P  
07/21/2016 11:45 MST0.10P  0.56P  0.01P  
07/21/2016 12:00 MST0.10P  0.56P  0.00P  
07/21/2016 12:15 MST0.10P  0.56P  0.00P  
07/21/2016 12:30 MST0.10P  0.56P  0.00P  
07/21/2016 12:45 MST0.08P  0.52P  0.00P  
07/21/2016 13:00 MST0.10P  0.55P  0.00P  
07/21/2016 13:15 MST0.10P  0.56P  0.00P  
07/21/2016 13:30 MST0.10P  0.56P  0.00P  
07/21/2016 13:45 MST0.10P  0.55P  0.00P  
07/21/2016 14:00 MST0.10P  0.56P  0.00P  
07/21/2016 14:15 MST0.08P  0.53P  0.00P  
07/21/2016 14:30 MST0.10P  0.55P  0.00P  
07/21/2016 14:45 MST0.08P  0.53P  0.00P  
07/21/2016 15:00 MST0.10P  0.56P  0.00P  
07/21/2016 15:15 MST0.10P  0.56P  0.00P  
07/21/2016 15:30 MST0.10P  0.56P  0.00P  
07/21/2016 15:45 MST0.07P  0.50P  0.00P  
07/21/2016 16:00 MST0.10P  0.56P  0.00P  
07/21/2016 16:15 MST0.10P  0.56P  0.00P  
07/21/2016 16:30 MST0.10P  0.56P  0.00P  
07/21/2016 16:45 MST0.10P  0.56P  0.00P  
07/21/2016 17:00 MST0.10P  0.56P  0.00P  
07/21/2016 17:15 MST0.10P  0.56P  0.00P  
07/21/2016 17:30 MST0.10P  0.57P  0.00P  
07/21/2016 17:45 MST0.10P  0.56P  0.00P  
07/21/2016 18:00 MST0.10P  0.55P  0.00P  
07/21/2016 18:15 MST0.10P  0.56P  0.00P  
07/21/2016 18:30 MST0.10P  0.56P  0.00P  
07/21/2016 18:45 MST0.10P  0.56P  0.00P  
07/21/2016 19:00 MST0.10P  0.56P  0.00P  
07/21/2016 19:15 MST0.10P  0.56P  0.00P  
07/21/2016 19:30 MST0.10P  0.55P  0.00P  
07/21/2016 19:45 MST0.10P  0.56P  0.00P  
07/21/2016 20:00 MST0.10P  0.56P  0.00P  
07/21/2016 20:15 MST0.08P  0.51P  0.00P  
07/21/2016 20:30 MST0.10P  0.56P  0.00P  
07/21/2016 20:45 MST0.10P  0.56P  0.00P  
07/21/2016 21:00 MST0.10P  0.55P  0.00P  
07/21/2016 21:15 MST0.10P  0.56P  0.00P  
07/21/2016 21:30 MST0.10P  0.56P  0.00P  
07/21/2016 21:45 MST0.10P  0.55P  0.00P  
07/21/2016 22:00 MST0.10P  0.56P  0.00P  
07/21/2016 22:15 MST0.08P  0.52P  0.00P  
07/21/2016 22:30 MST0.10P  0.56P  0.00P  
07/21/2016 22:45 MST0.10P  0.56P  0.00P  
07/21/2016 23:00 MST0.10P  0.56P  0.00P  
07/21/2016 23:15 MST0.10P  0.56P  0.00P  
07/21/2016 23:30 MST0.10P  0.56P  0.00P  
07/21/2016 23:45 MST0.10P  0.55P  0.00P  
07/22/2016 00:00 MST0.10P  0.55P  0.00P  
07/22/2016 00:15 MST0.10P  0.56P  0.00P  
07/22/2016 00:30 MST0.10P  0.56P  0.00P  
07/22/2016 00:45 MST0.10P  0.56P  0.01P  
07/22/2016 01:00 MST0.12P  0.59P  0.21P  
07/22/2016 01:15 MST0.13P  0.61P  0.20P  
07/22/2016 01:30 MST61P  2.71P  0.06P  
07/22/2016 01:45 MST108P  3.13P  0.03P  
07/22/2016 02:00 MST73P  2.84P  0.03P  
07/22/2016 02:15 MST64P  2.75P  0.02P  
07/22/2016 02:30 MST47P  2.54P  0.01P  
07/22/2016 02:45 MST33P  2.32P  0.01P  
07/22/2016 03:00 MST30P  2.27P  0.00P  
07/22/2016 03:15 MST33P  2.33P  0.00P  
07/22/2016 03:30 MST41P  2.45P  0.00P  
07/22/2016 03:45 MST43P  2.49P  0.00P  
07/22/2016 04:00 MST41P  2.46P  0.00P  
07/22/2016 04:15 MST36P  2.38P  0.00P  
07/22/2016 04:30 MST31P  2.29P  0.00P  
07/22/2016 04:45 MST27P  2.21P  0.00P  
07/22/2016 05:00 MST23P  2.13P  0.00P  
07/22/2016 05:15 MST19P  2.02P  0.00P  
07/22/2016 05:30 MST17P  1.96P  0.00P  
07/22/2016 05:45 MST13P  1.85P  0.00P  
07/22/2016 06:00 MST12P  1.82P  0.00P  
07/22/2016 06:15 MST9.4P  1.72P  0.01P  
07/22/2016 06:30 MST8.0P  1.66P  0.00P  
07/22/2016 06:45 MST7.2P  1.62P  0.00P  
07/22/2016 07:00 MST5.9P  1.55P  0.00P  
07/22/2016 07:15 MST5.4P  1.52P  0.00P  
07/22/2016 07:30 MST4.7P  1.47P  0.00P  
07/22/2016 07:45 MST4.0P  1.42P  0.00P  
07/22/2016 08:00 MST3.5P  1.38P  0.00P  
07/22/2016 08:15 MST3.1P  1.34P  0.00P  
07/22/2016 08:30 MST3.0P  1.32P  0.00P  
07/22/2016 08:45 MST2.6P  1.29P  0.00P  
07/22/2016 09:00 MST2.4P  1.26P  0.00P  
07/22/2016 09:15 MST2.1P  1.23P  0.00P  
07/22/2016 09:30 MST2.1P  1.22P  0.00P  
07/22/2016 09:45 MST1.9P  1.20P  0.00P  
07/22/2016 10:00 MST1.6P  1.16P  0.00P  
07/22/2016 10:15 MST1.6P  1.16P  0.00P  
07/22/2016 10:30 MST1.5P  1.14P  0.00P  
07/22/2016 10:45 MST1.4P  1.13P  0.00P  
07/22/2016 11:00 MST1.3P  1.11P  0.00P  
07/22/2016 11:15 MST1.2P  1.09P  0.00P  
07/22/2016 11:30 MST1.2P  1.08P  0.00P  
07/22/2016 11:45 MST0.97P  1.04P  0.00P  
07/22/2016 12:00 MST0.97P  1.04P  0.00P  
07/22/2016 12:15 MST0.93P  1.03P  0.00P  
07/22/2016 12:30 MST0.89P  1.02P  0.00P  
07/22/2016 12:45 MST0.85P  1.01P  0.00P  
07/22/2016 13:00 MST0.82P  1.00P  0.00P  
07/22/2016 13:15 MST0.78P  0.99P  0.00P  
07/22/2016 13:30 MST0.78P  0.99P  0.00P  
07/22/2016 13:45 MST0.71P  0.97P  0.00P  
07/22/2016 14:00 MST0.68P  0.96P  0.00P  
07/22/2016 14:15 MST0.65P  0.95P  0.00P  
07/22/2016 14:30 MST0.59P  0.94P  0.00P  
07/22/2016 14:45 MST0.49P  0.90P  0.00P  
07/22/2016 15:00 MST0.54P  0.92P  0.00P  
07/22/2016 15:15 MST0.54P  0.92P  0.00P  
07/22/2016 15:30 MST0.49P  0.90P  0.00P  
07/22/2016 15:45 MST0.52P  0.91P  0.00P  
07/22/2016 16:00 MST0.52P  0.91P  0.00P  
07/22/2016 16:15 MST0.40P  0.85P  0.00P  
07/22/2016 16:30 MST0.47P  0.89P  0.00P  
07/22/2016 16:45 MST0.44P  0.88P  0.00P  
07/22/2016 17:00 MST0.44P  0.88P  0.00P  
07/22/2016 17:15 MST0.42P  0.87P  0.00P  
07/22/2016 17:30 MST0.42P  0.87P  0.00P  
07/22/2016 17:45 MST0.42P  0.87P  0.00P  
07/22/2016 18:00 MST0.40P  0.85P  0.00P  
07/22/2016 18:15 MST0.34P  0.81P  0.00P  
07/22/2016 18:30 MST0.40P  0.86P  0.00P  
07/22/2016 18:45 MST0.40P  0.86P  0.00P  
07/22/2016 19:00 MST0.40P  0.85P  0.00P  
07/22/2016 19:15 MST0.36P  0.83P  0.00P  
07/22/2016 19:30 MST0.40P  0.85P  0.00P  
07/22/2016 19:45 MST0.38P  0.84P  0.00P  
07/22/2016 20:00 MST0.38P  0.84P  0.00P  
07/22/2016 20:15 MST0.38P  0.84P  0.00P  
07/22/2016 20:30 MST0.38P  0.84P  0.00P  
07/22/2016 20:45 MST0.38P  0.84P  0.00P  
07/22/2016 21:00 MST0.38P  0.84P  0.00P  
07/22/2016 21:15 MST0.36P  0.83P  0.00P  
07/22/2016 21:30 MST0.34P  0.82P  0.00P  
07/22/2016 21:45 MST0.36P  0.83P  0.00P  
07/22/2016 22:00 MST0.34P  0.82P  0.00P  
07/22/2016 22:15 MST0.34P  0.81P  0.00P  
07/22/2016 22:30 MST0.36P  0.83P  0.00P  
07/22/2016 22:45 MST0.34P  0.82P  0.00P  
07/22/2016 23:00 MST0.34P  0.82P  0.00P  
07/22/2016 23:15 MST0.34P  0.81P  0.00P  
07/22/2016 23:30 MST0.34P  0.82P  0.00P  
07/22/2016 23:45 MST0.34P  0.82P  0.00P  
07/23/2016 00:00 MST0.34P  0.82P  0.00P  
07/23/2016 00:15 MST0.34P  0.81P  0.00P  
07/23/2016 00:30 MST0.34P  0.81P  0.00P  
07/23/2016 00:45 MST0.34P  0.81P  0.00P  
07/23/2016 01:00 MST0.34P  0.81P  0.00P  
07/23/2016 01:15 MST0.34P  0.81P  0.00P  
07/23/2016 01:30 MST0.34P  0.81P  0.00P  
07/23/2016 01:45 MST0.34P  0.81P  0.00P  
07/23/2016 02:00 MST0.32P  0.80P  0.00P  
07/23/2016 02:15 MST0.32P  0.80P  0.00P  
07/23/2016 02:30 MST0.29P  0.77P  0.00P  
07/23/2016 02:45 MST0.32P  0.80P  0.00P  
07/23/2016 03:00 MST0.27P  0.76P  0.00P  
07/23/2016 03:15 MST0.32P  0.80P  0.00P  
07/23/2016 03:30 MST0.31P  0.79P  0.00P  
07/23/2016 03:45 MST0.32P  0.80P  0.00P  
07/23/2016 04:00 MST0.32P  0.80P  0.00P  
07/23/2016 04:15 MST0.31P  0.79P  0.00P  
07/23/2016 04:30 MST0.31P  0.79P  0.00P  
07/23/2016 04:45 MST0.26P  0.75P  0.00P  
07/23/2016 05:00 MST0.31P  0.79P  0.00P  
07/23/2016 05:15 MST0.31P  0.79P  0.00P  
07/23/2016 05:30 MST0.31P  0.79P  0.00P  
07/23/2016 05:45 MST0.31P  0.79P  0.00P  
07/23/2016 06:00 MST0.29P  0.78P  0.00P  
07/23/2016 06:15 MST0.29P  0.78P  0.00P  
07/23/2016 06:30 MST0.31P  0.79P  0.00P  
07/23/2016 06:45 MST0.29P  0.78P  0.00P  
07/23/2016 07:00 MST0.29P  0.78P  0.00P  
07/23/2016 07:15 MST0.29P  0.78P  0.00P  
07/23/2016 07:30 MST0.29P  0.78P  0.00P  
07/23/2016 07:45 MST0.29P  0.78P  0.00P  
07/23/2016 08:00 MST0.29P  0.78P  0.00P  
07/23/2016 08:15 MST0.29P  0.78P  0.00P  
07/23/2016 08:30 MST0.29P  0.77P  0.00P  
07/23/2016 08:45 MST0.29P  0.78P  0.00P  
07/23/2016 09:00 MST0.29P  0.77P  0.00P  
07/23/2016 09:15 MST0.29P  0.77P  0.00P  
07/23/2016 09:30 MST0.29P  0.77P  0.00P  
07/23/2016 09:45 MST0.24P  0.73P  0.00P  
07/23/2016 10:00 MST0.27P  0.76P  0.00P  
07/23/2016 10:15 MST0.27P  0.76P  0.00P  
07/23/2016 10:30 MST0.27P  0.76P  0.00P  
07/23/2016 10:45 MST0.26P  0.75P  0.00P  
07/23/2016 11:00 MST0.27P  0.76P  0.00P  
07/23/2016 11:15 MST0.27P  0.76P  0.00P  
07/23/2016 11:30 MST0.24P  0.74P  0.00P  
07/23/2016 11:45 MST0.26P  0.75P  0.00P  
07/23/2016 12:00 MST0.26P  0.75P  0.00P  
07/23/2016 12:15 MST0.26P  0.75P  0.00P  
07/23/2016 12:30 MST0.24P  0.73P  0.00P  
07/23/2016 12:45 MST0.24P  0.73P  0.00P  
07/23/2016 13:00 MST0.24P  0.73P  0.00P  
07/23/2016 13:15 MST0.24P  0.74P  0.00P  
07/23/2016 13:30 MST0.23P  0.72P  0.00P  
07/23/2016 13:45 MST0.24P  0.73P  0.00P  
07/23/2016 14:00 MST0.22P  0.71P  0.00P  
07/23/2016 14:15 MST0.23P  0.72P  0.00P  
07/23/2016 14:30 MST0.23P  0.72P  0.00P  
07/23/2016 14:45 MST0.23P  0.72P  0.00P  
07/23/2016 15:00 MST0.22P  0.71P  0.00P  
07/23/2016 15:15 MST0.22P  0.71P  0.00P  
07/23/2016 15:30 MST0.20P  0.70P  0.00P  
07/23/2016 15:45 MST0.22P  0.71P  0.00P  
07/23/2016 16:00 MST0.20P  0.70P  0.00P  
07/23/2016 16:15 MST0.22P  0.71P  0.00P  
07/23/2016 16:30 MST0.20P  0.70P  0.00P  
07/23/2016 16:45 MST0.20P  0.70P  0.00P  
07/23/2016 17:00 MST0.19P  0.68P  0.00P  
07/23/2016 17:15 MST0.19P  0.69P  0.00P  
07/23/2016 17:30 MST0.20P  0.70P  0.00P  
07/23/2016 17:45 MST0.19P  0.69P  0.00P  
07/23/2016 18:00 MST0.16P  0.65P  0.00P  
07/23/2016 18:15 MST0.17P  0.66P  0.00P  
07/23/2016 18:30 MST0.19P  0.69P  0.00P  
07/23/2016 18:45 MST0.19P  0.69P  0.00P  
07/23/2016 19:00 MST0.19P  0.68P  0.00P  
07/23/2016 19:15 MST0.19P  0.68P  0.00P  
07/23/2016 19:30 MST0.20P  0.70P  0.00P  
07/23/2016 19:45 MST0.19P  0.69P  0.00P  
07/23/2016 20:00 MST0.17P  0.66P  0.00P  
07/23/2016 20:15 MST0.19P  0.69P  0.00P  
07/23/2016 20:30 MST0.19P  0.68P  0.00P  
07/23/2016 20:45 MST0.19P  0.69P  0.00P  
07/23/2016 21:00 MST0.18P  0.67P  0.00P  
07/23/2016 21:15 MST0.19P  0.69P  0.00P  
07/23/2016 21:30 MST0.20P  0.70P  0.00P  
07/23/2016 21:45 MST0.19P  0.68P  0.00P  
07/23/2016 22:00 MST0.19P  0.69P  0.00P  
07/23/2016 22:15 MST0.20P  0.70P  0.00P  
07/23/2016 22:30 MST0.20P  0.70P  0.00P  
07/23/2016 22:45 MST0.19P  0.68P  0.00P  
07/23/2016 23:00 MST0.20P  0.70P  0.00P  
07/23/2016 23:15 MST0.20P  0.70P  0.00P  
07/23/2016 23:30 MST0.20P  0.70P  0.00P  
07/23/2016 23:45 MST0.20P  0.70P  0.00P  
07/24/2016 00:00 MST0.22P  0.71P  0.00P  
07/24/2016 00:15 MST0.20P  0.70P  0.00P  
07/24/2016 00:30 MST0.20P  0.70P  0.00P  
07/24/2016 00:45 MST0.19P  0.69P  0.00P  
07/24/2016 01:00 MST0.20P  0.70P  0.00P  
07/24/2016 01:15 MST0.20P  0.70P  0.00P  
07/24/2016 01:30 MST0.20P  0.70P  0.00P  
07/24/2016 01:45 MST0.20P  0.70P  0.00P  
07/24/2016 02:00 MST0.19P  0.68P  0.00P  
07/24/2016 02:15 MST0.20P  0.70P  0.00P  
07/24/2016 02:30 MST0.22P  0.71P  0.00P  
07/24/2016 02:45 MST0.22P  0.71P  0.00P  
07/24/2016 03:00 MST0.20P  0.70P  0.00P  
07/24/2016 03:15 MST0.22P  0.71P  0.00P  
07/24/2016 03:30 MST0.20P  0.70P  0.00P  
07/24/2016 03:45 MST0.22P  0.71P  0.00P  
07/24/2016 04:00 MST0.19P  0.68P  0.00P  
07/24/2016 04:15 MST0.20P  0.70P  0.00P  
07/24/2016 04:30 MST0.22P  0.71P  0.00P  
07/24/2016 04:45 MST0.22P  0.71P  0.00P  
07/24/2016 05:00 MST0.22P  0.71P  0.00P  
07/24/2016 05:15 MST0.18P  0.67P  0.00P  
07/24/2016 05:30 MST0.22P  0.71P  0.00P  
07/24/2016 05:45 MST0.22P  0.71P  0.00P  
07/24/2016 06:00 MST0.22P  0.71P  0.00P  
07/24/2016 06:15 MST0.22P  0.71P  0.00P  
07/24/2016 06:30 MST0.22P  0.71P  0.00P  
07/24/2016 06:45 MST0.18P  0.67P  0.00P  
07/24/2016 07:00 MST0.20P  0.70P  0.00P  
07/24/2016 07:15 MST0.19P  0.69P  0.00P  
07/24/2016 07:30 MST0.22P  0.71P  0.00P  
07/24/2016 07:45 MST0.23P  0.72P  0.00P  
07/24/2016 08:00 MST0.23P  0.72P  0.00P  
07/24/2016 08:15 MST0.22P  0.71P  0.00P  
07/24/2016 08:30 MST0.20P  0.70P  0.00P  
07/24/2016 08:45 MST0.22P  0.71P  0.00P  
07/24/2016 09:00 MST0.22P  0.71P  0.00P  
07/24/2016 09:15 MST0.22P  0.71P  0.00P  
07/24/2016 09:30 MST0.20P  0.70P  0.00P  
07/24/2016 09:45 MST0.20P  0.70P  0.00P  
07/24/2016 10:00 MST0.16P  0.65P  0.00P  
07/24/2016 10:15 MST0.16P  0.64P  0.00P  
07/24/2016 10:30 MST0.19P  0.69P  0.00P  
07/24/2016 10:45 MST0.19P  0.69P  0.00P  
07/24/2016 11:00 MST0.19P  0.68P  0.00P  
07/24/2016 11:15 MST0.19P  0.68P  0.00P  
07/24/2016 11:30 MST0.18P  0.67P  0.00P  
07/24/2016 11:45 MST0.18P  0.67P  0.00P  
07/24/2016 12:00 MST0.18P  0.67P  0.00P  
07/24/2016 12:15 MST0.16P  0.65P  0.00P  
07/24/2016 12:30 MST0.17P  0.66P  0.00P  
07/24/2016 12:45 MST0.17P  0.66P  0.00P  
07/24/2016 13:00 MST0.16P  0.65P  0.00P  
07/24/2016 13:15 MST0.16P  0.65P  0.00P  
07/24/2016 13:30 MST0.16P  0.64P  0.00P  
07/24/2016 13:45 MST0.12P  0.59P  0.00P  
07/24/2016 14:00 MST0.16P  0.64P  0.00P  
07/24/2016 14:15 MST0.16P  0.64P  0.00P  
07/24/2016 14:30 MST0.15P  0.63P  0.00P  
07/24/2016 14:45 MST0.15P  0.63P  0.00P  
07/24/2016 15:00 MST0.15P  0.63P  0.00P  
07/24/2016 15:15 MST0.14P  0.62P  0.00P  
07/24/2016 15:30 MST0.14P  0.62P  0.00P  
07/24/2016 15:45 MST0.14P  0.62P  0.00P  
07/24/2016 16:00 MST0.14P  0.62P  0.00P  
07/24/2016 16:15 MST0.13P  0.61P  0.00P  
07/24/2016 16:30 MST0.13P  0.61P  0.00P  
07/24/2016 16:45 MST0.13P  0.60P  0.00P  
07/24/2016 17:00 MST0.10P  0.57P  0.00P  
07/24/2016 17:15 MST0.13P  0.60P  0.00P  
07/24/2016 17:30 MST0.12P  0.59P  0.00P  
07/24/2016 17:45 MST0.12P  0.59P  0.00P  
07/24/2016 18:00 MST0.12P  0.59P  0.00P  
07/24/2016 18:15 MST0.12P  0.59P  0.00P  
07/24/2016 18:30 MST0.11P  0.58P  0.00P  
07/24/2016 18:45 MST0.13P  0.60P  0.00P  
07/24/2016 19:00 MST0.12P  0.59P  0.00P  
07/24/2016 19:15 MST0.10P  0.56P  0.00P  
07/24/2016 19:30 MST0.12P  0.59P  0.00P  
07/24/2016 19:45 MST0.10P  0.55P  0.00P  
07/24/2016 20:00 MST0.13P  0.60P  0.00P  
07/24/2016 20:15 MST0.10P  0.57P  0.00P  
07/24/2016 20:30 MST0.13P  0.61P  0.00P  
07/24/2016 20:45 MST0.13P  0.61P  0.00P  
07/24/2016 21:00 MST0.13P  0.61P  0.00P  
07/24/2016 21:15 MST0.14P  0.62P  0.00P  
07/24/2016 21:30 MST0.14P  0.62P  0.00P  
07/24/2016 21:45 MST0.14P  0.62P  0.00P  
07/24/2016 22:00 MST0.11P  0.58P  0.00P  
07/24/2016 22:15 MST0.13P  0.61P  0.00P  
07/24/2016 22:30 MST0.10P  0.57P  0.00P  
07/24/2016 22:45 MST0.14P  0.62P  0.00P  
07/24/2016 23:00 MST0.10P  0.57P  0.00P  
07/24/2016 23:15 MST0.14P  0.62P  0.00P  
07/24/2016 23:30 MST0.14P  0.62P  0.01P  
07/24/2016 23:45 MST0.14P  0.62P  0.00P  
07/25/2016 00:00 MST0.15P  0.63P  0.01P  
07/25/2016 00:15 MST0.15P  0.63P  0.00P  
07/25/2016 00:30 MST0.16P  0.64P  0.00P  
07/25/2016 00:45 MST0.15P  0.63P  0.00P  
07/25/2016 01:00 MST0.16P  0.64P  0.00P  
07/25/2016 01:15 MST0.16P  0.64P  0.00P  
07/25/2016 01:30 MST0.16P  0.64P  0.00P  
07/25/2016 01:45 MST0.15P  0.63P  0.00P  
07/25/2016 02:00 MST0.16P  0.64P  0.00P  
07/25/2016 02:15 MST0.16P  0.64P  0.00P  
07/25/2016 02:30 MST0.16P  0.64P  0.00P  
07/25/2016 02:45 MST0.16P  0.64P  0.00P  
07/25/2016 03:00 MST0.16P  0.65P  0.00P  
07/25/2016 03:15 MST0.16P  0.64P  0.00P  
07/25/2016 03:30 MST0.16P  0.64P  0.00P  
07/25/2016 03:45 MST0.14P  0.62P  0.00P  
07/25/2016 04:00 MST0.16P  0.64P  0.00P  
07/25/2016 04:15 MST0.13P  0.60P  0.00P  
07/25/2016 04:30 MST0.16P  0.64P  0.00P  
07/25/2016 04:45 MST0.16P  0.65P  0.00P  
07/25/2016 05:00 MST0.16P  0.65P  0.00P  
07/25/2016 05:15 MST0.16P  0.65P  0.00P  
07/25/2016 05:30 MST0.16P  0.64P  0.00P  
07/25/2016 05:45 MST0.17P  0.66P  0.00P  
07/25/2016 06:00 MST0.17P  0.66P  0.00P  
07/25/2016 06:15 MST0.18P  0.67P  0.00P  
07/25/2016 06:30 MST0.17P  0.66P  0.00P  
07/25/2016 06:45 MST0.17P  0.66P  0.00P  
07/25/2016 07:00 MST0.18P  0.67P  0.00P  
07/25/2016 07:15 MST0.17P  0.66P  0.00P  
07/25/2016 07:30 MST0.19P  0.68P  0.00P  
07/25/2016 07:45 MST0.18P  0.67P  0.00P  
07/25/2016 08:00 MST0.18P  0.67P  0.00P  
07/25/2016 08:15 MST0.17P  0.66P  0.00P  
07/25/2016 08:30 MST0.17P  0.66P  0.00P  
07/25/2016 08:45 MST0.17P  0.66P  0.00P  
07/25/2016 09:00 MST0.18P  0.67P  0.00P  
07/25/2016 09:15 MST0.17P  0.66P  0.00P  
07/25/2016 09:30 MST0.17P  0.66P  0.00P  
07/25/2016 09:45 MST0.17P  0.66P  0.00P  
07/25/2016 10:00 MST0.16P  0.65P  0.00P  
07/25/2016 10:15 MST0.16P  0.65P  0.00P  
07/25/2016 10:30 MST0.16P  0.64P  0.00P  
07/25/2016 10:45 MST0.16P  0.64P  0.00P  
07/25/2016 11:00 MST0.16P  0.64P  0.00P  
07/25/2016 11:15 MST0.15P  0.63P  0.00P  
07/25/2016 11:30 MST0.15P  0.63P  0.00P  
07/25/2016 11:45 MST0.13P  0.61P  0.00P  
07/25/2016 12:00 MST0.13P  0.61P  0.00P  
07/25/2016 12:15 MST0.13P  0.61P  0.00P  
07/25/2016 12:30 MST0.10P  0.57P  0.00P  
07/25/2016 12:45 MST0.11P  0.58P  0.00P  
07/25/2016 13:00 MST0.12P  0.59P  0.00P  
07/25/2016 13:15 MST0.11P  0.58P  0.00P  
07/25/2016 13:30 MST0.10P  0.57P  0.00P  
07/25/2016 13:45 MST0.11P  0.58P  0.00P  
07/25/2016 14:00 MST0.12P  0.59P  0.00P  
07/25/2016 14:15 MST0.12P  0.59P  0.00P  
07/25/2016 14:30 MST0.11P  0.58P  0.00P  
07/25/2016 14:45 MST0.11P  0.58P  0.00P  
07/25/2016 15:00 MST0.12P  0.59P  0.00P  
07/25/2016 15:15 MST0.11P  0.58P  0.00P  
07/25/2016 15:30 MST0.11P  0.58P  0.00P  
07/25/2016 15:45 MST0.11P  0.58P  0.00P  
07/25/2016 16:00 MST0.11P  0.58P  0.00P  
07/25/2016 16:15 MST0.11P  0.58P  0.00P  
07/25/2016 16:30 MST0.09P  0.54P  0.00P  
07/25/2016 16:45 MST0.11P  0.58P  0.00P  
07/25/2016 17:00 MST0.11P  0.58P  0.00P  
07/25/2016 17:15 MST0.10P  0.55P  0.00P  
07/25/2016 17:30 MST0.11P  0.58P  0.00P  
07/25/2016 17:45 MST0.11P  0.58P  0.00P  
07/25/2016 18:00 MST0.12P  0.59P  0.00P  
07/25/2016 18:15 MST0.10P  0.55P  0.00P  
07/25/2016 18:30 MST0.12P  0.59P  0.00P  
07/25/2016 18:45 MST0.11P  0.58P  0.00P  
07/25/2016 19:00 MST0.11P  0.58P  0.00P  
07/25/2016 19:15 MST0.11P  0.58P  0.00P  
07/25/2016 19:30 MST0.12P  0.59P  0.00P  
07/25/2016 19:45 MST0.12P  0.59P  0.00P  
07/25/2016 20:00 MST0.11P  0.58P  0.00P  
07/25/2016 20:15 MST0.12P  0.59P  0.00P  
07/25/2016 20:30 MST0.11P  0.58P  0.00P  
07/25/2016 20:45 MST0.12P  0.59P  0.00P  
07/25/2016 21:00 MST0.11P  0.58P  0.00P  
07/25/2016 21:15 MST0.12P  0.59P  0.00P  
07/25/2016 21:30 MST0.12P  0.59P  0.00P  
07/25/2016 21:45 MST0.11P  0.58P  0.00P  
07/25/2016 22:00 MST0.08P  0.53P  0.00P  
07/25/2016 22:15 MST0.11P  0.58P  0.00P  
07/25/2016 22:30 MST0.12P  0.59P  0.00P  
07/25/2016 22:45 MST0.11P  0.58P  0.00P  
07/25/2016 23:00 MST0.12P  0.59P  0.00P  
07/25/2016 23:15 MST0.11P  0.58P  0.00P  
07/25/2016 23:30 MST0.12P  0.59P  0.00P  
07/25/2016 23:45 MST0.11P  0.58P  0.00P  
07/26/2016 00:00 MST0.08P  0.53P  0.00P  
07/26/2016 00:15 MST0.11P  0.58P  0.00P  
07/26/2016 00:30 MST0.10P  0.55P  0.00P  
07/26/2016 00:45 MST0.11P  0.58P  0.00P  
07/26/2016 01:00 MST0.12P  0.59P  0.00P  
07/26/2016 01:15 MST0.12P  0.59P  0.00P  
07/26/2016 01:30 MST0.11P  0.58P  0.00P  
07/26/2016 01:45 MST0.12P  0.59P  0.00P  
07/26/2016 02:00 MST0.11P  0.58P  0.00P  
07/26/2016 02:15 MST0.11P  0.58P  0.00P  
07/26/2016 02:30 MST0.10P  0.57P  0.00P  
07/26/2016 02:45 MST0.11P  0.58P  0.00P  
07/26/2016 03:00 MST0.12P  0.59P  0.00P  
07/26/2016 03:15 MST0.11P  0.58P  0.00P  
07/26/2016 03:30 MST0.12P  0.59P  0.00P  
07/26/2016 03:45 MST0.13P  0.60P  0.00P  
07/26/2016 04:00 MST0.10P  0.57P  0.00P  
07/26/2016 04:15 MST0.14P  0.62P  0.00P  
07/26/2016 04:30 MST0.13P  0.61P  0.00P  
07/26/2016 04:45 MST0.13P  0.61P  0.00P  
07/26/2016 05:00 MST0.14P  0.62P  0.00P  
07/26/2016 05:15 MST0.14P  0.62P  0.00P  
07/26/2016 05:30 MST0.15P  0.63P  0.00P  
07/26/2016 05:45 MST0.14P  0.62P  0.00P  
07/26/2016 06:00 MST0.15P  0.63P  0.00P  
07/26/2016 06:15 MST0.15P  0.63P  0.00P  
07/26/2016 06:30 MST0.15P  0.63P  0.00P  
07/26/2016 06:45 MST0.15P  0.63P  0.00P  
07/26/2016 07:00 MST0.15P  0.63P  0.00P  
07/26/2016 07:15 MST0.15P  0.63P  0.00P  
07/26/2016 07:30 MST0.15P  0.63P  0.00P  
07/26/2016 07:45 MST0.15P  0.63P  0.00P  
07/26/2016 08:00 MST0.16P  0.64P  0.00P  
07/26/2016 08:15 MST0.16P  0.64P  0.00P  
07/26/2016 08:30 MST0.16P  0.64P  0.00P  
07/26/2016 08:45 MST0.16P  0.64P  0.00P  
07/26/2016 09:00 MST0.16P  0.64P  0.00P  
07/26/2016 09:15 MST0.16P  0.64P  0.00P  
07/26/2016 09:30 MST0.15P  0.63P  0.00P  
07/26/2016 09:45 MST0.15P  0.63P  0.00P  
07/26/2016 10:00 MST0.15P  0.63P  0.00P  
07/26/2016 10:15 MST0.15P  0.63P  0.00P  
07/26/2016 10:30 MST0.13P  0.61P  0.00P  
07/26/2016 10:45 MST0.14P  0.62P  0.00P  
07/26/2016 11:00 MST0.14P  0.62P  0.00P  
07/26/2016 11:15 MST0.14P  0.62P  0.00P  
07/26/2016 11:30 MST0.13P  0.61P  0.00P  
07/26/2016 11:45 MST0.13P  0.61P  0.00P  
07/26/2016 12:00 MST0.13P  0.60P  0.00P  
07/26/2016 12:15 MST0.13P  0.60P  0.00P  
07/26/2016 12:30 MST0.12P  0.59P  0.00P  
07/26/2016 12:45 MST0.12P  0.59P  0.00P  
07/26/2016 13:00 MST0.11P  0.58P  0.00P  
07/26/2016 13:15 MST0.11P  0.58P  0.00P  
07/26/2016 13:30 MST0.11P  0.58P  0.00P  
07/26/2016 13:45 MST0.11P  0.58P  0.00P  
07/26/2016 14:00 MST0.11P  0.58P  0.00P  
07/26/2016 14:15 MST0.11P  0.58P  0.00P  
07/26/2016 14:30 MST0.11P  0.58P  0.00P  
07/26/2016 14:45 MST0.11P  0.58P  0.00P  
07/26/2016 15:00 MST0.12P  0.59P  0.00P  
07/26/2016 15:15 MST0.11P  0.58P  0.00P  
07/26/2016 15:30 MST0.11P  0.58P  0.00P  
07/26/2016 15:45 MST0.11P  0.58P  0.00P  
07/26/2016 16:00 MST0.12P  0.59P  0.00P  
07/26/2016 16:15 MST0.11P  0.58P  0.00P  
07/26/2016 16:30 MST0.11P  0.58P  0.00P  
07/26/2016 16:45 MST0.11P  0.58P  0.00P  
07/26/2016 17:00 MST0.12P  0.59P  0.04P  
07/26/2016 17:15 MST0.12P  0.59P  0.08P  
07/26/2016 17:30 MST0.10P  0.56P  0.00P  
07/26/2016 17:45 MST0.11P  0.58P  0.00P  
07/26/2016 18:00 MST0.11P  0.58P  0.00P  
07/26/2016 18:15 MST0.11P  0.58P  0.00P  
07/26/2016 18:30 MST0.11P  0.58P  0.00P  
07/26/2016 18:45 MST0.11P  0.58P  0.00P  
07/26/2016 19:00 MST0.11P  0.58P  0.00P  
07/26/2016 19:15 MST0.11P  0.58P  0.00P  
07/26/2016 19:30 MST0.11P  0.58P  0.00P  
07/26/2016 19:45 MST0.10P  0.57P  0.00P  
07/26/2016 20:00 MST0.11P  0.58P  0.00P  
07/26/2016 20:15 MST0.10P  0.57P  0.00P  
07/26/2016 20:30 MST0.08P  0.51P  0.00P  
07/26/2016 20:45 MST0.11P  0.58P  0.00P  
07/26/2016 21:00 MST0.11P  0.58P  0.00P  
07/26/2016 21:15 MST0.11P  0.58P  0.00P  
07/26/2016 21:30 MST0.11P  0.58P  0.00P  
07/26/2016 21:45 MST0.11P  0.58P  0.00P  
07/26/2016 22:00 MST0.11P  0.58P  0.00P  
07/26/2016 22:15 MST0.11P  0.58P  0.00P  
07/26/2016 22:30 MST0.11P  0.58P  0.00P  
07/26/2016 22:45 MST0.11P  0.58P  0.00P  
07/26/2016 23:00 MST0.11P  0.58P  0.00P  
07/26/2016 23:15 MST0.11P  0.58P  0.00P  
07/26/2016 23:30 MST0.11P  0.58P  0.00P  
07/26/2016 23:45 MST0.10P  0.57P  0.00P  
07/27/2016 00:00 MST0.10P  0.57P  0.00P  
07/27/2016 00:15 MST0.10P  0.57P  0.00P  
07/27/2016 00:30 MST0.11P  0.58P  0.00P  
07/27/2016 00:45 MST0.11P  0.58P  0.00P  
07/27/2016 01:00 MST0.11P  0.58P  0.00P  
07/27/2016 01:15 MST0.10P  0.57P  0.00P  
07/27/2016 01:30 MST0.11P  0.58P  0.00P  
07/27/2016 01:45 MST0.11P  0.58P  0.00P  
07/27/2016 02:00 MST0.11P  0.58P  0.00P  
07/27/2016 02:15 MST0.09P  0.54P  0.00P  
07/27/2016 02:30 MST0.11P  0.58P  0.00P  
07/27/2016 02:45 MST0.11P  0.58P  0.00P  
07/27/2016 03:00 MST0.08P  0.52P  0.00P  
07/27/2016 03:15 MST0.11P  0.58P  0.00P  
07/27/2016 03:30 MST0.11P  0.58P  0.00P  
07/27/2016 03:45 MST0.08P  0.52P  0.00P  
07/27/2016 04:00 MST0.11P  0.58P  0.00P  
07/27/2016 04:15 MST0.11P  0.58P  0.00P  
07/27/2016 04:30 MST0.10P  0.57P  0.00P  
07/27/2016 04:45 MST0.11P  0.58P  0.00P  
07/27/2016 05:00 MST0.12P  0.59P  0.00P  
07/27/2016 05:15 MST0.13P  0.60P  0.00P  
07/27/2016 05:30 MST0.13P  0.61P  0.00P  
07/27/2016 05:45 MST0.13P  0.61P  0.00P  
07/27/2016 06:00 MST0.14P  0.62P  0.00P  
07/27/2016 06:15 MST0.14P  0.62P  0.00P  

Explanation
  P  Provisional data subject to revision.